Provisional Data: Moose Creek near Plymptonville, PA


Please select a monitoring station.
Please select start date.
Please select start date.

Toggle Unit: C/F Toggle Unit: C/F
Sample Time Temperature (C) Temperature (F) Specific Conductivity (mS/cm) pH   Turbidity (NTU+) DO (mg/L)
2/4/2021 8:30:00 AM 0.29 32.522 0.146 6.57 2.24 13.83
2/4/2021 8:45:00 AM 0.32 32.576 0.146 6.57 2.27 13.82
2/4/2021 9:00:00 AM 0.36 32.648 0.146 6.57 2.28 13.81
2/4/2021 9:15:00 AM 0.41 32.738 0.146 6.57 2.23 13.79
2/4/2021 9:30:00 AM 0.46 32.828 0.146 6.58 2.2 13.77
2/4/2021 9:45:00 AM 0.52 32.936 0.146 6.58 2.2 13.75
2/4/2021 10:00:00 AM 0.56 33.008 0.146 6.58 2.2 13.73
2/4/2021 10:15:00 AM 0.61 33.098 0.146 6.58 2.25 13.7
2/4/2021 10:30:00 AM 0.65 33.17 0.146 6.59 2.22 13.69
2/4/2021 10:45:00 AM 0.69 33.242 0.146 6.59 2.22 13.67
2/4/2021 11:00:00 AM 0.74 33.332 0.145 6.59 2.18 13.65
2/4/2021 11:15:00 AM 0.81 33.458 0.145 6.59 2.39 13.62
2/4/2021 11:30:00 AM 0.87 33.566 0.145 6.59 2.23 13.59
2/4/2021 11:45:00 AM 0.96 33.728 0.145 6.59 2.22 13.55
2/4/2021 12:00:00 PM 1.06 33.908 0.145 6.59 2.21 13.51
2/4/2021 12:15:00 PM 1.18 34.124 0.145 6.59 2.2 13.45
2/4/2021 12:30:00 PM 1.29 34.322 0.145 6.6 2.18 13.4
2/4/2021 12:45:00 PM 1.41 34.538 0.145 6.6 2.2 13.35
2/4/2021 1:00:00 PM 1.52 34.736 0.145 6.6 2.16 13.3
2/4/2021 1:15:00 PM 1.61 34.898 0.145 6.6 2.22 13.27
2/4/2021 1:30:00 PM 1.68 35.024 0.145 6.6 2.18 13.24
2/4/2021 1:45:00 PM 1.74 35.132 0.145 6.6 2.18 13.21
2/4/2021 2:00:00 PM 1.78 35.204 0.145 6.6 2.22 13.19
2/4/2021 2:15:00 PM 1.8 35.24 0.145 6.6 2.23 13.18
2/4/2021 2:30:00 PM 1.81 35.258 0.145 6.6 2.23 13.18
2/4/2021 2:45:00 PM 1.81 35.258 0.145 6.6 2.22 13.18
2/4/2021 3:00:00 PM 1.8 35.24 0.145 6.6 2.2 13.17
2/4/2021 3:15:00 PM 1.77 35.186 0.145 6.59 2.22 13.18
2/4/2021 3:30:00 PM 1.72 35.096 0.146 6.59 2.26 13.19
2/4/2021 3:45:00 PM 1.69 35.042 0.146 6.59 2.26 13.2
2/4/2021 4:00:00 PM 1.65 34.97 0.146 6.59 2.26 13.21
2/4/2021 4:15:00 PM 1.6 34.88 0.146 6.6 2.25 13.22
2/4/2021 4:30:00 PM 1.55 34.79 0.146 6.59 2.24 13.24
2/4/2021 4:45:00 PM 1.5 34.7 0.146 6.6 2.2 13.26
2/4/2021 5:00:00 PM 1.46 34.628 0.147 6.59 2.22 13.28
2/4/2021 5:15:00 PM 1.41 34.538 0.148 6.59 2.24 13.29
2/4/2021 5:30:00 PM 1.36 34.448 0.15 6.59 2.27 13.31
2/4/2021 5:45:00 PM 1.32 34.376 0.151 6.59 2.27 13.33
2/4/2021 6:00:00 PM 1.28 34.304 0.152 6.58 2.33 13.34
2/4/2021 6:15:00 PM 1.26 34.268 0.153 6.58 2.27 13.35
2/4/2021 6:30:00 PM 1.24 34.232 0.153 6.58 2.32 13.36
2/4/2021 6:45:00 PM 1.22 34.196 0.153 6.58 2.27 13.36
2/4/2021 7:00:00 PM 1.21 34.178 0.153 6.59 2.25 13.36
2/4/2021 7:15:00 PM 1.21 34.178 0.152 6.59 2.27 13.36
2/4/2021 7:30:00 PM 1.2 34.16 0.152 6.58 2.26 13.36
2/4/2021 7:45:00 PM 1.19 34.142 0.152 6.58 2.29 13.36
2/4/2021 8:00:00 PM 1.2 34.16 0.152 6.58 2.23 13.35
2/4/2021 8:15:00 PM 1.21 34.178 0.152 6.58 2.23 13.35
2/4/2021 8:30:00 PM 1.22 34.196 0.152 6.59 2.23 13.33
2/4/2021 8:45:00 PM 1.23 34.214 0.151 6.59 2.24 13.33
2/4/2021 9:00:00 PM 1.25 34.25 0.151 6.59 2.25 13.32
2/4/2021 9:15:00 PM 1.27 34.286 0.151 6.59 2.25 13.31
2/4/2021 9:30:00 PM 1.28 34.304 0.151 6.59 2.25 13.3
2/4/2021 9:45:00 PM 1.29 34.322 0.151 6.59 2.25 13.29
2/4/2021 10:00:00 PM 1.31 34.358 0.15 6.59 2.21 13.28
2/4/2021 10:15:00 PM 1.32 34.376 0.15 6.59 2.23 13.27
2/4/2021 10:30:00 PM 1.32 34.376 0.15 6.59 2.23 13.26
2/4/2021 10:45:00 PM 1.34 34.412 0.15 6.59 2.26 13.26
2/4/2021 11:00:00 PM 1.29 34.322 0.15 6.59 2.26 13.26
2/4/2021 11:15:00 PM 1.28 34.304 0.149 6.59 2.23 13.27
2/4/2021 11:30:00 PM 1.3 34.34 0.149 6.59 2.24 13.26
2/4/2021 11:45:00 PM 1.32 34.376 0.149 6.59 2.24 13.25
2/5/2021 12:00:00 AM 1.34 34.412 0.149 6.59 2.27 13.25
2/5/2021 12:15:00 AM 1.3 34.34 0.149 6.6 2.27 13.25
2/5/2021 12:30:00 AM 1.2 34.16 0.148 6.6 2.3 13.26
2/5/2021 12:45:00 AM 1.19 34.142 0.148 6.6 2.24 13.28
2/5/2021 1:00:00 AM 1.14 34.052 0.148 6.6 2.28 13.27
2/5/2021 1:15:00 AM 1.1 33.98 0.147 6.6 2.27 13.3
2/5/2021 1:30:00 AM 1.07 33.926 0.147 6.6 2.29 13.32
2/5/2021 1:45:00 AM 1.04 33.872 0.147 6.59 2.3 13.32
2/5/2021 2:00:00 AM 0.96 33.728 0.147 6.59 2.31 13.34
2/5/2021 2:15:00 AM 0.91 33.638 0.146 6.59 2.32 13.36
2/5/2021 2:30:00 AM 0.93 33.674 0.146 6.59 2.27 13.36
2/5/2021 2:45:00 AM 0.96 33.728 0.146 6.59 2.33 13.35
2/5/2021 3:00:00 AM 0.97 33.746 0.146 6.59 2.29 13.34
2/5/2021 3:15:00 AM 0.96 33.728 0.146 6.59 2.29 13.33
2/5/2021 3:30:00 AM 0.99 33.782 0.146 6.59 2.27 13.32
2/5/2021 3:45:00 AM 1.04 33.872 0.146 6.59 2.27 13.3
2/5/2021 4:00:00 AM 1.09 33.962 0.147 6.59 2.25 13.28
2/5/2021 4:15:00 AM 1.13 34.034 0.147 6.59 2.24 13.27
2/5/2021 4:30:00 AM 1.16 34.088 0.147 6.59 2.27 13.25
2/5/2021 4:45:00 AM 1.18 34.124 0.147 6.59 2.26 13.23
2/5/2021 5:00:00 AM 1.15 34.07 0.147 6.59 2.28 13.23
2/5/2021 5:15:00 AM 1.17 34.106 0.147 6.59 2.36 13.23
2/5/2021 5:30:00 AM 1.18 34.124 0.147 6.59 2.27 13.23
2/5/2021 5:45:00 AM 1.2 34.16 0.147 6.59 2.24 13.22
2/5/2021 6:00:00 AM 1.22 34.196 0.148 6.59 2.27 13.21
2/5/2021 6:15:00 AM 1.16 34.088 0.147 6.59 2.25 13.22
2/5/2021 6:30:00 AM 1.12 34.016 0.147 6.59 2.25 13.25
2/5/2021 6:45:00 AM 1.17 34.106 0.148 6.59 2.23 13.24
2/5/2021 7:00:00 AM 1.2 34.16 0.148 6.59 2.24 13.23
2/5/2021 7:15:00 AM 1.22 34.196 0.148 6.59 2.26 13.22
2/5/2021 7:30:00 AM 1.24 34.232 0.149 6.59 2.26 13.21
2/5/2021 7:45:00 AM 1.28 34.304 0.15 6.59 2.3 13.2
2/5/2021 8:00:00 AM 1.31 34.358 0.15 6.59 2.27 13.2
2/5/2021 8:15:00 AM 1.33 34.394 0.15 6.59 2.29 13.2
2/5/2021 8:30:00 AM 1.37 34.466 0.15 6.6 2.27 13.19
2/5/2021 8:45:00 AM 1.41 34.538 0.15 6.59 2.26 13.17
2/5/2021 9:00:00 AM 1.45 34.61 0.151 6.59 2.24 13.16
2/5/2021 9:15:00 AM 1.49 34.682 0.151 6.59 2.27 13.15
2/5/2021 9:30:00 AM 1.53 34.754 0.151 6.59 2.26 13.14
2/5/2021 9:45:00 AM 1.54 34.772 0.151 6.59 2.23 13.13
2/5/2021 10:00:00 AM 1.58 34.844 0.151 6.59 2.23 13.11
2/5/2021 10:15:00 AM 1.66 34.988 0.152 6.6 2.34 13.09
2/5/2021 10:30:00 AM 1.73 35.114 0.152 6.6 2.26 13.07
2/5/2021 10:45:00 AM 1.78 35.204 0.152 6.6 2.21 13.05
2/5/2021 11:00:00 AM 1.8 35.24 0.153 6.6 2.24 13.04
2/5/2021 11:15:00 AM 1.83 35.294 0.154 6.6 2.27 13.03
2/5/2021 11:30:00 AM 1.85 35.33 0.156 6.59 2.22 13.01
2/5/2021 11:45:00 AM 1.87 35.366 0.157 6.59 2.28 13.01
2/5/2021 12:00:00 PM 1.87 35.366 0.158 6.59 2.18 13
2/5/2021 12:15:00 PM 1.87 35.366 0.158 6.59 2.25 13.01
2/5/2021 12:30:00 PM 1.87 35.366 0.158 6.6 2.26 13.01
2/5/2021 12:45:00 PM 1.87 35.366 0.158 6.6 2.26 13.01
2/5/2021 1:00:00 PM 1.85 35.33 0.158 6.6 2.25 13.02
2/5/2021 1:15:00 PM 1.83 35.294 0.158 6.6 2.22 13.03
2/5/2021 1:30:00 PM 1.83 35.294 0.157 6.6 2.25 13.03
2/5/2021 1:45:00 PM 1.81 35.258 0.157 6.6 2.26 13.04
2/5/2021 2:00:00 PM 1.81 35.258 0.157 6.6 2.61 13.04
2/5/2021 2:15:00 PM 1.79 35.222 0.156 6.61 2.65 13.04
2/5/2021 2:30:00 PM 1.79 35.222 0.156 6.6 2.56 13.05
2/5/2021 2:45:00 PM 1.79 35.222 0.156 6.6 2.45 13.05
2/5/2021 3:00:00 PM 1.8 35.24 0.156 6.6 2.3 13.04
2/5/2021 3:15:00 PM 1.8 35.24 0.156 6.6 2.29 13.04
2/5/2021 3:30:00 PM 1.78 35.204 0.156 6.6 2.24 13.05
2/5/2021 3:45:00 PM 1.75 35.15 0.156 6.6 2.29 13.06
2/5/2021 4:00:00 PM 1.73 35.114 0.156 6.6 2.31 13.07
2/5/2021 4:15:00 PM 1.7 35.06 0.156 6.6 2.29 13.08
2/5/2021 4:30:00 PM 1.66 34.988 0.156 6.6 2.26 13.1
2/5/2021 4:45:00 PM 1.63 34.934 0.156 6.6 2.27 13.12
2/5/2021 5:00:00 PM 1.57 34.826 0.156 6.6 2.25 13.13
2/5/2021 5:15:00 PM 1.52 34.736 0.156 6.6 2.25 13.16
2/5/2021 5:30:00 PM 1.48 34.664 0.157 6.59 2.3 13.17
2/5/2021 5:45:00 PM 1.43 34.574 0.157 6.59 2.27 13.2
2/5/2021 6:00:00 PM 1.35 34.43 0.158 6.59 2.29 13.23
2/5/2021 6:15:00 PM 1.3 34.34 0.158 6.59 2.28 13.25
2/5/2021 6:30:00 PM 1.25 34.25 0.159 6.59 2.26 13.27
2/5/2021 6:45:00 PM 1.19 34.142 0.159 6.59 2.27 13.3
2/5/2021 7:00:00 PM 1.14 34.052 0.159 6.59 2.26 13.33
2/5/2021 7:15:00 PM 1.11 33.998 0.16 6.59 2.27 13.34
2/5/2021 7:30:00 PM 1.08 33.944 0.161 6.59 2.31 13.35
2/5/2021 7:45:00 PM 1.05 33.89 0.161 6.59 2.27 13.37
2/5/2021 8:00:00 PM 1.02 33.836 0.162 6.59 2.31 13.38
2/5/2021 8:15:00 PM 1 33.8 0.162 6.59 2.29 13.38
2/5/2021 8:30:00 PM 0.97 33.746 0.162 6.59 2.33 13.39
2/5/2021 8:45:00 PM 0.95 33.71 0.162 6.59 2.32 13.41
2/5/2021 9:00:00 PM 0.93 33.674 0.163 6.59 2.22 13.42
2/5/2021 9:15:00 PM 0.92 33.656 0.163 6.59 2.27 13.42
2/5/2021 9:30:00 PM 0.91 33.638 0.163 6.59 2.28 13.43
2/5/2021 9:45:00 PM 0.89 33.602 0.163 6.59 2.29 13.44
2/5/2021 10:00:00 PM 0.89 33.602 0.163 6.59 2.28 13.44
2/5/2021 10:15:00 PM 0.88 33.584 0.163 6.59 2.24 13.45
2/5/2021 10:30:00 PM 0.87 33.566 0.163 6.59 2.26 13.45
2/5/2021 10:45:00 PM 0.87 33.566 0.163 6.59 2.25 13.45
2/5/2021 11:00:00 PM 0.88 33.584 0.163 6.59 2.29 13.45
2/5/2021 11:15:00 PM 0.9 33.62 0.163 6.59 2.27 13.45
2/5/2021 11:30:00 PM 0.9 33.62 0.163 6.59 2.29 13.44
2/5/2021 11:45:00 PM 0.9 33.62 0.163 6.59 2.27 13.44
2/6/2021 12:00:00 AM 0.91 33.638 0.163 6.59 2.28 13.43
2/6/2021 12:15:00 AM 0.91 33.638 0.163 6.59 2.28 13.44
2/6/2021 12:30:00 AM 0.91 33.638 0.162 6.59 2.28 13.44
2/6/2021 12:45:00 AM 0.91 33.638 0.162 6.59 2.26 13.43
2/6/2021 1:00:00 AM 0.92 33.656 0.162 6.59 2.29 13.43
2/6/2021 1:15:00 AM 0.92 33.656 0.162 6.59 2.3 13.43
2/6/2021 1:30:00 AM 0.91 33.638 0.162 6.59 2.27 13.43
2/6/2021 1:45:00 AM 0.91 33.638 0.162 6.59 2.25 13.43
2/6/2021 2:00:00 AM 0.93 33.674 0.162 6.59 2.27 13.43
2/6/2021 2:15:00 AM 0.93 33.674 0.162 6.59 2.28 13.43
2/6/2021 2:30:00 AM 0.93 33.674 0.161 6.59 2.26 13.43
2/6/2021 2:45:00 AM 0.92 33.656 0.161 6.59 2.29 13.44
2/6/2021 3:00:00 AM 0.92 33.656 0.161 6.59 2.26 13.43
2/6/2021 3:15:00 AM 0.91 33.638 0.161 6.59 2.25 13.44
2/6/2021 3:30:00 AM 0.88 33.584 0.161 6.59 2.23 13.45
2/6/2021 3:45:00 AM 0.86 33.548 0.161 6.59 2.25 13.46
2/6/2021 4:00:00 AM 0.84 33.512 0.161 6.59 2.29 13.47
2/6/2021 4:15:00 AM 0.83 33.494 0.161 6.59 2.26 13.48
2/6/2021 4:30:00 AM 0.83 33.494 0.161 6.59 2.25 13.49
2/6/2021 4:45:00 AM 0.8 33.44 0.161 6.59 2.24 13.49
2/6/2021 5:00:00 AM 0.78 33.404 0.161 6.58 2.24 13.51
2/6/2021 5:15:00 AM 0.75 33.35 0.16 6.59 2.25 13.52
2/6/2021 5:30:00 AM 0.72 33.296 0.16 6.59 2.29 13.54
2/6/2021 5:45:00 AM 0.7 33.26 0.16 6.59 2.23 13.55
2/6/2021 6:00:00 AM 0.69 33.242 0.16 6.59 2.27 13.56
2/6/2021 6:15:00 AM 0.67 33.206 0.16 6.58 2.24 13.57
2/6/2021 6:30:00 AM 0.65 33.17 0.16 6.58 2.29 13.58
2/6/2021 6:45:00 AM 0.63 33.134 0.16 6.58 2.24 13.59
2/6/2021 7:00:00 AM 0.61 33.098 0.16 6.58 2.26 13.6
2/6/2021 7:15:00 AM 0.57 33.026 0.16 6.58 2.28 13.62
2/6/2021 7:30:00 AM 0.55 32.99 0.16 6.58 2.26 13.63
2/6/2021 7:45:00 AM 0.53 32.954 0.16 6.58 2.34 13.65
2/6/2021 8:00:00 AM 0.49 32.882 0.16 6.58 2.26 13.66
2/6/2021 8:15:00 AM 0.48 32.864 0.16 6.59 2.3 13.68
2/6/2021 8:30:00 AM 0.47 32.846 0.16 6.58 2.28 13.69
2/6/2021 8:45:00 AM 0.45 32.81 0.16 6.59 2.3 13.7
2/6/2021 9:00:00 AM 0.42 32.756 0.16 6.58 2.3 13.72
2/6/2021 9:15:00 AM 0.41 32.738 0.16 6.58 2.26 13.72
2/6/2021 9:30:00 AM 0.39 32.702 0.16 6.53 2.26 13.74
2/6/2021 9:45:00 AM 0.37 32.666 0.16 6.54 2.27 13.75
2/6/2021 10:00:00 AM 0.38 32.684 0.16 6.53 2.27 13.75
2/6/2021 10:15:00 AM 0.41 32.738 0.16 6.54 2.23 13.75
2/6/2021 10:30:00 AM 0.46 32.828 0.16 6.54 2.33 13.72
2/6/2021 10:45:00 AM 0.5 32.9 0.159 6.54 2.29 13.72
2/6/2021 11:00:00 AM 0.54 32.972 0.159 6.55 2.29 13.7
2/6/2021 11:15:00 AM 0.61 33.098 0.159 6.56 2.28 13.67
2/6/2021 11:30:00 AM 0.68 33.224 0.159 6.56 2.28 13.64
2/6/2021 11:45:00 AM 0.75 33.35 0.159 6.57 2.3 13.61
2/6/2021 12:00:00 PM 0.84 33.512 0.159 6.57 2.26 13.58
2/6/2021 12:15:00 PM 0.91 33.638 0.159 6.58 2.25 13.54
2/6/2021 12:30:00 PM 0.99 33.782 0.159 6.58 2.26 13.52
2/6/2021 12:45:00 PM 1.06 33.908 0.159 6.58 2.29 13.48
2/6/2021 1:00:00 PM 1.15 34.07 0.159 6.58 2.27 13.45
2/6/2021 1:15:00 PM 1.22 34.196 0.158 6.59 2.25 13.42
2/6/2021 1:30:00 PM 1.28 34.304 0.158 6.59 2.23 13.4
2/6/2021 1:45:00 PM 1.33 34.394 0.158 6.59 2.24 13.38
2/6/2021 2:00:00 PM 1.35 34.43 0.158 6.59 2.23 13.36
2/6/2021 2:15:00 PM 1.35 34.43 0.158 6.59 2.27 13.37
2/6/2021 2:30:00 PM 1.33 34.394 0.158 6.59 2.26 13.37
2/6/2021 2:45:00 PM 1.33 34.394 0.158 6.59 2.22 13.38
2/6/2021 3:00:00 PM 1.3 34.34 0.158 6.59 2.25 13.39
2/6/2021 3:15:00 PM 1.24 34.232 0.158 6.59 2.28 13.42
2/6/2021 3:30:00 PM 1.18 34.124 0.158 6.59 2.28 13.44
2/6/2021 3:45:00 PM 1.14 34.052 0.158 6.59 2.25 13.47
2/6/2021 4:00:00 PM 1.07 33.926 0.158 6.59 2.27 13.49
2/6/2021 4:15:00 PM 1.02 33.836 0.158 6.59 2.27 13.52
2/6/2021 4:30:00 PM 0.95 33.71 0.158 6.59 2.29 13.54
2/6/2021 4:45:00 PM 0.9 33.62 0.158 6.59 2.27 13.56
2/6/2021 5:00:00 PM 0.86 33.548 0.158 6.59 2.27 13.58
2/6/2021 5:15:00 PM 0.82 33.476 0.158 6.59 2.32 13.61
2/6/2021 5:30:00 PM 0.78 33.404 0.158 6.59 2.33 13.62
2/6/2021 5:45:00 PM 0.72 33.296 0.158 6.57 2.25 13.64
2/6/2021 6:00:00 PM 0.67 33.206 0.158 6.56 2.26 13.66
2/6/2021 6:15:00 PM 0.61 33.098 0.158 6.56 2.24 13.68
2/6/2021 6:30:00 PM 0.56 33.008 0.159 6.55 2.29 13.7
2/6/2021 6:45:00 PM 0.49 32.882 0.159 6.55 2.31 13.73
2/6/2021 7:00:00 PM 0.43 32.774 0.159 6.54 2.25 13.75
2/6/2021 7:15:00 PM 0.37 32.666 0.159 6.54 2.33 13.78
2/6/2021 7:30:00 PM 0.29 32.522 0.159 6.54 2.32 13.81
2/6/2021 7:45:00 PM 0.22 32.396 0.159 6.53 2.32 13.85
2/6/2021 8:00:00 PM 0.15 32.27 0.159 6.52 2.3 13.88
2/6/2021 8:15:00 PM 0.08 32.144 0.159 6.52 2.26 13.91
2/6/2021 8:30:00 PM 0.02 32.036 0.159 6.51 2.27 13.94
2/6/2021 8:45:00 PM -0.03 31.946 0.159 6.51 2.29 13.96
2/6/2021 9:00:00 PM -0.02 31.964 0.16 6.51 2.35 13.98
2/6/2021 9:15:00 PM -0.02 31.964 0.159 6.5 2.5 13.99
2/6/2021 9:30:00 PM -0.01 31.982 0.16 6.51 2.49 13.99
2/6/2021 9:45:00 PM -0.01 31.982 0.16 6.52 2.43 13.99
2/6/2021 10:00:00 PM -0.01 31.982 0.16 6.53 2.44 13.98
2/6/2021 10:15:00 PM -0.01 31.982 0.16 6.53 2.71 13.99
2/6/2021 10:30:00 PM -0.01 31.982 0.16 6.54 2.51 13.98
2/6/2021 10:45:00 PM -0.01 31.982 0.16 6.54 2.49 13.98
2/6/2021 11:00:00 PM -0.01 31.982 0.159 6.54 2.55 13.98
2/6/2021 11:15:00 PM -0.01 31.982 0.159 6.55 2.44 13.98
2/6/2021 11:30:00 PM -0.01 31.982 0.159 6.55 2.58 13.99
2/6/2021 11:45:00 PM -0.01 31.982 0.159 6.54 2.63 13.99
2/7/2021 12:00:00 AM -0.01 31.982 0.159 6.53 2.61 13.99
2/7/2021 12:15:00 AM -0.01 31.982 0.159 6.54 2.6 13.99
2/7/2021 12:30:00 AM -0.01 31.982 0.159 6.55 2.81 13.99
2/7/2021 12:45:00 AM -0.01 31.982 0.159 6.55 2.97 13.99
2/7/2021 1:00:00 AM -0.01 31.982 0.159 6.55 3.22 14
2/7/2021 1:15:00 AM -0.01 31.982 0.159 6.55 3.1 14
2/7/2021 1:30:00 AM -0.01 31.982 0.159 6.55 2.94 14
2/7/2021 1:45:00 AM -0.01 31.982 0.159 6.55 3.05 14
2/7/2021 2:00:00 AM -0.01 31.982 0.158 6.54 3.06 13.99
2/7/2021 2:15:00 AM -0.01 31.982 0.158 6.55 3.08 13.99
2/7/2021 2:30:00 AM -0.01 31.982 0.158 6.54 2.96 13.98
2/7/2021 2:45:00 AM -0.01 31.982 0.158 6.54 3.12 13.97
2/7/2021 3:00:00 AM -0.01 31.982 0.158 6.54 3.24 13.97
2/7/2021 3:15:00 AM -0.01 31.982 0.158 6.54 2.61 13.97
2/7/2021 3:30:00 AM -0.01 31.982 0.158 6.54 2.7 13.95
2/7/2021 3:45:00 AM -0.01 31.982 0.159 6.55 2.64 13.97
2/7/2021 4:00:00 AM 0 32 0.159 6.54 2.55 13.96
2/7/2021 4:15:00 AM 0 32 0.159 6.54 2.52 13.96
2/7/2021 4:30:00 AM 0 32 0.159 6.54 2.62 13.96
2/7/2021 4:45:00 AM 0 32 0.159 6.54 2.77 13.96
2/7/2021 5:00:00 AM 0 32 0.16 6.53 2.87 13.97
2/7/2021 5:15:00 AM 0 32 0.16 6.53 3.06 13.97
2/7/2021 5:30:00 AM 0 32 0.16 6.53 3 13.97
2/7/2021 5:45:00 AM 0 32 0.16 6.53 2.94 13.96
2/7/2021 6:00:00 AM 0 32 0.16 6.53 6.16 13.95
2/7/2021 6:15:00 AM 0 32 0.16 6.53 6.52 13.94
2/7/2021 6:30:00 AM 0 32 0.16 6.54 3.82 13.94
2/7/2021 6:45:00 AM 0 32 0.16 6.54 2.8 13.93
2/7/2021 7:00:00 AM 0 32 0.16 6.54 2.56 13.92
2/7/2021 7:15:00 AM 0 32 0.16 6.55 2.55 13.92
2/7/2021 7:30:00 AM 0 32 0.16 6.55 2.44 13.92
2/7/2021 7:45:00 AM 0 32 0.16 6.55 2.51 13.92
2/7/2021 8:00:00 AM 0 32 0.16 6.55 2.67 13.91
2/7/2021 8:15:00 AM 0 32 0.161 6.55 2.52 13.89
2/7/2021 8:30:00 AM 0 32 0.161 6.55 2.53 13.9
2/7/2021 8:45:00 AM 0 32 0.16 6.55 2.51 13.89
2/7/2021 9:00:00 AM 0 32 0.161 6.55 2.58 13.88
2/7/2021 9:15:00 AM 0 32 0.161 6.55 2.87 13.87
2/7/2021 9:30:00 AM 0 32 0.161 6.55 2.59 13.88
2/7/2021 9:45:00 AM 0 32 0.161 6.56 2.69 13.87
2/7/2021 10:00:00 AM 0 32 0.16 6.56 2.66 13.88
2/7/2021 10:15:00 AM 0 32 0.159 6.56 2.61 13.88
2/7/2021 10:30:00 AM 0 32 0.159 6.56 2.79 13.88
2/7/2021 10:45:00 AM 0 32 0.158 6.56 2.64 13.88
2/7/2021 11:00:00 AM 0 32 0.158 6.56 2.64 13.88
2/7/2021 11:15:00 AM 0 32 0.158 6.56 2.61 13.89
2/7/2021 11:30:00 AM 0 32 0.158 6.56 2.68 13.88
2/7/2021 11:45:00 AM 0 32 0.158 6.57 2.79 13.88
2/7/2021 12:00:00 PM 0 32 0.158 6.57 2.67 13.88
2/7/2021 12:15:00 PM 0.01 32.018 0.158 6.56 2.73 13.88
2/7/2021 12:30:00 PM 0.01 32.018 0.158 6.57 2.73 13.87
2/7/2021 12:45:00 PM 0.01 32.018 0.158 6.57 2.7 13.86
2/7/2021 1:00:00 PM 0.01 32.018 0.158 6.57 2.64 13.85
2/7/2021 1:15:00 PM 0.01 32.018 0.158 6.57 2.8 13.83
2/7/2021 1:30:00 PM 0.01 32.018 0.158 6.57 2.72 13.82
2/7/2021 1:45:00 PM 0.01 32.018 0.158 6.57 2.81 13.8
2/7/2021 2:00:00 PM 0.02 32.036 0.158 6.57 2.76 13.78
2/7/2021 2:15:00 PM 0.13 32.234 0.158 6.57 2.8 13.73
2/7/2021 2:30:00 PM 0.28 32.504 0.158 6.58 2.55 13.7
2/7/2021 2:45:00 PM 0.4 32.72 0.158 6.58 2.49 13.67
2/7/2021 3:00:00 PM 0.49 32.882 0.158 6.58 2.49 13.64
2/7/2021 3:15:00 PM 0.53 32.954 0.158 6.58 2.47 13.64
2/7/2021 3:30:00 PM 0.53 32.954 0.158 6.58 2.45 13.64
2/7/2021 3:45:00 PM 0.52 32.936 0.158 6.58 2.42 13.66
2/7/2021 4:00:00 PM 0.51 32.918 0.159 6.58 2.5 13.67
2/7/2021 4:15:00 PM 0.48 32.864 0.159 6.58 2.43 13.68
2/7/2021 4:30:00 PM 0.44 32.792 0.159 6.58 2.41 13.7
2/7/2021 4:45:00 PM 0.39 32.702 0.159 6.58 2.52 13.73
2/7/2021 5:00:00 PM 0.33 32.594 0.159 6.58 2.43 13.75
2/7/2021 5:15:00 PM 0.27 32.486 0.159 6.58 2.42 13.79
2/7/2021 5:30:00 PM 0.22 32.396 0.159 6.58 2.45 13.82
2/7/2021 5:45:00 PM 0.16 32.288 0.159 6.58 2.44 13.85
2/7/2021 6:00:00 PM 0.11 32.198 0.159 6.58 2.39 13.87
2/7/2021 6:15:00 PM 0.06 32.108 0.159 6.58 2.45 13.9
2/7/2021 6:30:00 PM 0.02 32.036 0.159 6.58 2.47 13.92
2/7/2021 6:45:00 PM -0.02 31.964 0.159 6.57 2.41 13.95
2/7/2021 7:00:00 PM -0.02 31.964 0.16 6.57 2.49 13.97
2/7/2021 7:15:00 PM -0.02 31.964 0.16 6.58 2.56 13.97
2/7/2021 7:30:00 PM -0.01 31.982 0.16 6.57 2.44 13.98
2/7/2021 7:45:00 PM -0.01 31.982 0.16 6.57 2.49 13.98
2/7/2021 8:00:00 PM -0.02 31.964 0.16 6.57 2.55 13.99
2/7/2021 8:15:00 PM -0.02 31.964 0.16 6.57 2.51 13.99
2/7/2021 8:30:00 PM -0.02 31.964 0.16 6.57 2.53 13.99
2/7/2021 8:45:00 PM -0.01 31.982 0.16 6.58 2.52 14
2/7/2021 9:00:00 PM -0.01 31.982 0.161 6.58 2.51 14
2/7/2021 9:15:00 PM -0.01 31.982 0.16 6.57 2.46 14
2/7/2021 9:30:00 PM -0.01 31.982 0.16 6.57 2.61 14
2/7/2021 9:45:00 PM -0.01 31.982 0.16 6.56 2.5 14.01
2/7/2021 10:00:00 PM -0.01 31.982 0.16 6.54 2.51 14.01
2/7/2021 10:15:00 PM -0.01 31.982 0.16 6.55 2.44 14.02
2/7/2021 10:30:00 PM -0.01 31.982 0.16 6.55 2.41 14.02
2/7/2021 10:45:00 PM -0.01 31.982 0.159 6.54 2.76 14.03
2/7/2021 11:00:00 PM -0.01 31.982 0.159 6.54 2.48 14.03
2/7/2021 11:15:00 PM -0.01 31.982 0.159 6.54 3.13 14.03
2/7/2021 11:30:00 PM -0.01 31.982 0.159 6.54 2.59 14.03
2/7/2021 11:45:00 PM -0.01 31.982 0.159 6.53 2.5 14.03
2/8/2021 12:00:00 AM -0.01 31.982 0.158 6.52 2.55 14.04
2/8/2021 12:15:00 AM -0.01 31.982 0.158 6.52 2.61 14.04
2/8/2021 12:30:00 AM -0.01 31.982 0.158 6.51 2.67 14.04
2/8/2021 12:45:00 AM -0.01 31.982 0.158 6.51 2.54 14.04
2/8/2021 1:00:00 AM -0.01 31.982 0.158 6.51 2.58 14.04
2/8/2021 1:15:00 AM -0.01 31.982 0.158 6.51 2.66 14.04
2/8/2021 1:30:00 AM -0.01 31.982 0.158 6.51 2.72 14.05
2/8/2021 1:45:00 AM -0.01 31.982 0.158 6.5 2.73 14.04
2/8/2021 2:00:00 AM -0.01 31.982 0.158 6.5 2.76 14.06
2/8/2021 2:15:00 AM -0.01 31.982 0.159 6.5 2.68 14.05
2/8/2021 2:30:00 AM -0.01 31.982 0.16 6.5 2.68 14.05
2/8/2021 2:45:00 AM -0.01 31.982 0.16 6.5 3.21 14.06
2/8/2021 3:00:00 AM -0.01 31.982 0.16 6.49 2.83 14.07
2/8/2021 3:15:00 AM -0.01 31.982 0.16 6.48 2.57 14.07
2/8/2021 3:30:00 AM -0.01 31.982 0.159 6.48 2.69 14.08
2/8/2021 3:45:00 AM -0.01 31.982 0.159 6.48 2.66 14.08
2/8/2021 4:00:00 AM -0.01 31.982 0.16 6.49 2.75 14.09
2/8/2021 4:15:00 AM -0.01 31.982 0.16 6.5 2.61 14.1
2/8/2021 4:30:00 AM -0.01 31.982 0.16 6.5 2.53 14.1
2/8/2021 4:45:00 AM -0.01 31.982 0.16 6.5 2.45 14.09
2/8/2021 5:00:00 AM -0.01 31.982 0.16 6.49 2.57 14.09
2/8/2021 5:15:00 AM -0.01 31.982 0.16 6.49 2.65 14.09
2/8/2021 5:30:00 AM -0.01 31.982 0.16 6.49 2.52 14.08
2/8/2021 5:45:00 AM -0.01 31.982 0.16 6.49 2.58 14.08
2/8/2021 6:00:00 AM -0.01 31.982 0.16 6.49 2.47 14.08
2/8/2021 6:15:00 AM -0.01 31.982 0.16 6.49 2.5 14.09
2/8/2021 6:30:00 AM -0.01 31.982 0.16 6.48 2.65 14.11
2/8/2021 6:45:00 AM -0.01 31.982 0.16 6.47 2.72 14.12
2/8/2021 7:00:00 AM -0.01 31.982 0.16 6.46 2.76 14.18
2/8/2021 7:15:00 AM -0.01 31.982 0.16 6.46 2.75 14.17
2/8/2021 7:30:00 AM -0.01 31.982 0.161 6.47 2.8 14.18
2/8/2021 7:45:00 AM -0.01 31.982 0.162 6.47 2.81 14.16
2/8/2021 8:00:00 AM -0.01 31.982 0.164 6.47 2.74 14.16
2/8/2021 8:15:00 AM -0.01 31.982 0.165 6.46 2.79 14.15
2/8/2021 8:30:00 AM 0 32 0.165 6.46 2.75 14.18
2/8/2021 8:45:00 AM 0 32 0.163 6.46 2.78 14.2
2/8/2021 9:00:00 AM 0 32 0.162 6.47 2.9 14.2
2/8/2021 9:15:00 AM 0 32 0.162 6.46 2.96 14.19
2/8/2021 9:30:00 AM 0 32 0.162 6.47 2.89 14.19
2/8/2021 9:45:00 AM 0 32 0.161 6.47 3.01 14.17
2/8/2021 10:00:00 AM 0 32 0.162 6.47 2.84 14.16
2/8/2021 10:15:00 AM 0 32 0.162 6.48 2.84 14.15
2/8/2021 10:30:00 AM 0 32 0.162 6.47 2.86 14.13
2/8/2021 10:45:00 AM 0 32 0.162 6.48 2.93 14.13
2/8/2021 11:00:00 AM 0 32 0.162 6.48 2.98 14.13
2/8/2021 11:15:00 AM 0 32 0.162 6.49 2.9 14.11
2/8/2021 11:30:00 AM 0 32 0.163 6.5 2.95 14.1
2/8/2021 11:45:00 AM 0 32 0.163 6.5 2.88 14.12
2/8/2021 12:00:00 PM 0 32 0.163 6.51 2.92 14.12
2/8/2021 12:15:00 PM 0 32 0.163 6.51 2.93 14.1
2/8/2021 12:30:00 PM 0 32 0.164 6.52 2.88 14.09
2/8/2021 12:45:00 PM 0 32 0.165 6.52 2.86 14.09
2/8/2021 1:00:00 PM 0 32 0.167 6.53 2.98 14.06
2/8/2021 1:15:00 PM 0 32 0.167 6.53 3.06 14.05
2/8/2021 1:30:00 PM 0 32 0.166 6.53 3.63 14.04
2/8/2021 1:45:00 PM 0 32 0.166 6.54 2.87 14.04
2/8/2021 2:00:00 PM 0 32 0.166 6.54 2.9 14.03
2/8/2021 2:15:00 PM 0 32 0.165 6.55 2.86 14.03
2/8/2021 2:30:00 PM 0 32 0.165 6.55 3.03 14.03
2/8/2021 2:45:00 PM 0 32 0.164 6.55 2.71 14.02
2/8/2021 3:00:00 PM 0 32 0.164 6.55 3.04 14.03
2/8/2021 3:15:00 PM 0 32 0.164 6.56 2.8 14.03
2/8/2021 3:30:00 PM 0 32 0.163 6.56 2.86 14.03
2/8/2021 3:45:00 PM 0 32 0.162 6.56 2.82 14.02
2/8/2021 4:00:00 PM 0 32 0.161 6.56 2.73 14.02
2/8/2021 4:15:00 PM 0 32 0.161 6.56 2.89 14.03
2/8/2021 4:30:00 PM 0 32 0.161 6.56 2.85 14.03
2/8/2021 4:45:00 PM 0 32 0.161 6.56 2.81 14.03
2/8/2021 5:00:00 PM 0 32 0.16 6.55 2.7 14.03
2/8/2021 5:15:00 PM 0 32 0.16 6.56 2.75 14.02
2/8/2021 5:30:00 PM 0 32 0.16 6.56 2.68 14.02
2/8/2021 5:45:00 PM 0 32 0.16 6.56 2.73 14.02
2/8/2021 6:00:00 PM 0 32 0.16 6.55 2.66 14.03
2/8/2021 6:15:00 PM 0 32 0.16 6.55 2.65 14.02
2/8/2021 6:30:00 PM 0 32 0.159 6.55 2.65 14.03
2/8/2021 6:45:00 PM 0 32 0.159 6.55 2.66 14.03
2/8/2021 7:00:00 PM 0 32 0.159 6.55 2.66 14.03
2/8/2021 7:15:00 PM 0 32 0.159 6.55 2.6 14.03
2/8/2021 7:30:00 PM 0 32 0.159 6.54 2.6 14.04
2/8/2021 7:45:00 PM 0 32 0.159 6.54 2.64 14.03
2/8/2021 8:00:00 PM -0.01 31.982 0.159 6.54 2.6 14.03
2/8/2021 8:15:00 PM -0.01 31.982 0.159 6.54 2.65 14.04
2/8/2021 8:30:00 PM 0 32 0.159 6.54 2.54 14.03
2/8/2021 8:45:00 PM 0 32 0.159 6.54 2.55 14.03
2/8/2021 9:00:00 PM 0 32 0.159 6.54 2.56 14.02
2/8/2021 9:15:00 PM 0 32 0.159 6.54 2.59 14.03
2/8/2021 9:30:00 PM 0 32 0.159 6.54 2.62 14.03
2/8/2021 9:45:00 PM 0 32 0.159 6.54 2.58 14.03
2/8/2021 10:00:00 PM 0 32 0.159 6.54 2.61 14.03
2/8/2021 10:15:00 PM 0 32 0.159 6.54 2.56 14.02
2/8/2021 10:30:00 PM 0 32 0.159 6.53 2.55 14.02
2/8/2021 10:45:00 PM 0 32 0.159 6.54 2.61 14.02
2/8/2021 11:00:00 PM 0 32 0.159 6.54 2.59 14.03
2/8/2021 11:15:00 PM 0 32 0.159 6.54 2.62 14.03
2/8/2021 11:30:00 PM 0 32 0.159 6.54 2.69 14.03
2/8/2021 11:45:00 PM 0 32 0.159 6.55 2.77 14.03
2/9/2021 12:00:00 AM 0 32 0.159 6.54 2.6 14.02
2/9/2021 12:15:00 AM 0 32 0.159 6.55 2.61 14.02
2/9/2021 12:30:00 AM 0 32 0.158 6.55 2.55 14.02
2/9/2021 12:45:00 AM 0 32 0.158 6.54 2.58 14.02
2/9/2021 1:00:00 AM 0 32 0.158 6.55 2.57 14.02
2/9/2021 1:15:00 AM 0 32 0.158 6.55 2.71 14.01
2/9/2021 1:30:00 AM 0 32 0.158 6.55 2.61 14.01
2/9/2021 1:45:00 AM 0 32 0.158 6.54 2.55 14.01
2/9/2021 2:00:00 AM 0 32 0.158 6.55 2.56 14.01
2/9/2021 2:15:00 AM 0 32 0.158 6.54 2.54 14
2/9/2021 2:30:00 AM 0 32 0.158 6.54 2.61 14
2/9/2021 2:45:00 AM 0 32 0.158 6.54 2.69 14
2/9/2021 3:00:00 AM 0 32 0.158 6.54 2.6 14
2/9/2021 3:15:00 AM 0 32 0.158 6.54 2.61 14
2/9/2021 3:30:00 AM 0 32 0.157 6.54 2.64 14
2/9/2021 3:45:00 AM 0 32 0.157 6.54 2.63 14
2/9/2021 4:00:00 AM 0 32 0.157 6.54 2.6 14
2/9/2021 4:15:00 AM 0 32 0.157 6.54 2.67 14
2/9/2021 4:30:00 AM 0 32 0.157 6.54 2.59 13.99
2/9/2021 4:45:00 AM 0 32 0.157 6.54 2.53 14
2/9/2021 5:00:00 AM 0 32 0.157 6.54 2.63 13.99
2/9/2021 5:15:00 AM 0 32 0.157 6.54 2.63 13.99
2/9/2021 5:30:00 AM 0 32 0.157 6.54 2.59 13.99
2/9/2021 5:45:00 AM 0 32 0.157 6.54 2.66 13.99
2/9/2021 6:00:00 AM 0 32 0.157 6.54 2.63 13.99
2/9/2021 6:15:00 AM 0 32 0.157 6.54 2.6 13.99
2/9/2021 6:30:00 AM 0 32 0.157 6.54 2.61 13.98
2/9/2021 6:45:00 AM 0 32 0.157 6.54 2.57 13.99
2/9/2021 7:00:00 AM 0 32 0.157 6.54 2.7 13.98
2/9/2021 7:15:00 AM 0 32 0.157 6.54 2.59 13.98
2/9/2021 7:30:00 AM 0 32 0.157 6.54 2.6 13.98
2/9/2021 7:45:00 AM 0 32 0.157 6.54 2.53 13.98
2/9/2021 8:00:00 AM 0 32 0.157 6.54 2.61 13.98
2/9/2021 8:15:00 AM 0 32 0.157 6.54 2.57 13.98
2/9/2021 8:30:00 AM 0 32 0.157 6.54 2.56 13.99
2/9/2021 8:45:00 AM 0 32 0.157 6.54 2.58 13.99
2/9/2021 9:00:00 AM 0 32 0.157 6.54 2.62 13.99
2/9/2021 9:15:00 AM 0 32 0.157 6.54 2.65 13.98
2/9/2021 9:30:00 AM 0 32 0.157 6.54 2.58 13.98
2/9/2021 9:45:00 AM 0 32 0.157 6.55 2.57 13.99
2/9/2021 10:00:00 AM 0 32 0.157 6.55 2.58 13.99
2/9/2021 10:15:00 AM 0.01 32.018 0.157 6.55 2.7 13.99
2/9/2021 10:30:00 AM 0.01 32.018 0.157 6.55 2.59 13.99
2/9/2021 10:45:00 AM 0.01 32.018 0.157 6.55 2.6 13.99
2/9/2021 11:00:00 AM 0.01 32.018 0.157 6.55 2.64 13.99
2/9/2021 11:15:00 AM 0.01 32.018 0.157 6.55 2.7 13.98
2/9/2021 11:30:00 AM 0.01 32.018 0.157 6.55 2.66 13.98
2/9/2021 11:45:00 AM 0.01 32.018 0.157 6.55 2.67 13.97
2/9/2021 12:00:00 PM 0.01 32.018 0.156 6.56 2.71 13.97
2/9/2021 12:15:00 PM 0.01 32.018 0.156 6.56 2.68 13.97
2/9/2021 12:30:00 PM 0.02 32.036 0.156 6.56 2.78 13.96
2/9/2021 12:45:00 PM 0.02 32.036 0.156 6.56 2.74 13.96
2/9/2021 1:00:00 PM 0.02 32.036 0.156 6.56 2.82 13.95
2/9/2021 1:15:00 PM 0.02 32.036 0.156 6.56 2.96 13.93
2/9/2021 1:30:00 PM 0.02 32.036 0.156 6.56 2.89 13.92
2/9/2021 1:45:00 PM 0.02 32.036 0.156 6.57 2.83 13.91
2/9/2021 2:00:00 PM 0.02 32.036 0.158 6.56 2.81 13.9
2/9/2021 2:15:00 PM 0.03 32.054 0.159 6.56 2.85 13.89
2/9/2021 2:30:00 PM 0.06 32.108 0.16 6.56 2.82 13.88
2/9/2021 2:45:00 PM 0.1 32.18 0.16 6.56 2.88 13.86
2/9/2021 3:00:00 PM 0.16 32.288 0.16 6.57 2.73 13.84
2/9/2021 3:15:00 PM 0.23 32.414 0.16 6.57 2.68 13.82
2/9/2021 3:30:00 PM 0.3 32.54 0.16 6.57 2.68 13.8
2/9/2021 3:45:00 PM 0.35 32.63 0.16 6.57 2.77 13.77
2/9/2021 4:00:00 PM 0.38 32.684 0.16 6.56 2.64 13.77
2/9/2021 4:15:00 PM 0.43 32.774 0.159 6.58 2.61 13.75
2/9/2021 4:30:00 PM 0.46 32.828 0.159 6.58 2.62 13.73
2/9/2021 4:45:00 PM 0.48 32.864 0.159 6.56 2.65 13.73
2/9/2021 5:00:00 PM 0.5 32.9 0.159 6.58 2.57 13.72
2/9/2021 5:15:00 PM 0.51 32.918 0.159 6.58 3.05 13.72
2/9/2021 5:30:00 PM 0.56 33.008 0.159 6.58 2.61 13.71
2/9/2021 5:45:00 PM 0.59 33.062 0.159 6.58 2.57 13.7
2/9/2021 6:00:00 PM 0.55 32.99 0.16 6.58 2.75 13.71
2/9/2021 6:15:00 PM 0.53 32.954 0.16 6.58 2.63 13.72
2/9/2021 6:30:00 PM 0.56 33.008 0.161 6.58 2.57 13.72
2/9/2021 6:45:00 PM 0.57 33.026 0.161 6.58 2.59 13.72
2/9/2021 7:00:00 PM 0.6 33.08 0.161 6.58 2.59 13.71
2/9/2021 7:15:00 PM 0.6 33.08 0.161 6.58 2.55 13.72
2/9/2021 7:30:00 PM 0.6 33.08 0.161 6.58 2.57 13.72
2/9/2021 7:45:00 PM 0.6 33.08 0.161 6.58 2.57 13.73
2/9/2021 8:00:00 PM 0.59 33.062 0.161 6.59 2.61 13.73
2/9/2021 8:15:00 PM 0.61 33.098 0.161 6.58 2.52 13.73
2/9/2021 8:30:00 PM 0.61 33.098 0.161 6.58 2.56 13.73
2/9/2021 8:45:00 PM 0.62 33.116 0.161 6.59 2.53 13.73
2/9/2021 9:00:00 PM 0.61 33.098 0.161 6.58 2.55 13.73
2/9/2021 9:15:00 PM 0.62 33.116 0.161 6.59 2.54 13.73
2/9/2021 9:30:00 PM 0.63 33.134 0.161 6.59 2.53 13.73
2/9/2021 9:45:00 PM 0.64 33.152 0.16 6.59 2.55 13.73
2/9/2021 10:00:00 PM 0.64 33.152 0.16 6.59 2.54 13.74
2/9/2021 10:15:00 PM 0.64 33.152 0.16 6.58 2.57 13.74
2/9/2021 10:30:00 PM 0.64 33.152 0.16 6.58 2.54 13.74
2/9/2021 10:45:00 PM 0.64 33.152 0.16 6.58 2.59 13.74
2/9/2021 11:00:00 PM 0.64 33.152 0.16 6.59 2.56 13.74
2/9/2021 11:15:00 PM 0.64 33.152 0.16 6.59 2.56 13.74
2/9/2021 11:30:00 PM 0.63 33.134 0.16 6.59 2.53 13.75
2/9/2021 11:45:00 PM 0.63 33.134 0.16 6.58 2.54 13.75
2/10/2021 12:00:00 AM 0.62 33.116 0.159 6.59 2.51 13.75
2/10/2021 12:15:00 AM 0.61 33.098 0.159 6.58 2.55 13.76
2/10/2021 12:30:00 AM 0.6 33.08 0.159 6.59 2.65 13.76
2/10/2021 12:45:00 AM 0.6 33.08 0.159 6.59 2.56 13.77
2/10/2021 1:00:00 AM 0.59 33.062 0.159 6.58 2.52 13.77
2/10/2021 1:15:00 AM 0.58 33.044 0.159 6.58 2.53 13.77
2/10/2021 1:30:00 AM 0.58 33.044 0.159 6.59 2.51 13.78
2/10/2021 1:45:00 AM 0.57 33.026 0.159 6.58 2.54 13.78
2/10/2021 2:00:00 AM 0.56 33.008 0.159 6.58 2.58 13.79
2/10/2021 2:15:00 AM 0.54 32.972 0.159 6.58 2.56 13.79
2/10/2021 2:30:00 AM 0.53 32.954 0.159 6.58 2.55 13.8
2/10/2021 2:45:00 AM 0.53 32.954 0.159 6.58 2.58 13.8
2/10/2021 3:00:00 AM 0.52 32.936 0.159 6.58 2.52 13.8
2/10/2021 3:15:00 AM 0.51 32.918 0.158 6.58 2.52 13.81
2/10/2021 3:30:00 AM 0.5 32.9 0.158 6.58 2.57 13.82
2/10/2021 3:45:00 AM 0.48 32.864 0.158 6.58 2.55 13.82
2/10/2021 4:00:00 AM 0.46 32.828 0.158 6.58 2.55 13.83
2/10/2021 4:15:00 AM 0.45 32.81 0.158 6.58 2.53 13.85
2/10/2021 4:30:00 AM 0.44 32.792 0.158 6.58 2.61 13.85
2/10/2021 4:45:00 AM 0.43 32.774 0.158 6.58 2.55 13.85
2/10/2021 5:00:00 AM 0.42 32.756 0.158 6.58 2.59 13.86
2/10/2021 5:15:00 AM 0.41 32.738 0.158 6.58 2.57 13.86
2/10/2021 5:30:00 AM 0.41 32.738 0.158 6.57 7.31 13.88
2/10/2021 5:45:00 AM 0.4 32.72 0.158 6.58 2.56 13.87
2/10/2021 6:00:00 AM 0.39 32.702 0.158 6.58 2.55 13.88
2/10/2021 6:15:00 AM 0.37 32.666 0.158 6.58 2.53 13.89
2/10/2021 6:30:00 AM 0.35 32.63 0.158 6.58 2.53 13.9
2/10/2021 6:45:00 AM 0.32 32.576 0.158 6.58 2.54 13.91
2/10/2021 7:00:00 AM 0.29 32.522 0.158 6.58 2.58 13.92
2/10/2021 7:15:00 AM 0.25 32.45 0.158 6.58 2.61 13.94
2/10/2021 7:30:00 AM 0.22 32.396 0.158 6.57 2.51 13.96
2/10/2021 7:45:00 AM 0.2 32.36 0.158 6.57 2.54 13.98
2/10/2021 8:00:00 AM 0.18 32.324 0.158 6.57 2.57 13.99
2/10/2021 8:15:00 AM 0.17 32.306 0.158 6.57 2.53 14.01
2/10/2021 8:30:00 AM 0.15 32.27 0.158 6.57 2.54 14.01
2/10/2021 8:45:00 AM 0.14 32.252 0.158 6.57 2.54 14.02
2/10/2021 9:00:00 AM 0.13 32.234 0.158 6.57 2.56 14.02
2/10/2021 9:15:00 AM 0.14 32.252 0.158 6.58 2.52 14.02
2/10/2021 9:30:00 AM 0.15 32.27 0.158 6.58 2.56 14.01
2/10/2021 9:45:00 AM 0.16 32.288 0.158 6.58 2.53 14.01
2/10/2021 10:00:00 AM 0.19 32.342 0.158 6.58 2.57 14
2/10/2021 10:15:00 AM 0.23 32.414 0.158 6.58 2.56 13.98
2/10/2021 10:30:00 AM 0.27 32.486 0.158 6.58 2.57 13.97
2/10/2021 10:45:00 AM 0.33 32.594 0.158 6.57 2.55 13.94
2/10/2021 11:00:00 AM 0.37 32.666 0.158 6.58 2.52 13.92
2/10/2021 11:15:00 AM 0.43 32.774 0.158 6.58 2.51 13.89
2/10/2021 11:30:00 AM 0.49 32.882 0.158 6.58 2.54 13.87
2/10/2021 11:45:00 AM 0.55 32.99 0.158 6.59 2.51 13.85
2/10/2021 12:00:00 PM 0.61 33.098 0.158 6.59 2.52 13.81
2/10/2021 12:15:00 PM 0.67 33.206 0.158 6.58 2.57 13.78
2/10/2021 12:30:00 PM 0.73 33.314 0.158 6.58 2.52 13.75
2/10/2021 12:45:00 PM 0.79 33.422 0.157 6.58 2.5 13.72
2/10/2021 1:00:00 PM 0.83 33.494 0.157 6.59 2.51 13.7
2/10/2021 1:15:00 PM 0.88 33.584 0.157 6.59 2.52 13.68
2/10/2021 1:30:00 PM 0.91 33.638 0.157 6.59 2.74 13.66
2/10/2021 1:45:00 PM 0.94 33.692 0.157 6.59 2.54 13.64
2/10/2021 2:00:00 PM 0.96 33.728 0.157 6.59 2.51 13.64
2/10/2021 2:15:00 PM 0.96 33.728 0.157 6.59 2.5 13.63
2/10/2021 2:30:00 PM 0.96 33.728 0.157 6.59 2.52 13.63
2/10/2021 2:45:00 PM 0.95 33.71 0.157 6.59 2.5 13.62
2/10/2021 3:00:00 PM 0.97 33.746 0.157 6.59 2.54 13.62
2/10/2021 3:15:00 PM 0.97 33.746 0.157 6.59 2.55 13.62
2/10/2021 3:30:00 PM 0.96 33.728 0.157 6.59 2.55 13.61
2/10/2021 3:45:00 PM 0.96 33.728 0.157 6.59 2.55 13.62
2/10/2021 4:00:00 PM 0.96 33.728 0.157 6.59 2.54 13.62
2/10/2021 4:15:00 PM 0.96 33.728 0.157 6.58 2.51 13.62
2/10/2021 4:30:00 PM 0.94 33.692 0.157 6.59 2.51 13.62
2/10/2021 4:45:00 PM 0.94 33.692 0.157 6.59 2.56 13.63
2/10/2021 5:00:00 PM 0.93 33.674 0.157 6.58 2.55 13.62
2/10/2021 5:15:00 PM 0.91 33.638 0.157 6.58 2.54 13.62
2/10/2021 5:30:00 PM 0.89 33.602 0.157 6.58 2.55 13.63
2/10/2021 5:45:00 PM 0.88 33.584 0.157 6.59 2.55 13.64
2/10/2021 6:00:00 PM 0.85 33.53 0.157 6.58 2.51 13.64
2/10/2021 6:15:00 PM 0.83 33.494 0.157 6.58 2.54 13.65
2/10/2021 6:30:00 PM 0.81 33.458 0.157 6.58 2.51 13.67
2/10/2021 6:45:00 PM 0.8 33.44 0.157 6.58 2.52 13.67
2/10/2021 7:00:00 PM 0.78 33.404 0.157 6.59 2.55 13.68
2/10/2021 7:15:00 PM 0.76 33.368 0.157 6.58 2.56 13.69
2/10/2021 7:30:00 PM 0.75 33.35 0.157 6.59 2.49 13.69
2/10/2021 7:45:00 PM 0.72 33.296 0.157 6.58 2.55 13.7
2/10/2021 8:00:00 PM 0.69 33.242 0.157 6.59 2.57 13.71
2/10/2021 8:15:00 PM 0.66 33.188 0.157 6.59 2.53 13.72
2/10/2021 8:30:00 PM 0.62 33.116 0.157 6.58 2.52 13.74
2/10/2021 8:45:00 PM 0.58 33.044 0.157 6.58 2.57 13.75
2/10/2021 9:00:00 PM 0.55 32.99 0.157 6.58 2.55 13.77
2/10/2021 9:15:00 PM 0.5 32.9 0.157 6.58 2.56 13.79
2/10/2021 9:30:00 PM 0.47 32.846 0.157 6.58 2.58 13.8
2/10/2021 9:45:00 PM 0.44 32.792 0.157 6.57 2.53 13.81
2/10/2021 10:00:00 PM 0.42 32.756 0.157 6.58 2.54 13.82
2/10/2021 10:15:00 PM 0.39 32.702 0.157 6.58 2.54 13.83
2/10/2021 10:30:00 PM 0.36 32.648 0.157 6.58 2.57 13.85
2/10/2021 10:45:00 PM 0.34 32.612 0.157 6.58 2.53 13.85
2/10/2021 11:00:00 PM 0.31 32.558 0.157 6.58 2.54 13.86
2/10/2021 11:15:00 PM 0.29 32.522 0.157 6.58 2.55 13.87
2/10/2021 11:30:00 PM 0.28 32.504 0.157 6.58 2.53 13.88
2/10/2021 11:45:00 PM 0.27 32.486 0.157 6.58 2.56 13.88
2/11/2021 12:00:00 AM 0.26 32.468 0.156 6.58 2.59 13.88
2/11/2021 12:15:00 AM 0.26 32.468 0.156 6.58 2.54 13.88
2/11/2021 12:30:00 AM 0.27 32.486 0.156 6.58 2.57 13.89
2/11/2021 12:45:00 AM 0.27 32.486 0.156 6.58 2.58 13.88
2/11/2021 1:00:00 AM 0.27 32.486 0.156 6.57 2.55 13.87
2/11/2021 1:15:00 AM 0.27 32.486 0.156 6.58 2.6 13.88
2/11/2021 1:30:00 AM 0.28 32.504 0.156 6.58 2.59 13.87
2/11/2021 1:45:00 AM 0.3 32.54 0.156 6.58 2.61 13.87
2/11/2021 2:00:00 AM 0.3 32.54 0.156 6.57 2.59 13.87
2/11/2021 2:15:00 AM 0.31 32.558 0.156 6.57 2.58 13.86
2/11/2021 2:30:00 AM 0.33 32.594 0.156 6.58 2.56 13.86
2/11/2021 2:45:00 AM 0.34 32.612 0.156 6.58 2.55 13.85
2/11/2021 3:00:00 AM 0.35 32.63 0.156 6.58 2.57 13.84
2/11/2021 3:15:00 AM 0.36 32.648 0.157 6.58 2.55 13.84
2/11/2021 3:30:00 AM 0.38 32.684 0.157 6.58 2.54 13.84
2/11/2021 3:45:00 AM 0.39 32.702 0.157 6.58 2.56 13.83
2/11/2021 4:00:00 AM 0.41 32.738 0.157 6.58 2.59 13.81
2/11/2021 4:15:00 AM 0.41 32.738 0.157 6.58 2.56 13.82
2/11/2021 4:30:00 AM 0.42 32.756 0.157 6.58 2.57 13.81
2/11/2021 4:45:00 AM 0.43 32.774 0.157 6.58 2.57 13.81
2/11/2021 5:00:00 AM 0.44 32.792 0.157 6.58 2.57 13.81
2/11/2021 5:15:00 AM 0.45 32.81 0.157 6.58 2.61 13.81
2/11/2021 5:30:00 AM 0.45 32.81 0.157 6.58 2.58 13.81
2/11/2021 5:45:00 AM 0.46 32.828 0.158 6.58 2.59 13.81
2/11/2021 6:00:00 AM 0.47 32.846 0.158 6.58 2.64 13.8
2/11/2021 6:15:00 AM 0.48 32.864 0.158 6.58 2.67 13.8
2/11/2021 6:30:00 AM 0.49 32.882 0.159 6.58 2.62 13.8
2/11/2021 6:45:00 AM 0.5 32.9 0.159 6.58 2.67 13.8
2/11/2021 7:00:00 AM 0.5 32.9 0.159 6.58 2.67 13.8
2/11/2021 7:15:00 AM 0.5 32.9 0.159 6.58 2.65 13.8
2/11/2021 7:30:00 AM 0.5 32.9 0.158 6.58 2.72 13.8
2/11/2021 7:45:00 AM 0.5 32.9 0.158 6.58 2.62 13.8
2/11/2021 8:00:00 AM 0.5 32.9 0.158 6.58 2.71 13.81
2/11/2021 8:15:00 AM 0.5 32.9 0.158 6.58 2.63 13.81
2/11/2021 8:30:00 AM 0.5 32.9 0.158 6.58 2.64 13.81
2/11/2021 8:45:00 AM 0.51 32.918 0.158 6.58 2.63 13.81
2/11/2021 9:00:00 AM 0.52 32.936 0.158 6.58 2.64 13.81
2/11/2021 9:15:00 AM 0.54 32.972 0.158 6.58 2.63 13.8
2/11/2021 9:30:00 AM 0.56 33.008 0.158 6.58 2.6 13.8
2/11/2021 9:45:00 AM 0.58 33.044 0.159 6.59 2.64 13.79
2/11/2021 10:00:00 AM 0.61 33.098 0.159 6.58 2.63 13.78
2/11/2021 10:15:00 AM 0.62 33.116 0.159 6.58 2.62 13.77
2/11/2021 10:30:00 AM 0.63 33.134 0.159 6.58 2.61 13.77
2/11/2021 10:45:00 AM 0.64 33.152 0.159 6.58 2.63 13.76
2/11/2021 11:00:00 AM 0.65 33.17 0.159 6.58 2.67 13.77
2/11/2021 11:15:00 AM 0.66 33.188 0.159 6.58 2.64 13.77
2/11/2021 11:30:00 AM 0.68 33.224 0.159 6.59 2.66 13.76
2/11/2021 11:45:00 AM 0.71 33.278 0.159 6.59 2.65 13.75
2/11/2021 12:00:00 PM 0.73 33.314 0.158 6.59 2.61 13.74
2/11/2021 12:15:00 PM 0.78 33.404 0.158 6.59 2.63 13.72
2/11/2021 12:30:00 PM 0.81 33.458 0.158 6.59 2.61 13.71
2/11/2021 12:45:00 PM 0.86 33.548 0.158 6.59 2.63 13.68
2/11/2021 1:00:00 PM 0.89 33.602 0.158 6.59 2.59 13.67
2/11/2021 1:15:00 PM 0.95 33.71 0.158 6.59 2.62 13.64
2/11/2021 1:30:00 PM 0.99 33.782 0.158 6.59 2.66 13.62
2/11/2021 1:45:00 PM 1.01 33.818 0.158 6.59 2.62 13.6
2/11/2021 2:00:00 PM 1.06 33.908 0.158 6.59 2.6 13.58
2/11/2021 2:15:00 PM 1.08 33.944 0.157 6.59 2.64 13.58
2/11/2021 2:30:00 PM 1.09 33.962 0.157 6.59 2.66 13.56
2/11/2021 2:45:00 PM 1.09 33.962 0.157 6.59 2.61 13.57
2/11/2021 3:00:00 PM 1.09 33.962 0.157 6.59 2.59 13.56
2/11/2021 3:15:00 PM 1.09 33.962 0.157 6.59 2.63 13.57
2/11/2021 3:30:00 PM 1.08 33.944 0.157 6.59 2.6 13.57
2/11/2021 3:45:00 PM 1.08 33.944 0.157 6.59 2.64 13.57
2/11/2021 4:00:00 PM 1.06 33.908 0.157 6.59 2.63 13.58
2/11/2021 4:15:00 PM 1.04 33.872 0.157 6.59 2.65 13.59
2/11/2021 4:30:00 PM 1.02 33.836 0.157 6.59 2.64 13.6
2/11/2021 4:45:00 PM 1 33.8 0.157 6.59 2.65 13.6
2/11/2021 5:00:00 PM 0.98 33.764 0.157 6.59 2.59 13.6
2/11/2021 5:15:00 PM 0.96 33.728 0.157 6.59 2.65 13.62
2/11/2021 5:30:00 PM 0.95 33.71 0.157 6.59 2.65 13.62
2/11/2021 5:45:00 PM 0.92 33.656 0.157 6.58 2.64 13.63
2/11/2021 6:00:00 PM 0.89 33.602 0.157 6.58 2.69 13.64
2/11/2021 6:15:00 PM 0.87 33.566 0.157 6.58 2.68 13.66
2/11/2021 6:30:00 PM 0.84 33.512 0.157 6.58 2.68 13.67
2/11/2021 6:45:00 PM 0.81 33.458 0.157 6.59 2.65 13.68
2/11/2021 7:00:00 PM 0.79 33.422 0.157 6.57 2.63 13.69
2/11/2021 7:15:00 PM 0.76 33.368 0.157 6.58 2.67 13.71
2/11/2021 7:30:00 PM 0.73 33.314 0.157 6.58 2.75 13.72
2/11/2021 7:45:00 PM 0.69 33.242 0.157 6.58 2.67 13.74
2/11/2021 8:00:00 PM 0.66 33.188 0.157 6.58 2.7 13.76
2/11/2021 8:15:00 PM 0.63 33.134 0.157 6.58 2.62 13.77
2/11/2021 8:30:00 PM 0.61 33.098 0.157 6.58 2.7 13.78
2/11/2021 8:45:00 PM 0.58 33.044 0.157 6.58 2.66 13.79
2/11/2021 9:00:00 PM 0.56 33.008 0.157 6.58 2.63 13.8
2/11/2021 9:15:00 PM 0.54 32.972 0.157 6.58 2.67 13.81
2/11/2021 9:30:00 PM 0.52 32.936 0.157 6.58 2.65 13.82
2/11/2021 9:45:00 PM 0.51 32.918 0.157 6.58 2.65 13.83
2/11/2021 10:00:00 PM 0.49 32.882 0.157 6.58 2.69 13.83
2/11/2021 10:15:00 PM 0.49 32.882 0.157 6.58 2.63 13.83
2/11/2021 10:30:00 PM 0.48 32.864 0.157 6.58 2.65 13.83
2/11/2021 10:45:00 PM 0.46 32.828 0.157 6.58 2.63 13.84
2/11/2021 11:00:00 PM 0.46 32.828 0.157 6.58 2.66 13.85
2/11/2021 11:15:00 PM 0.45 32.81 0.157 6.58 2.62 13.85
2/11/2021 11:30:00 PM 0.44 32.792 0.157 6.58 2.63 13.86
2/11/2021 11:45:00 PM 0.43 32.774 0.157 6.59 2.66 13.86
2/12/2021 12:00:00 AM 0.42 32.756 0.157 6.59 2.66 13.86
2/12/2021 12:15:00 AM 0.41 32.738 0.157 6.59 2.64 13.86
2/12/2021 12:30:00 AM 0.4 32.72 0.157 6.59 2.65 13.88
2/12/2021 12:45:00 AM 0.39 32.702 0.157 6.58 2.69 13.88
2/12/2021 1:00:00 AM 0.37 32.666 0.157 6.58 2.64 13.88
2/12/2021 1:15:00 AM 0.35 32.63 0.157 6.58 2.64 13.88
2/12/2021 1:30:00 AM 0.34 32.612 0.157 6.58 2.61 13.9
2/12/2021 1:45:00 AM 0.32 32.576 0.157 6.58 2.67 13.9
2/12/2021 2:00:00 AM 0.31 32.558 0.157 6.58 2.62 13.9
2/12/2021 2:15:00 AM 0.29 32.522 0.157 6.58 2.64 13.9
2/12/2021 2:30:00 AM 0.26 32.468 0.157 6.58 2.66 13.92
2/12/2021 2:45:00 AM 0.24 32.432 0.157 6.58 2.64 13.93
2/12/2021 3:00:00 AM 0.21 32.378 0.157 6.58 2.67 13.95
2/12/2021 3:15:00 AM 0.19 32.342 0.157 6.58 2.63 13.96
2/12/2021 3:30:00 AM 0.16 32.288 0.157 6.58 2.63 13.97
2/12/2021 3:45:00 AM 0.15 32.27 0.157 6.58 2.66 13.98
2/12/2021 4:00:00 AM 0.13 32.234 0.157 6.58 2.64 13.98
2/12/2021 4:15:00 AM 0.1 32.18 0.157 6.58 2.64 13.99
2/12/2021 4:30:00 AM 0.08 32.144 0.157 6.58 2.66 14.01
2/12/2021 4:45:00 AM 0.05 32.09 0.157 6.58 2.6 14.02
2/12/2021 5:00:00 AM 0.04 32.072 0.157 6.58 2.57 14.02
2/12/2021 5:15:00 AM 0.03 32.054 0.157 6.58 2.57 14.02
2/12/2021 5:30:00 AM 0.03 32.054 0.157 6.58 2.57 14.03
2/12/2021 5:45:00 AM 0.02 32.036 0.157 6.58 2.56 14.03
2/12/2021 6:00:00 AM 0.01 32.018 0.156 6.58 2.58 14.03
2/12/2021 6:15:00 AM 0 32 0.156 6.58 2.57 14.03
2/12/2021 6:30:00 AM 0 32 0.156 6.58 2.59 14.04
2/12/2021 6:45:00 AM 0 32 0.156 6.58 2.58 14.04
2/12/2021 7:00:00 AM -0.01 31.982 0.156 6.58 2.6 14.04
2/12/2021 7:15:00 AM -0.01 31.982 0.156 6.58 2.61 14.04
2/12/2021 7:30:00 AM -0.02 31.964 0.156 6.58 2.6 14.04
2/12/2021 7:45:00 AM -0.01 31.982 0.156 6.58 2.6 14.05
2/12/2021 8:00:00 AM -0.01 31.982 0.156 6.58 2.6 14.05
2/12/2021 8:15:00 AM -0.01 31.982 0.156 6.58 2.58 14.05
2/12/2021 8:30:00 AM -0.01 31.982 0.157 6.58 2.63 14.05
2/12/2021 8:45:00 AM 0 32 0.157 6.57 2.57 14.05
2/12/2021 9:00:00 AM 0 32 0.157 6.58 2.59 14.05
2/12/2021 9:15:00 AM 0 32 0.156 6.58 2.55 14.05
2/12/2021 9:30:00 AM 0.01 32.018 0.155 6.58 2.6 14.05
2/12/2021 9:45:00 AM 0.02 32.036 0.154 6.58 2.59 14.05
2/12/2021 10:00:00 AM 0.03 32.054 0.155 6.58 2.56 14.04
2/12/2021 10:15:00 AM 0.04 32.072 0.154 6.59 2.57 14.03
2/12/2021 10:30:00 AM 0.05 32.09 0.157 6.58 2.59 14.03
2/12/2021 10:45:00 AM 0.07 32.126 0.156 6.59 2.59 14.02
2/12/2021 11:00:00 AM 0.08 32.144 0.158 6.58 2.59 14.02
2/12/2021 11:15:00 AM 0.09 32.162 0.157 6.59 2.61 14.01
2/12/2021 11:30:00 AM 0.11 32.198 0.157 6.58 2.57 14
2/12/2021 11:45:00 AM 0.14 32.252 0.157 6.59 2.58 13.99
2/12/2021 12:00:00 PM 0.15 32.27 0.157 6.59 2.59 13.98
2/12/2021 12:15:00 PM 0.17 32.306 0.156 6.59 2.59 13.96
2/12/2021 12:30:00 PM 0.18 32.324 0.156 6.58 2.56 13.95
2/12/2021 12:45:00 PM 0.2 32.36 0.154 6.58 2.6 13.95
2/12/2021 1:00:00 PM 0.21 32.378 0.154 6.58 2.64 13.93
2/12/2021 1:15:00 PM 0.22 32.396 0.155 6.58 2.6 13.93
2/12/2021 1:30:00 PM 0.22 32.396 0.155 6.58 2.59 13.94
2/12/2021 1:45:00 PM 0.23 32.414 0.155 6.58 2.61 13.93
2/12/2021 2:00:00 PM 0.24 32.432 0.155 6.58 2.61 13.93
2/12/2021 2:15:00 PM 0.24 32.432 0.155 6.58 2.62 13.93
2/12/2021 2:30:00 PM 0.25 32.45 0.157 6.59 2.66 13.91
2/12/2021 2:45:00 PM 0.26 32.468 0.157 6.59 2.62 13.9
2/12/2021 3:00:00 PM 0.27 32.486 0.157 6.59 2.63 13.91
2/12/2021 3:15:00 PM 0.27 32.486 0.157 6.58 2.61 13.9
2/12/2021 3:30:00 PM 0.28 32.504 0.157 6.58 2.63 13.9
2/12/2021 3:45:00 PM 0.28 32.504 0.157 6.58 2.6 13.9
2/12/2021 4:00:00 PM 0.28 32.504 0.157 6.58 2.62 13.89
2/12/2021 4:15:00 PM 0.27 32.486 0.157 6.58 2.62 13.9
2/12/2021 4:30:00 PM 0.26 32.468 0.157 6.58 2.65 13.9
2/12/2021 4:45:00 PM 0.26 32.468 0.156 6.58 2.69 13.9
2/12/2021 5:00:00 PM 0.26 32.468 0.157 6.58 2.67 13.91
2/12/2021 5:15:00 PM 0.25 32.45 0.157 6.58 2.58 13.91
2/12/2021 5:30:00 PM 0.25 32.45 0.157 6.58 2.65 13.91
2/12/2021 5:45:00 PM 0.24 32.432 0.157 6.58 2.66 13.92
2/12/2021 6:00:00 PM 0.24 32.432 0.156 6.58 2.66 13.92
2/12/2021 6:15:00 PM 0.25 32.45 0.156 6.58 2.65 13.91
2/12/2021 6:30:00 PM 0.25 32.45 0.156 6.58 2.65 13.92
2/12/2021 6:45:00 PM 0.25 32.45 0.156 6.58 2.62 13.92
2/12/2021 7:00:00 PM 0.25 32.45 0.156 6.58 2.65 13.93
2/12/2021 7:15:00 PM 0.24 32.432 0.156 6.58 2.64 13.92
2/12/2021 7:30:00 PM 0.24 32.432 0.156 6.59 2.62 13.92
2/12/2021 7:45:00 PM 0.24 32.432 0.156 6.58 2.68 13.93
2/12/2021 8:00:00 PM 0.25 32.45 0.156 6.58 2.62 13.93
2/12/2021 8:15:00 PM 0.25 32.45 0.156 6.58 2.64 13.92
2/12/2021 8:30:00 PM 0.25 32.45 0.156 6.58 2.66 13.93
2/12/2021 8:45:00 PM 0.25 32.45 0.156 6.58 2.61 13.93
2/12/2021 9:00:00 PM 0.25 32.45 0.156 6.58 2.63 13.94
2/12/2021 9:15:00 PM 0.25 32.45 0.156 6.58 2.65 13.94
2/12/2021 9:30:00 PM 0.25 32.45 0.155 6.58 2.64 13.93
2/12/2021 9:45:00 PM 0.25 32.45 0.155 6.58 2.64 13.93
2/12/2021 10:00:00 PM 0.25 32.45 0.155 6.58 2.64 13.93
2/12/2021 10:15:00 PM 0.25 32.45 0.155 6.58 2.62 13.93
2/12/2021 10:30:00 PM 0.25 32.45 0.155 6.58 2.61 13.93
2/12/2021 10:45:00 PM 0.25 32.45 0.154 6.58 2.58 13.93
2/12/2021 11:00:00 PM 0.25 32.45 0.155 6.58 2.68 13.93
2/12/2021 11:15:00 PM 0.25 32.45 0.155 6.58 2.61 13.92
2/12/2021 11:30:00 PM 0.25 32.45 0.153 6.58 2.66 13.94
2/12/2021 11:45:00 PM 0.25 32.45 0.154 6.58 2.52 13.93
2/13/2021 12:00:00 AM 0.24 32.432 0.155 6.59 2.53 13.93
2/13/2021 12:15:00 AM 0.23 32.414 0.154 6.58 2.53 13.95
2/13/2021 12:30:00 AM 0.23 32.414 0.154 6.58 2.54 13.94
2/13/2021 12:45:00 AM 0.23 32.414 0.154 6.58 2.57 13.95
2/13/2021 1:00:00 AM 0.22 32.396 0.154 6.58 2.54 13.95
2/13/2021 1:15:00 AM 0.21 32.378 0.154 6.58 2.51 13.95
2/13/2021 1:30:00 AM 0.19 32.342 0.154 6.58 2.54 13.94
2/13/2021 1:45:00 AM 0.17 32.306 0.155 6.58 2.59 13.95
2/13/2021 2:00:00 AM 0.16 32.288 0.156 6.57 2.64 13.96
2/13/2021 2:15:00 AM 0.15 32.27 0.156 6.57 2.54 13.96
2/13/2021 2:30:00 AM 0.13 32.234 0.155 6.57 2.68 13.98
2/13/2021 2:45:00 AM 0.11 32.198 0.156 6.57 2.61 13.98
2/13/2021 3:00:00 AM 0.08 32.144 0.156 6.57 2.53 14
2/13/2021 3:15:00 AM 0.06 32.108 0.156 6.57 2.52 14.01
2/13/2021 3:30:00 AM 0.04 32.072 0.156 6.57 2.53 14.02
2/13/2021 3:45:00 AM 0.02 32.036 0.156 6.57 2.5 14.02
2/13/2021 4:00:00 AM 0 32 0.156 6.57 2.5 14.03
2/13/2021 4:15:00 AM 0 32 0.156 6.57 2.62 14.04
2/13/2021 4:30:00 AM -0.01 31.982 0.156 6.57 2.51 14.04
2/13/2021 4:45:00 AM -0.01 31.982 0.156 6.57 2.55 14.04
2/13/2021 5:00:00 AM -0.01 31.982 0.156 6.57 2.58 14.04
2/13/2021 5:15:00 AM -0.01 31.982 0.156 6.58 2.55 14.04
2/13/2021 5:30:00 AM -0.01 31.982 0.155 6.58 2.53 14.04
2/13/2021 5:45:00 AM -0.01 31.982 0.154 6.58 2.53 14.03
2/13/2021 6:00:00 AM -0.01 31.982 0.155 6.58 2.55 14.03
2/13/2021 6:15:00 AM -0.01 31.982 0.155 6.58 2.56 14.04
2/13/2021 6:30:00 AM -0.01 31.982 0.155 6.58 2.55 14.04
2/13/2021 6:45:00 AM -0.01 31.982 0.155 6.58 2.54 14.04
2/13/2021 7:00:00 AM -0.01 31.982 0.156 6.58 2.54 14.04
2/13/2021 7:15:00 AM -0.02 31.964 0.155 6.58 2.52 14.04
2/13/2021 7:30:00 AM -0.01 31.982 0.156 6.58 2.61 14.04
2/13/2021 7:45:00 AM -0.01 31.982 0.155 6.57 2.63 14.05
2/13/2021 8:00:00 AM -0.01 31.982 0.155 6.58 2.61 14.04
2/13/2021 8:15:00 AM -0.01 31.982 0.155 6.57 2.61 14.04
2/13/2021 8:30:00 AM -0.01 31.982 0.155 6.58 2.59 14.05
2/13/2021 8:45:00 AM -0.01 31.982 0.155 6.57 2.53 14.06
2/13/2021 9:00:00 AM 0 32 0.154 6.57 2.57 14.05
2/13/2021 9:15:00 AM 0 32 0.154 6.57 2.6 14.06
2/13/2021 9:30:00 AM 0 32 0.154 6.57 2.54 14.05
2/13/2021 9:45:00 AM 0 32 0.154 6.57 2.6 14.05
2/13/2021 10:00:00 AM 0 32 0.154 6.57 2.59 14.05
2/13/2021 10:15:00 AM 0 32 0.155 6.57 2.55 14.05
2/13/2021 10:30:00 AM 0 32 0.155 6.57 2.55 14.04
2/13/2021 10:45:00 AM 0 32 0.155 6.57 2.55 14.04
2/13/2021 11:00:00 AM 0.01 32.018 0.155 6.57 2.53 14.04
2/13/2021 11:15:00 AM 0.01 32.018 0.155 6.57 2.56 14.03
2/13/2021 11:30:00 AM 0 32 0.154 6.57 2.56 14.03
2/13/2021 11:45:00 AM 0 32 0.154 6.57 2.57 14.03
2/13/2021 12:00:00 PM 0.01 32.018 0.154 6.57 2.59 14.02
2/13/2021 12:15:00 PM 0.01 32.018 0.154 6.58 2.61 14.02
2/13/2021 12:30:00 PM 0.02 32.036 0.154 6.58 2.6 14.01
2/13/2021 12:45:00 PM 0.04 32.072 0.154 6.58 2.57 14
2/13/2021 1:00:00 PM 0.05 32.09 0.154 6.58 2.61 14
2/13/2021 1:15:00 PM 0.06 32.108 0.154 6.58 2.67 13.98
2/13/2021 1:30:00 PM 0.06 32.108 0.154 6.58 2.57 13.97
2/13/2021 1:45:00 PM 0.07 32.126 0.154 6.58 2.54 13.97
2/13/2021 2:00:00 PM 0.07 32.126 0.154 6.58 2.61 13.97
2/13/2021 2:15:00 PM 0.08 32.144 0.154 6.58 2.55 13.96
2/13/2021 2:30:00 PM 0.08 32.144 0.154 6.58 2.57 13.95
2/13/2021 2:45:00 PM 0.08 32.144 0.154 6.58 2.5 13.96
2/13/2021 3:00:00 PM 0.07 32.126 0.154 6.58 2.55 13.96
2/13/2021 3:15:00 PM 0.07 32.126 0.154 6.58 2.52 13.96
2/13/2021 3:30:00 PM 0.06 32.108 0.153 6.58 2.54 13.95
2/13/2021 3:45:00 PM 0.06 32.108 0.154 6.58 2.55 13.96
2/13/2021 4:00:00 PM 0.06 32.108 0.155 6.58 2.54 13.96
2/13/2021 4:15:00 PM 0.06 32.108 0.155 6.58 2.53 13.96
2/13/2021 4:30:00 PM 0.06 32.108 0.154 6.58 2.54 13.95
2/13/2021 4:45:00 PM 0.06 32.108 0.154 6.58 2.51 13.95
2/13/2021 5:00:00 PM 0.06 32.108 0.155 6.58 2.56 13.95
2/13/2021 5:15:00 PM 0.05 32.09 0.155 6.58 2.54 13.95
2/13/2021 5:30:00 PM 0.05 32.09 0.155 6.58 2.54 13.95
2/13/2021 5:45:00 PM 0.04 32.072 0.155 6.58 2.52 13.95
2/13/2021 6:00:00 PM 0.04 32.072 0.154 6.58 2.5 13.95
2/13/2021 6:15:00 PM 0.03 32.054 0.155 6.58 2.56 13.96
2/13/2021 6:30:00 PM 0.03 32.054 0.155 6.58 2.55 13.96
2/13/2021 6:45:00 PM 0.02 32.036 0.155 6.58 2.56 13.96
2/13/2021 7:00:00 PM 0.02 32.036 0.155 6.58 2.57 13.97
2/13/2021 7:15:00 PM 0.02 32.036 0.155 6.58 2.57 13.97
2/13/2021 7:30:00 PM 0.01 32.018 0.155 6.58 2.59 13.97
2/13/2021 7:45:00 PM 0.01 32.018 0.155 6.58 2.53 13.97
2/13/2021 8:00:00 PM 0.01 32.018 0.155 6.58 2.52 13.97
2/13/2021 8:15:00 PM 0.01 32.018 0.155 6.58 2.58 13.97
2/13/2021 8:30:00 PM 0.01 32.018 0.155 6.58 2.51 13.98
2/13/2021 8:45:00 PM 0.01 32.018 0.15 6.58 2.53 13.97
2/13/2021 9:00:00 PM 0.01 32.018 0.15 6.58 2.54 13.97
2/13/2021 9:15:00 PM 0.01 32.018 0.15 6.58 2.51 13.97
2/13/2021 9:30:00 PM 0.01 32.018 0.15 6.58 2.53 13.97
2/13/2021 9:45:00 PM 0.01 32.018 0.147 6.58 2.52 13.97
2/13/2021 10:00:00 PM 0.01 32.018 0.154 6.58 2.54 13.97
2/13/2021 10:15:00 PM 0.01 32.018 0.155 6.57 2.55 13.97
2/13/2021 10:30:00 PM 0.01 32.018 0.154 6.57 2.51 13.97
2/13/2021 10:45:00 PM 0.01 32.018 0.154 6.57 2.49 13.96
2/13/2021 11:00:00 PM 0.01 32.018 0.154 6.58 2.56 13.97
2/13/2021 11:15:00 PM 0.01 32.018 0.154 6.57 2.52 13.97
2/13/2021 11:30:00 PM 0.02 32.036 0.154 6.56 2.57 13.97
2/13/2021 11:45:00 PM 0.02 32.036 0.154 6.57 2.53 13.97
2/14/2021 12:00:00 AM 0.02 32.036 0.154 6.57 2.58 13.97
2/14/2021 12:15:00 AM 0.02 32.036 0.154 6.57 2.5 13.97
2/14/2021 12:30:00 AM 0.02 32.036 0.154 6.57 2.59 13.97
2/14/2021 12:45:00 AM 0.03 32.054 0.154 6.58 2.57 13.97
2/14/2021 1:00:00 AM 0.03 32.054 0.154 6.57 2.56 13.97
2/14/2021 1:15:00 AM 0.04 32.072 0.154 6.57 2.53 13.97
2/14/2021 1:30:00 AM 0.04 32.072 0.154 6.58 2.54 13.96
2/14/2021 1:45:00 AM 0.05 32.09 0.154 6.57 2.5 13.96
2/14/2021 2:00:00 AM 0.05 32.09 0.154 6.57 2.52 13.96
2/14/2021 2:15:00 AM 0.06 32.108 0.154 6.57 2.49 13.96
2/14/2021 2:30:00 AM 0.06 32.108 0.154 6.58 2.51 13.95
2/14/2021 2:45:00 AM 0.07 32.126 0.154 6.57 2.52 13.95
2/14/2021 3:00:00 AM 0.08 32.144 0.154 6.57 2.53 13.94
2/14/2021 3:15:00 AM 0.09 32.162 0.154 6.57 2.49 13.94
2/14/2021 3:30:00 AM 0.1 32.18 0.154 6.58 2.53 13.93
2/14/2021 3:45:00 AM 0.11 32.198 0.154 6.57 2.52 13.93
2/14/2021 4:00:00 AM 0.12 32.216 0.154 6.57 2.53 13.93
2/14/2021 4:15:00 AM 0.13 32.234 0.154 6.57 2.55 13.92
2/14/2021 4:30:00 AM 0.14 32.252 0.154 6.57 2.56 13.92
2/14/2021 4:45:00 AM 0.15 32.27 0.154 6.57 2.55 13.92
2/14/2021 5:00:00 AM 0.17 32.306 0.154 6.58 2.52 13.91
2/14/2021 5:15:00 AM 0.18 32.324 0.154 6.58 2.54 13.9
2/14/2021 5:30:00 AM 0.2 32.36 0.154 6.58 2.5 13.91
2/14/2021 5:45:00 AM 0.21 32.378 0.154 6.58 2.54 13.91
2/14/2021 6:00:00 AM 0.21 32.378 0.152 6.58 2.53 13.9
2/14/2021 6:15:00 AM 0.22 32.396 0.153 6.58 2.5 13.91
2/14/2021 6:30:00 AM 0.23 32.414 0.153 6.58 2.52 13.91
2/14/2021 6:45:00 AM 0.23 32.414 0.151 6.58 2.56 13.9
2/14/2021 7:00:00 AM 0.24 32.432 0.153 6.58 2.52 13.9
2/14/2021 7:15:00 AM 0.24 32.432 0.152 6.58 2.56 13.9
2/14/2021 7:30:00 AM 0.25 32.45 0.152 6.58 2.53 13.9
2/14/2021 7:45:00 AM 0.26 32.468 0.152 6.58 2.51 13.91
2/14/2021 8:00:00 AM 0.26 32.468 0.152 6.58 2.51 13.9
2/14/2021 8:15:00 AM 0.27 32.486 0.152 6.59 2.48 13.91
2/14/2021 8:30:00 AM 0.27 32.486 0.152 6.59 2.51 13.91
2/14/2021 8:45:00 AM 0.28 32.504 0.152 6.58 2.45 13.91
2/14/2021 9:00:00 AM 0.29 32.522 0.151 6.58 2.49 13.91
2/14/2021 9:15:00 AM 0.3 32.54 0.151 6.58 2.5 13.91
2/14/2021 9:30:00 AM 0.32 32.576 0.151 6.58 2.49 13.91
2/14/2021 9:45:00 AM 0.34 32.612 0.151 6.58 2.53 13.9
2/14/2021 10:00:00 AM 0.36 32.648 0.151 6.59 2.49 13.89
2/14/2021 10:15:00 AM 0.38 32.684 0.152 6.59 2.5 13.88
2/14/2021 10:30:00 AM 0.41 32.738 0.152 6.58 2.52 13.87
2/14/2021 10:45:00 AM 0.43 32.774 0.152 6.59 2.51 13.86
2/14/2021 11:00:00 AM 0.45 32.81 0.152 6.59 2.53 13.86
2/14/2021 11:15:00 AM 0.46 32.828 0.152 6.59 2.52 13.85
2/14/2021 11:30:00 AM 0.48 32.864 0.152 6.58 2.54 13.84
2/14/2021 11:45:00 AM 0.5 32.9 0.152 6.59 2.51 13.83
2/14/2021 12:00:00 PM 0.53 32.954 0.152 6.59 2.51 13.83
2/14/2021 12:15:00 PM 0.57 33.026 0.151 6.59 2.51 13.81
2/14/2021 12:30:00 PM 0.6 33.08 0.151 6.59 2.49 13.8
2/14/2021 12:45:00 PM 0.62 33.116 0.151 6.59 2.51 13.78
2/14/2021 1:00:00 PM 0.65 33.17 0.151 6.59 2.46 13.77
2/14/2021 1:15:00 PM 0.67 33.206 0.152 6.59 2.54 13.76
2/14/2021 1:30:00 PM 0.69 33.242 0.152 6.58 2.56 13.75
2/14/2021 1:45:00 PM 0.71 33.278 0.152 6.59 2.61 13.73
2/14/2021 2:00:00 PM 0.73 33.314 0.15 6.59 2.5 13.72
2/14/2021 2:15:00 PM 0.74 33.332 0.15 6.59 2.57 13.72
2/14/2021 2:30:00 PM 0.75 33.35 0.15 6.59 2.51 13.71
2/14/2021 2:45:00 PM 0.75 33.35 0.15 6.59 2.51 13.72
2/14/2021 3:00:00 PM 0.76 33.368 0.15 6.58 2.46 13.72
2/14/2021 3:15:00 PM 0.79 33.422 0.15 6.59 2.46 13.7
2/14/2021 3:30:00 PM 0.8 33.44 0.15 6.59 2.43 13.69
2/14/2021 3:45:00 PM 0.8 33.44 0.15 6.59 2.46 13.7
2/14/2021 4:00:00 PM 0.79 33.422 0.15 6.59 2.43 13.7
2/14/2021 4:15:00 PM 0.8 33.44 0.152 6.58 2.45 13.7
2/14/2021 4:30:00 PM 0.79 33.422 0.152 6.59 2.53 13.7
2/14/2021 4:45:00 PM 0.78 33.404 0.152 6.58 2.48 13.7
2/14/2021 5:00:00 PM 0.78 33.404 0.151 6.59 2.47 13.7
2/14/2021 5:15:00 PM 0.77 33.386 0.151 6.59 2.49 13.71
2/14/2021 5:30:00 PM 0.76 33.368 0.151 6.59 2.52 13.71
2/14/2021 5:45:00 PM 0.75 33.35 0.151 6.59 2.48 13.71
2/14/2021 6:00:00 PM 0.75 33.35 0.152 6.59 2.46 13.71
2/14/2021 6:15:00 PM 0.74 33.332 0.151 6.59 2.49 13.72
2/14/2021 6:30:00 PM 0.73 33.314 0.151 6.59 2.51 13.72
2/14/2021 6:45:00 PM 0.73 33.314 0.151 6.59 2.48 13.73
2/14/2021 7:00:00 PM 0.72 33.296 0.149 6.58 2.48 13.73
2/14/2021 7:15:00 PM 0.71 33.278 0.152 6.58 2.46 13.73
2/14/2021 7:30:00 PM 0.71 33.278 0.152 6.59 2.46 13.73
2/14/2021 7:45:00 PM 0.7 33.26 0.152 6.59 2.44 13.74
2/14/2021 8:00:00 PM 0.69 33.242 0.152 6.59 2.49 13.74
2/14/2021 8:15:00 PM 0.69 33.242 0.152 6.59 2.52 13.74
2/14/2021 8:30:00 PM 0.69 33.242 0.152 6.59 2.49 13.74
2/14/2021 8:45:00 PM 0.69 33.242 0.151 6.58 2.51 13.74
2/14/2021 9:00:00 PM 0.68 33.224 0.151 6.59 2.48 13.74
2/14/2021 9:15:00 PM 0.68 33.224 0.151 6.59 2.49 13.74
2/14/2021 9:30:00 PM 0.68 33.224 0.152 6.58 2.53 13.74
2/14/2021 9:45:00 PM 0.68 33.224 0.152 6.58 2.37 13.74
2/14/2021 10:00:00 PM 0.68 33.224 0.152 6.59 2.39 13.74
2/14/2021 10:15:00 PM 0.68 33.224 0.151 6.59 2.39 13.74
2/14/2021 10:30:00 PM 0.68 33.224 0.151 6.59 2.45 13.73
2/14/2021 10:45:00 PM 0.69 33.242 0.151 6.59 2.38 13.72
2/14/2021 11:00:00 PM 0.69 33.242 0.152 6.59 2.38 13.73
2/14/2021 11:15:00 PM 0.7 33.26 0.151 6.58 2.36 13.72
2/14/2021 11:30:00 PM 0.7 33.26 0.151 6.59 2.39 13.73
2/14/2021 11:45:00 PM 0.7 33.26 0.151 6.59 2.37 13.72
2/15/2021 12:00:00 AM 0.7 33.26 0.151 6.59 2.43 13.72
2/15/2021 12:15:00 AM 0.7 33.26 0.151 6.59 2.43 13.72
2/15/2021 12:30:00 AM 0.7 33.26 0.148 6.59 2.45 13.72
2/15/2021 12:45:00 AM 0.7 33.26 0.15 6.59 2.4 13.72
2/15/2021 1:00:00 AM 0.7 33.26 0.149 6.59 2.37 13.72
2/15/2021 1:15:00 AM 0.7 33.26 0.149 6.59 2.4 13.72
2/15/2021 1:30:00 AM 0.7 33.26 0.149 6.59 2.35 13.72
2/15/2021 1:45:00 AM 0.7 33.26 0.149 6.59 2.53 13.72
2/15/2021 2:00:00 AM 0.7 33.26 0.148 6.59 2.35 13.72
2/15/2021 2:15:00 AM 0.7 33.26 0.149 6.59 2.39 13.71
2/15/2021 2:30:00 AM 0.7 33.26 0.15 6.59 2.35 13.71
2/15/2021 2:45:00 AM 0.7 33.26 0.151 6.59 2.34 13.71
2/15/2021 3:00:00 AM 0.71 33.278 0.151 6.59 2.37 13.71
2/15/2021 3:15:00 AM 0.7 33.26 0.151 6.59 2.38 13.71
2/15/2021 3:30:00 AM 0.7 33.26 0.151 6.59 2.36 13.71
2/15/2021 3:45:00 AM 0.7 33.26 0.151 6.59 2.4 13.7
2/15/2021 4:00:00 AM 0.7 33.26 0.151 6.59 2.37 13.7
2/15/2021 4:15:00 AM 0.69 33.242 0.151 6.59 2.35 13.7
2/15/2021 4:30:00 AM 0.69 33.242 0.151 6.59 2.37 13.71
2/15/2021 4:45:00 AM 0.69 33.242 0.15 6.59 2.37 13.71
2/15/2021 5:00:00 AM 0.69 33.242 0.15 6.59 2.35 13.71
2/15/2021 5:15:00 AM 0.69 33.242 0.15 6.59 2.31 13.71
2/15/2021 5:30:00 AM 0.69 33.242 0.15 6.59 2.41 13.71
2/15/2021 5:45:00 AM 0.68 33.224 0.148 6.59 2.37 13.71
2/15/2021 6:00:00 AM 0.68 33.224 0.151 6.58 2.39 13.71
2/15/2021 6:15:00 AM 0.68 33.224 0.151 6.59 2.38 13.71
2/15/2021 6:30:00 AM 0.67 33.206 0.151 6.59 2.36 13.71
2/15/2021 6:45:00 AM 0.68 33.224 0.151 6.58 2.35 13.72
2/15/2021 7:00:00 AM 0.68 33.224 0.15 6.59 2.38 13.72
2/15/2021 7:15:00 AM 0.67 33.206 0.15 6.59 2.36 13.72
2/15/2021 7:30:00 AM 0.67 33.206 0.15 6.59 2.36 13.72
2/15/2021 7:45:00 AM 0.67 33.206 0.15 6.59 2.38 13.72
2/15/2021 8:00:00 AM 0.66 33.188 0.15 6.59 2.38 13.72
2/15/2021 8:15:00 AM 0.65 33.17 0.15 6.59 2.38 13.73
2/15/2021 8:30:00 AM 0.65 33.17 0.15 6.58 2.38 13.73
2/15/2021 8:45:00 AM 0.65 33.17 0.15 6.59 2.39 13.73
2/15/2021 9:00:00 AM 0.65 33.17 0.15 6.59 2.36 13.73
2/15/2021 9:15:00 AM 0.64 33.152 0.15 6.58 2.38 13.74
2/15/2021 9:30:00 AM 0.63 33.134 0.149 6.58 2.4 13.74
2/15/2021 9:45:00 AM 0.63 33.134 0.149 6.58 2.39 13.74
2/15/2021 10:00:00 AM 0.63 33.134 0.149 6.58 2.39 13.74
2/15/2021 10:15:00 AM 0.61 33.098 0.149 6.58 2.39 13.74
2/15/2021 10:30:00 AM 0.59 33.062 0.149 6.58 2.41 13.76
2/15/2021 10:45:00 AM 0.56 33.008 0.149 6.58 2.38 13.77
2/15/2021 11:00:00 AM 0.54 32.972 0.149 6.58 2.36 13.77
2/15/2021 11:15:00 AM 0.55 32.99 0.149 6.58 2.39 13.78
2/15/2021 11:30:00 AM 0.56 33.008 0.149 6.58 2.37 13.78
2/15/2021 11:45:00 AM 0.58 33.044 0.149 6.58 2.38 13.77
2/15/2021 12:00:00 PM 0.61 33.098 0.148 6.58 2.4 13.76
2/15/2021 12:15:00 PM 0.65 33.17 0.148 6.58 2.35 13.73
2/15/2021 12:30:00 PM 0.7 33.26 0.149 6.58 2.35 13.71
2/15/2021 12:45:00 PM 0.74 33.332 0.149 6.58 2.42 13.69
2/15/2021 1:00:00 PM 0.77 33.386 0.148 6.58 2.36 13.67
2/15/2021 1:15:00 PM 0.81 33.458 0.149 6.59 2.37 13.65
2/15/2021 1:30:00 PM 0.84 33.512 0.149 6.58 2.33 13.63
2/15/2021 1:45:00 PM 0.88 33.584 0.149 6.59 2.37 13.6
2/15/2021 2:00:00 PM 0.91 33.638 0.149 6.59 2.34 13.59
2/15/2021 2:15:00 PM 0.94 33.692 0.149 6.59 2.41 13.58
2/15/2021 2:30:00 PM 0.96 33.728 0.15 6.58 2.36 13.57
2/15/2021 2:45:00 PM 0.98 33.764 0.152 6.58 2.37 13.56
2/15/2021 3:00:00 PM 0.99 33.782 0.153 6.58 2.36 13.56
2/15/2021 3:15:00 PM 0.99 33.782 0.155 6.58 2.39 13.56
2/15/2021 3:30:00 PM 0.99 33.782 0.156 6.58 2.32 13.56
2/15/2021 3:45:00 PM 0.99 33.782 0.156 6.58 2.37 13.56
2/15/2021 4:00:00 PM 0.99 33.782 0.156 6.58 2.35 13.55
2/15/2021 4:15:00 PM 0.98 33.764 0.156 6.58 2.36 13.56
2/15/2021 4:30:00 PM 0.98 33.764 0.156 6.58 2.34 13.55
2/15/2021 4:45:00 PM 0.97 33.746 0.156 6.58 2.36 13.55
2/15/2021 5:00:00 PM 0.96 33.728 0.156 6.58 2.34 13.55
2/15/2021 5:15:00 PM 0.96 33.728 0.156 6.58 2.37 13.55
2/15/2021 5:30:00 PM 0.95 33.71 0.156 6.58 2.37 13.55
2/15/2021 5:45:00 PM 0.94 33.692 0.157 6.58 2.37 13.55
2/15/2021 6:00:00 PM 0.93 33.674 0.157 6.58 2.38 13.55
2/15/2021 6:15:00 PM 0.91 33.638 0.159 6.59 2.35 13.55
2/15/2021 6:30:00 PM 0.89 33.602 0.16 6.58 2.37 13.55
2/15/2021 6:45:00 PM 0.87 33.566 0.162 6.58 2.36 13.56
2/15/2021 7:00:00 PM 0.83 33.494 0.162 6.58 2.35 13.56
2/15/2021 7:15:00 PM 0.73 33.314 0.163 6.58 2.4 13.58
2/15/2021 7:30:00 PM 0.64 33.152 0.163 6.58 2.46 13.61
2/15/2021 7:45:00 PM 0.47 32.846 0.162 6.58 2.43 13.66
2/15/2021 8:00:00 PM 0.32 32.576 0.162 6.57 2.46 13.71
2/15/2021 8:15:00 PM 0.19 32.342 0.162 6.58 2.47 13.77
2/15/2021 8:30:00 PM 0.08 32.144 0.161 6.57 2.52 13.81
2/15/2021 8:45:00 PM 0.03 32.054 0.16 6.56 2.5 13.84
2/15/2021 9:00:00 PM 0.02 32.036 0.16 6.57 2.49 13.87
2/15/2021 9:15:00 PM 0.01 32.018 0.159 6.57 2.58 13.87
2/15/2021 9:30:00 PM 0.01 32.018 0.158 6.57 2.53 13.87
2/15/2021 9:45:00 PM 0.01 32.018 0.156 6.57 2.57 13.87
2/15/2021 10:00:00 PM 0.01 32.018 0.156 6.57 2.64 13.86
2/15/2021 10:15:00 PM 0.01 32.018 0.156 6.57 2.62 13.86
2/15/2021 10:30:00 PM 0.01 32.018 0.155 6.56 2.58 13.86
2/15/2021 10:45:00 PM 0 32 0.154 6.56 2.57 13.86
2/15/2021 11:00:00 PM 0 32 0.153 6.56 2.65 13.84
2/15/2021 11:15:00 PM 0 32 0.153 6.55 2.58 13.84
2/15/2021 11:30:00 PM 0 32 0.152 6.55 2.74 13.83
2/15/2021 11:45:00 PM 0 32 0.152 6.55 2.63 13.83
2/16/2021 12:00:00 AM 0 32 0.151 6.55 2.64 13.82
2/16/2021 12:15:00 AM 0 32 0.151 6.55 2.63 13.81
2/16/2021 12:30:00 AM 0 32 0.151 6.55 2.61 13.8
2/16/2021 12:45:00 AM 0.01 32.018 0.15 6.56 2.59 13.8
2/16/2021 1:00:00 AM 0.01 32.018 0.149 6.56 2.65 13.8
2/16/2021 1:15:00 AM 0.01 32.018 0.148 6.55 2.52 13.8
2/16/2021 1:30:00 AM 0.01 32.018 0.148 6.55 2.58 13.8
2/16/2021 1:45:00 AM 0.01 32.018 0.147 6.56 2.69 13.79
2/16/2021 2:00:00 AM 0.01 32.018 0.147 6.55 2.62 13.79
2/16/2021 2:15:00 AM 0.01 32.018 0.147 6.55 2.58 13.78
2/16/2021 2:30:00 AM 0.01 32.018 0.146 6.56 2.51 13.78
2/16/2021 2:45:00 AM 0.01 32.018 0.148 6.56 2.56 13.78
2/16/2021 3:00:00 AM 0.01 32.018 0.147 6.56 2.56 13.78
2/16/2021 3:15:00 AM 0.01 32.018 0.147 6.56 2.53 13.78
2/16/2021 3:30:00 AM 0.01 32.018 0.148 6.56 2.54 13.77
2/16/2021 3:45:00 AM 0.01 32.018 0.148 6.56 2.59 13.77
2/16/2021 4:00:00 AM 0.01 32.018 0.149 6.56 2.62 13.77
2/16/2021 4:15:00 AM 0.01 32.018 0.149 6.56 2.57 13.77
2/16/2021 4:30:00 AM 0.01 32.018 0.149 6.57 2.6 13.78
2/16/2021 4:45:00 AM 0.01 32.018 0.15 6.57 2.6 13.77
2/16/2021 5:00:00 AM 0.01 32.018 0.15 6.57 2.6 13.77
2/16/2021 5:15:00 AM 0.01 32.018 0.15 6.57 2.66 13.77
2/16/2021 5:30:00 AM 0.01 32.018 0.15 6.57 2.62 13.76
2/16/2021 5:45:00 AM 0.01 32.018 0.151 6.57 2.56 13.76
2/16/2021 6:00:00 AM 0.01 32.018 0.151 6.57 2.59 13.76
2/16/2021 6:15:00 AM 0.01 32.018 0.152 6.57 2.6 13.75
2/16/2021 6:30:00 AM 0.01 32.018 0.153 6.57 2.59 13.75
2/16/2021 6:45:00 AM 0.01 32.018 0.154 6.57 2.64 13.75
2/16/2021 7:00:00 AM 0.01 32.018 0.156 6.57 2.65 13.75
2/16/2021 7:15:00 AM 0.01 32.018 0.157 6.57 2.65 13.75
2/16/2021 7:30:00 AM 0.01 32.018 0.159 6.58 2.63 13.74
2/16/2021 7:45:00 AM 0.01 32.018 0.16 6.58 2.59 13.75
2/16/2021 8:00:00 AM 0.01 32.018 0.162 6.58 2.66 13.75
2/16/2021 8:15:00 AM 0.01 32.018 0.163 6.58 2.63 13.75
2/16/2021 8:30:00 AM 0.01 32.018 0.164 6.58 2.64 13.76
2/16/2021 8:45:00 AM 0.01 32.018 0.165 6.58 2.65 13.76
2/16/2021 9:00:00 AM 0.01 32.018 0.166 6.58 2.73 13.76
2/16/2021 9:15:00 AM 0.01 32.018 0.167 6.58 2.72 13.76
2/16/2021 9:30:00 AM 0.01 32.018 0.168 6.58 2.71 13.76
2/16/2021 9:45:00 AM 0.01 32.018 0.169 6.58 2.73 13.77
2/16/2021 10:00:00 AM 0.01 32.018 0.17 6.58 2.74 13.76
2/16/2021 10:15:00 AM 0.01 32.018 0.171 6.58 2.7 13.77
2/16/2021 10:30:00 AM 0.02 32.036 0.172 6.58 2.71 13.76
2/16/2021 10:45:00 AM 0.02 32.036 0.174 6.58 2.69 13.77
2/16/2021 11:00:00 AM 0.02 32.036 0.174 6.58 2.69 13.77
2/16/2021 11:15:00 AM 0.02 32.036 0.176 6.59 2.72 13.77
2/16/2021 11:30:00 AM 0.02 32.036 0.176 6.59 2.66 13.77
2/16/2021 11:45:00 AM 0.02 32.036 0.177 6.59 2.64 13.77
2/16/2021 12:00:00 PM 0.02 32.036 0.177 6.59 2.69 13.77
2/16/2021 12:15:00 PM 0.02 32.036 0.177 6.59 2.64 13.77
2/16/2021 12:30:00 PM 0.03 32.054 0.178 6.59 2.66 13.76
2/16/2021 12:45:00 PM 0.03 32.054 0.178 6.6 2.65 13.77
2/16/2021 1:00:00 PM 0.05 32.09 0.179 6.6 2.63 13.76
2/16/2021 1:15:00 PM 0.06 32.108 0.179 6.6 2.58 13.76
2/16/2021 1:30:00 PM 0.08 32.144 0.179 6.6 2.61 13.74
2/16/2021 1:45:00 PM 0.11 32.198 0.18 6.6 2.57 13.75
2/16/2021 2:00:00 PM 0.13 32.234 0.18 6.6 2.57 13.74
2/16/2021 2:15:00 PM 0.16 32.288 0.18 6.61 2.6 13.73
2/16/2021 2:30:00 PM 0.2 32.36 0.181 6.61 2.6 13.73
2/16/2021 2:45:00 PM 0.23 32.414 0.181 6.61 2.61 13.72
2/16/2021 3:00:00 PM 0.25 32.45 0.181 6.61 2.57 13.71
2/16/2021 3:15:00 PM 0.27 32.486 0.181 6.61 2.57 13.71
2/16/2021 3:30:00 PM 0.29 32.522 0.18 6.61 2.53 13.72
2/16/2021 3:45:00 PM 0.3 32.54 0.18 6.6 2.57 13.71
2/16/2021 4:00:00 PM 0.32 32.576 0.18 6.61 2.57 13.71
2/16/2021 4:15:00 PM 0.33 32.594 0.18 6.61 2.55 13.71
2/16/2021 4:30:00 PM 0.32 32.576 0.179 6.61 2.51 13.72
2/16/2021 4:45:00 PM 0.33 32.594 0.179 6.61 2.52 13.73
2/16/2021 5:00:00 PM 0.33 32.594 0.178 6.61 2.57 13.73
2/16/2021 5:15:00 PM 0.33 32.594 0.178 6.61 2.54 13.72
2/16/2021 5:30:00 PM 0.33 32.594 0.177 6.6 2.5 13.72
2/16/2021 5:45:00 PM 0.32 32.576 0.177 6.6 2.53 13.74
2/16/2021 6:00:00 PM 0.3 32.54 0.177 6.6 2.49 13.75
2/16/2021 6:15:00 PM 0.26 32.468 0.176 6.6 2.54 13.78
2/16/2021 6:30:00 PM 0.25 32.45 0.176 6.6 2.51 13.79
2/16/2021 6:45:00 PM 0.24 32.432 0.176 6.6 2.53 13.8
2/16/2021 7:00:00 PM 0.23 32.414 0.175 6.6 2.5 13.81
2/16/2021 7:15:00 PM 0.22 32.396 0.175 6.6 2.46 13.82
2/16/2021 7:30:00 PM 0.2 32.36 0.175 6.6 2.53 13.84
2/16/2021 7:45:00 PM 0.19 32.342 0.174 6.6 2.5 13.86
2/16/2021 8:00:00 PM 0.19 32.342 0.174 6.6 2.52 13.86
2/16/2021 8:15:00 PM 0.17 32.306 0.174 6.6 2.52 13.87
2/16/2021 8:30:00 PM 0.16 32.288 0.173 6.6 2.48 13.89
2/16/2021 8:45:00 PM 0.14 32.252 0.173 6.6 2.5 13.89
2/16/2021 9:00:00 PM 0.12 32.216 0.173 6.6 2.51 13.91
2/16/2021 9:15:00 PM 0.09 32.162 0.173 6.6 2.54 13.92
2/16/2021 9:30:00 PM 0.08 32.144 0.173 6.59 2.48 13.93
2/16/2021 9:45:00 PM 0.07 32.126 0.172 6.6 2.49 13.94
2/16/2021 10:00:00 PM 0.06 32.108 0.172 6.6 2.49 13.95
2/16/2021 10:15:00 PM 0.05 32.09 0.172 6.6 2.49 13.96
2/16/2021 10:30:00 PM 0.04 32.072 0.172 6.6 2.54 13.95
2/16/2021 10:45:00 PM 0.04 32.072 0.171 6.6 2.49 13.96
2/16/2021 11:00:00 PM 0.04 32.072 0.171 6.59 2.47 13.95
2/16/2021 11:15:00 PM 0.05 32.09 0.171 6.6 2.49 13.96
2/16/2021 11:30:00 PM 0.04 32.072 0.171 6.59 2.45 13.97
2/16/2021 11:45:00 PM 0.05 32.09 0.171 6.59 2.47 13.96
2/17/2021 12:00:00 AM 0.04 32.072 0.171 6.6 2.49 13.97
2/17/2021 12:15:00 AM 0.03 32.054 0.17 6.59 2.52 13.97
2/17/2021 12:30:00 AM 0.03 32.054 0.17 6.59 2.5 13.99
2/17/2021 12:45:00 AM 0.02 32.036 0.17 6.59 2.52 13.99
2/17/2021 1:00:00 AM 0 32 0.17 6.59 2.46 14
2/17/2021 1:15:00 AM -0.01 31.982 0.17 6.59 2.48 14.01
2/17/2021 1:30:00 AM -0.01 31.982 0.17 6.59 2.47 14.02
2/17/2021 1:45:00 AM -0.02 31.964 0.17 6.59 2.48 14.02
2/17/2021 2:00:00 AM -0.01 31.982 0.17 6.59 2.53 14.02
2/17/2021 2:15:00 AM -0.01 31.982 0.17 6.59 2.5 14.02
2/17/2021 2:30:00 AM -0.01 31.982 0.17 6.59 2.48 14.03
2/17/2021 2:45:00 AM -0.01 31.982 0.17 6.59 2.47 14.03
2/17/2021 3:00:00 AM -0.01 31.982 0.17 6.58 2.48 14.02
2/17/2021 3:15:00 AM -0.01 31.982 0.17 6.59 2.51 14.04
2/17/2021 3:30:00 AM -0.01 31.982 0.17 6.59 2.53 14.04
2/17/2021 3:45:00 AM -0.01 31.982 0.17 6.59 2.54 14.04
2/17/2021 4:00:00 AM -0.01 31.982 0.17 6.59 2.48 14.04
2/17/2021 4:15:00 AM -0.01 31.982 0.169 6.59 2.47 14.05
2/17/2021 4:30:00 AM -0.01 31.982 0.169 6.58 2.47 14.05
2/17/2021 4:45:00 AM -0.01 31.982 0.169 6.58 2.5 14.05
2/17/2021 5:00:00 AM -0.01 31.982 0.169 6.58 2.48 14.05
2/17/2021 5:15:00 AM -0.01 31.982 0.169 6.58 2.44 14.06
2/17/2021 5:30:00 AM -0.01 31.982 0.169 6.58 2.46 14.07
2/17/2021 5:45:00 AM -0.01 31.982 0.169 6.58 2.5 14.08
2/17/2021 6:00:00 AM -0.01 31.982 0.169 6.58 2.48 14.08
2/17/2021 6:15:00 AM -0.01 31.982 0.169 6.58 2.46 14.08
2/17/2021 6:30:00 AM -0.01 31.982 0.169 6.58 2.53 14.09
2/17/2021 6:45:00 AM -0.01 31.982 0.169 6.58 2.5 14.09
2/17/2021 7:00:00 AM -0.01 31.982 0.169 6.58 2.47 14.08
2/17/2021 7:15:00 AM -0.01 31.982 0.169 6.58 2.52 14.08
2/17/2021 7:30:00 AM -0.01 31.982 0.168 6.57 2.45 14.08
2/17/2021 7:45:00 AM -0.01 31.982 0.168 6.57 2.47 14.08
2/17/2021 8:00:00 AM 0 32 0.168 6.57 2.48 14.09
2/17/2021 8:15:00 AM 0 32 0.168 6.57 2.49 14.08
2/17/2021 8:30:00 AM 0 32 0.168 6.57 2.51 14.09
2/17/2021 8:45:00 AM 0 32 0.168 6.57 2.52 14.1
2/17/2021 9:00:00 AM 0 32 0.168 6.57 2.52 14.1
2/17/2021 9:15:00 AM 0 32 0.167 6.56 2.54 14.1
2/17/2021 9:30:00 AM 0 32 0.167 6.57 2.52 14.1
2/17/2021 9:45:00 AM 0 32 0.167 6.57 2.49 14.1
2/17/2021 10:00:00 AM 0 32 0.167 6.57 2.55 14.1
2/17/2021 10:15:00 AM 0 32 0.167 6.57 2.52 14.1
2/17/2021 10:30:00 AM 0 32 0.167 6.57 2.58 14.1
2/17/2021 10:45:00 AM 0 32 0.167 6.57 2.53 14.1
2/17/2021 11:00:00 AM 0.01 32.018 0.166 6.57 2.53 14.1
2/17/2021 11:15:00 AM 0.01 32.018 0.166 6.57 2.53 14.09
2/17/2021 11:30:00 AM 0.02 32.036 0.166 6.58 2.56 14.1
2/17/2021 11:45:00 AM 0.02 32.036 0.165 6.58 2.51 14.09
2/17/2021 12:00:00 PM 0.03 32.054 0.165 6.58 2.54 14.07
2/17/2021 12:15:00 PM 0.09 32.162 0.165 6.59 2.48 14.04
2/17/2021 12:30:00 PM 0.19 32.342 0.165 6.59 2.54 14
2/17/2021 12:45:00 PM 0.26 32.468 0.165 6.59 2.5 13.97
2/17/2021 1:00:00 PM 0.32 32.576 0.165 6.59 2.48 13.93
2/17/2021 1:15:00 PM 0.37 32.666 0.165 6.59 2.44 13.92
2/17/2021 1:30:00 PM 0.41 32.738 0.164 6.59 2.43 13.9
2/17/2021 1:45:00 PM 0.44 32.792 0.164 6.59 2.48 13.89
2/17/2021 2:00:00 PM 0.46 32.828 0.164 6.59 2.42 13.88
2/17/2021 2:15:00 PM 0.47 32.846 0.164 6.59 2.45 13.89
2/17/2021 2:30:00 PM 0.49 32.882 0.164 6.59 2.45 13.88
2/17/2021 2:45:00 PM 0.5 32.9 0.164 6.59 2.41 13.87
2/17/2021 3:00:00 PM 0.51 32.918 0.164 6.6 2.44 13.86
2/17/2021 3:15:00 PM 0.53 32.954 0.164 6.6 2.47 13.85
2/17/2021 3:30:00 PM 0.53 32.954 0.164 6.59 2.45 13.85
2/17/2021 3:45:00 PM 0.54 32.972 0.164 6.6 2.47 13.85
2/17/2021 4:00:00 PM 0.53 32.954 0.164 6.6 2.43 13.85
2/17/2021 4:15:00 PM 0.53 32.954 0.164 6.6 2.42 13.84
2/17/2021 4:30:00 PM 0.53 32.954 0.164 6.6 2.45 13.84
2/17/2021 4:45:00 PM 0.52 32.936 0.164 6.6 2.45 13.84
2/17/2021 5:00:00 PM 0.51 32.918 0.164 6.59 2.49 13.85
2/17/2021 5:15:00 PM 0.5 32.9 0.164 6.6 2.4 13.86
2/17/2021 5:30:00 PM 0.48 32.864 0.164 6.6 2.46 13.87
2/17/2021 5:45:00 PM 0.47 32.846 0.164 6.59 2.46 13.88
2/17/2021 6:00:00 PM 0.45 32.81 0.164 6.59 2.46 13.89
2/17/2021 6:15:00 PM 0.43 32.774 0.164 6.59 2.62 13.9
2/17/2021 6:30:00 PM 0.42 32.756 0.164 6.59 2.46 13.9
2/17/2021 6:45:00 PM 0.4 32.72 0.164 6.59 2.45 13.92
2/17/2021 7:00:00 PM 0.39 32.702 0.164 6.6 2.46 13.91
2/17/2021 7:15:00 PM 0.4 32.72 0.164 6.6 2.47 13.92
2/17/2021 7:30:00 PM 0.39 32.702 0.165 6.6 2.48 13.92
2/17/2021 7:45:00 PM 0.39 32.702 0.164 6.6 2.47 13.92
2/17/2021 8:00:00 PM 0.4 32.72 0.165 6.6 2.47 13.92
2/17/2021 8:15:00 PM 0.4 32.72 0.165 6.6 2.45 13.92
2/17/2021 8:30:00 PM 0.4 32.72 0.164 6.59 2.44 13.91
2/17/2021 8:45:00 PM 0.41 32.738 0.164 6.6 2.46 13.91
2/17/2021 9:00:00 PM 0.41 32.738 0.164 6.59 2.44 13.92
2/17/2021 9:15:00 PM 0.41 32.738 0.164 6.6 2.46 13.91
2/17/2021 9:30:00 PM 0.41 32.738 0.164 6.6 2.47 13.92
2/17/2021 9:45:00 PM 0.41 32.738 0.164 6.6 2.46 13.91
2/17/2021 10:00:00 PM 0.42 32.756 0.164 6.6 2.46 13.91
2/17/2021 10:15:00 PM 0.42 32.756 0.164 6.6 2.41 13.9
2/17/2021 10:30:00 PM 0.41 32.738 0.164 6.6 2.46 13.9
2/17/2021 10:45:00 PM 0.41 32.738 0.164 6.6 2.42 13.91
2/17/2021 11:00:00 PM 0.41 32.738 0.164 6.6 2.43 13.91
2/17/2021 11:15:00 PM 0.41 32.738 0.164 6.6 2.46 13.92
2/17/2021 11:30:00 PM 0.41 32.738 0.164 6.6 2.44 13.91
2/17/2021 11:45:00 PM 0.4 32.72 0.164 6.6 2.43 13.91
2/18/2021 12:00:00 AM 0.38 32.684 0.164 6.6 2.48 13.91
2/18/2021 12:15:00 AM 0.35 32.63 0.164 6.6 2.42 13.92
2/18/2021 12:30:00 AM 0.33 32.594 0.164 6.6 2.41 13.94
2/18/2021 12:45:00 AM 0.31 32.558 0.164 6.6 2.43 13.95
2/18/2021 1:00:00 AM 0.29 32.522 0.164 6.6 2.43 13.96
2/18/2021 1:15:00 AM 0.26 32.468 0.164 6.6 2.44 13.97
2/18/2021 1:30:00 AM 0.22 32.396 0.164 6.6 3.11 13.98
2/18/2021 1:45:00 AM 0.19 32.342 0.164 6.6 2.47 14
2/18/2021 2:00:00 AM 0.17 32.306 0.164 6.59 2.39 14.02
2/18/2021 2:15:00 AM 0.16 32.288 0.164 6.59 2.52 14.03
2/18/2021 2:30:00 AM 0.14 32.252 0.164 6.59 2.48 14.02
2/18/2021 2:45:00 AM 0.12 32.216 0.164 6.59 2.46 14.03
2/18/2021 3:00:00 AM 0.12 32.216 0.164 6.59 2.44 14.03
2/18/2021 3:15:00 AM 0.12 32.216 0.164 6.59 2.44 14.03
2/18/2021 3:30:00 AM 0.11 32.198 0.164 6.59 2.43 14.04
2/18/2021 3:45:00 AM 0.1 32.18 0.164 6.59 2.45 14.03
2/18/2021 4:00:00 AM 0.1 32.18 0.164 6.59 2.47 14.04
2/18/2021 4:15:00 AM 0.1 32.18 0.164 6.59 2.42 14.03
2/18/2021 4:30:00 AM 0.1 32.18 0.164 6.59 2.45 14.03
2/18/2021 4:45:00 AM 0.1 32.18 0.164 6.59 2.41 14.03
2/18/2021 5:00:00 AM 0.1 32.18 0.164 6.59 2.42 14.03
2/18/2021 5:15:00 AM 0.11 32.198 0.164 6.59 2.41 14.03
2/18/2021 5:30:00 AM 0.12 32.216 0.164 6.59 2.44 14.03
2/18/2021 5:45:00 AM 0.13 32.234 0.164 6.59 2.44 14.02
2/18/2021 6:00:00 AM 0.14 32.252 0.164 6.59 2.46 14.02
2/18/2021 6:15:00 AM 0.15 32.27 0.164 6.6 2.43 14
2/18/2021 6:30:00 AM 0.16 32.288 0.164 6.59 2.44 14
2/18/2021 6:45:00 AM 0.17 32.306 0.164 6.59 2.44 13.99
2/18/2021 7:00:00 AM 0.17 32.306 0.165 6.59 2.41 13.98
2/18/2021 7:15:00 AM 0.18 32.324 0.165 6.59 2.44 13.98
2/18/2021 7:30:00 AM 0.18 32.324 0.165 6.59 2.45 13.98
2/18/2021 7:45:00 AM 0.18 32.324 0.165 6.59 2.43 13.98
2/18/2021 8:00:00 AM 0.19 32.342 0.165 6.59 2.45 13.98
2/18/2021 8:15:00 AM 0.19 32.342 0.165 6.59 2.39 13.98
2/18/2021 8:30:00 AM 0.19 32.342 0.165 6.59 2.43 14
2/18/2021 8:45:00 AM 0.18 32.324 0.165 6.59 2.43 13.99
2/18/2021 9:00:00 AM 0.17 32.306 0.165 6.59 2.44 13.99
2/18/2021 9:15:00 AM 0.17 32.306 0.165 6.59 2.42 13.98
2/18/2021 9:30:00 AM 0.17 32.306 0.165 6.59 2.47 13.99
2/18/2021 9:45:00 AM 0.17 32.306 0.165 6.59 2.43 13.99
2/18/2021 10:00:00 AM 0.17 32.306 0.165 6.59 2.43 13.98
2/18/2021 10:15:00 AM 0.17 32.306 0.165 6.59 2.43 13.98
2/18/2021 10:30:00 AM 0.18 32.324 0.166 6.59 2.48 13.98
2/18/2021 10:45:00 AM 0.2 32.36 0.166 6.59 2.43 13.97
2/18/2021 11:00:00 AM 0.2 32.36 0.166 6.59 2.44 13.96
2/18/2021 11:15:00 AM 0.22 32.396 0.166 6.59 2.42 13.96
2/18/2021 11:30:00 AM 0.24 32.432 0.166 6.6 2.4 13.95
2/18/2021 11:45:00 AM 0.28 32.504 0.166 6.6 2.45 13.94
2/18/2021 12:00:00 PM 0.3 32.54 0.166 6.59 2.44 13.92
2/18/2021 12:15:00 PM 0.33 32.594 0.166 6.6 2.4 13.91
2/18/2021 12:30:00 PM 0.36 32.648 0.166 6.6 2.42 13.9
2/18/2021 12:45:00 PM 0.39 32.702 0.166 6.6 2.44 13.89
2/18/2021 1:00:00 PM 0.41 32.738 0.166 6.6 2.4 13.88
2/18/2021 1:15:00 PM 0.43 32.774 0.166 6.6 2.41 13.87
2/18/2021 1:30:00 PM 0.45 32.81 0.166 6.6 2.37 13.85
2/18/2021 1:45:00 PM 0.46 32.828 0.166 6.6 2.43 13.86
2/18/2021 2:00:00 PM 0.47 32.846 0.166 6.6 2.45 13.84
2/18/2021 2:15:00 PM 0.48 32.864 0.166 6.6 2.41 13.83
2/18/2021 2:30:00 PM 0.48 32.864 0.166 6.6 2.41 13.84
2/18/2021 2:45:00 PM 0.48 32.864 0.166 6.6 2.45 13.84
2/18/2021 3:00:00 PM 0.48 32.864 0.167 6.6 2.46 13.83
2/18/2021 3:15:00 PM 0.49 32.882 0.167 6.59 2.42 13.83
2/18/2021 3:30:00 PM 0.49 32.882 0.167 6.6 2.48 13.83
2/18/2021 3:45:00 PM 0.48 32.864 0.167 6.6 2.4 13.83
2/18/2021 4:00:00 PM 0.49 32.882 0.167 6.6 2.42 13.83
2/18/2021 4:15:00 PM 0.49 32.882 0.167 6.6 2.41 13.82
2/18/2021 4:30:00 PM 0.49 32.882 0.167 6.6 2.42 13.81
2/18/2021 4:45:00 PM 0.5 32.9 0.167 6.59 2.42 13.81
2/18/2021 5:00:00 PM 0.5 32.9 0.167 6.6 2.4 13.8
2/18/2021 5:15:00 PM 0.5 32.9 0.167 6.6 2.42 13.8
2/18/2021 5:30:00 PM 0.5 32.9 0.167 6.6 2.42 13.81
2/18/2021 5:45:00 PM 0.5 32.9 0.167 6.6 2.44 13.8
2/18/2021 6:00:00 PM 0.49 32.882 0.167 6.6 2.39 13.8
2/18/2021 6:15:00 PM 0.49 32.882 0.167 6.6 2.42 13.8
2/18/2021 6:30:00 PM 0.48 32.864 0.167 6.6 2.43 13.81
2/18/2021 6:45:00 PM 0.47 32.846 0.167 6.59 2.41 13.81
2/18/2021 7:00:00 PM 0.44 32.792 0.167 6.6 2.41 13.82
2/18/2021 7:15:00 PM 0.42 32.756 0.167 6.6 2.42 13.83
2/18/2021 7:30:00 PM 0.41 32.738 0.167 6.6 2.42 13.84
2/18/2021 7:45:00 PM 0.39 32.702 0.167 6.6 2.41 13.84
2/18/2021 8:00:00 PM 0.37 32.666 0.167 6.6 2.45 13.86
2/18/2021 8:15:00 PM 0.37 32.666 0.168 6.59 2.41 13.86
2/18/2021 8:30:00 PM 0.37 32.666 0.168 6.59 2.46 13.86
2/18/2021 8:45:00 PM 0.37 32.666 0.168 6.6 2.45 13.85
2/18/2021 9:00:00 PM 0.36 32.648 0.168 6.6 2.48 13.86
2/18/2021 9:15:00 PM 0.36 32.648 0.168 6.6 2.42 13.86
2/18/2021 9:30:00 PM 0.36 32.648 0.168 6.6 2.41 13.87
2/18/2021 9:45:00 PM 0.36 32.648 0.168 6.6 2.44 13.87
2/18/2021 10:00:00 PM 0.36 32.648 0.168 6.6 2.43 13.86
2/18/2021 10:15:00 PM 0.35 32.63 0.167 6.6 2.42 13.87
2/18/2021 10:30:00 PM 0.35 32.63 0.167 6.6 2.46 13.86
2/18/2021 10:45:00 PM 0.34 32.612 0.167 6.6 2.43 13.87
2/18/2021 11:00:00 PM 0.33 32.594 0.167 6.59 2.44 13.87
2/18/2021 11:15:00 PM 0.32 32.576 0.167 6.6 2.44 13.87
2/18/2021 11:30:00 PM 0.33 32.594 0.167 6.6 2.45 13.87
2/18/2021 11:45:00 PM 0.33 32.594 0.167 6.6 2.45 13.86
2/19/2021 12:00:00 AM 0.34 32.612 0.167 6.6 2.45 13.86
2/19/2021 12:15:00 AM 0.34 32.612 0.167 6.6 2.44 13.86
2/19/2021 12:30:00 AM 0.35 32.63 0.167 6.6 2.46 13.85
2/19/2021 12:45:00 AM 0.36 32.648 0.167 6.6 2.44 13.84
2/19/2021 1:00:00 AM 0.36 32.648 0.167 6.6 2.42 13.85
2/19/2021 1:15:00 AM 0.37 32.666 0.167 6.6 2.41 13.83
2/19/2021 1:30:00 AM 0.37 32.666 0.167 6.6 2.43 13.84
2/19/2021 1:45:00 AM 0.38 32.684 0.167 6.6 2.45 13.84
2/19/2021 2:00:00 AM 0.39 32.702 0.167 6.6 2.47 13.83
2/19/2021 2:15:00 AM 0.39 32.702 0.167 6.6 2.55 13.83
2/19/2021 2:30:00 AM 0.4 32.72 0.167 6.6 2.43 13.82
2/19/2021 2:45:00 AM 0.4 32.72 0.167 6.6 2.41 13.82
2/19/2021 3:00:00 AM 0.41 32.738 0.167 6.6 2.42 13.81
2/19/2021 3:15:00 AM 0.41 32.738 0.167 6.6 2.43 13.81
2/19/2021 3:30:00 AM 0.42 32.756 0.167 6.6 2.39 13.81
2/19/2021 3:45:00 AM 0.42 32.756 0.167 6.6 2.41 13.8
2/19/2021 4:00:00 AM 0.43 32.774 0.167 6.6 2.4 13.8
2/19/2021 4:15:00 AM 0.43 32.774 0.167 6.6 2.46 13.8
2/19/2021 4:30:00 AM 0.42 32.756 0.167 6.6 2.42 13.8
2/19/2021 4:45:00 AM 0.43 32.774 0.167 6.6 2.43 13.8
2/19/2021 5:00:00 AM 0.44 32.792 0.167 6.6 2.38 13.8
2/19/2021 5:15:00 AM 0.44 32.792 0.167 6.6 2.41 13.79
2/19/2021 5:30:00 AM 0.45 32.81 0.167 6.6 2.43 13.79
2/19/2021 5:45:00 AM 0.45 32.81 0.167 6.6 2.43 13.78
2/19/2021 6:00:00 AM 0.46 32.828 0.167 6.6 2.4 13.78
2/19/2021 6:15:00 AM 0.46 32.828 0.167 6.6 2.43 13.78
2/19/2021 6:30:00 AM 0.47 32.846 0.167 6.6 2.44 13.78
2/19/2021 6:45:00 AM 0.48 32.864 0.167 6.6 2.49 13.78
2/19/2021 7:00:00 AM 0.49 32.882 0.167 6.6 2.42 13.77
2/19/2021 7:15:00 AM 0.49 32.882 0.167 6.6 2.42 13.77
2/19/2021 7:30:00 AM 0.49 32.882 0.167 6.6 2.42 13.77
2/19/2021 7:45:00 AM 0.5 32.9 0.167 6.6 2.44 13.77
2/19/2021 8:00:00 AM 0.51 32.918 0.167 6.6 2.42 13.77
2/19/2021 8:15:00 AM 0.51 32.918 0.167 6.6 2.42 13.77
2/19/2021 8:30:00 AM 0.52 32.936 0.167 6.6 2.44 13.77
2/19/2021 8:45:00 AM 0.53 32.954 0.167 6.6 2.39 13.77
2/19/2021 9:00:00 AM 0.56 33.008 0.167 6.6 2.41 13.76
2/19/2021 9:15:00 AM 0.59 33.062 0.167 6.6 2.44 13.75
2/19/2021 9:30:00 AM 0.62 33.116 0.167 6.6 2.38 13.73
2/19/2021 9:45:00 AM 0.65 33.17 0.167 6.6 2.4 13.72
2/19/2021 10:00:00 AM 0.68 33.224 0.167 6.6 2.4 13.7
2/19/2021 10:15:00 AM 0.71 33.278 0.167 6.6 2.39 13.7
2/19/2021 10:30:00 AM 0.72 33.296 0.168 6.6 2.37 13.69
2/19/2021 10:45:00 AM 0.73 33.314 0.168 6.6 2.41 13.68
2/19/2021 11:00:00 AM 0.75 33.35 0.168 6.6 2.46 13.67
2/19/2021 11:15:00 AM 0.75 33.35 0.168 6.6 2.52 13.67
2/19/2021 11:30:00 AM 0.76 33.368 0.168 6.6 2.5 13.66
2/19/2021 11:45:00 AM 0.77 33.386 0.168 6.6 2.43 13.66
2/19/2021 12:00:00 PM 0.79 33.422 0.168 6.6 2.38 13.66
2/19/2021 12:15:00 PM 0.81 33.458 0.168 6.6 2.41 13.65
2/19/2021 12:30:00 PM 0.81 33.458 0.168 6.6 2.43 13.64
2/19/2021 12:45:00 PM 0.82 33.476 0.168 6.6 2.4 13.64
2/19/2021 1:00:00 PM 0.83 33.494 0.168 6.6 2.47 13.63
2/19/2021 1:15:00 PM 0.84 33.512 0.168 6.6 2.41 13.62
2/19/2021 1:30:00 PM 0.85 33.53 0.168 6.6 2.4 13.62
2/19/2021 1:45:00 PM 0.85 33.53 0.168 6.61 2.39 13.62
2/19/2021 2:00:00 PM 0.86 33.548 0.168 6.6 2.42 13.61
2/19/2021 2:15:00 PM 0.87 33.566 0.168 6.61 2.4 13.61
2/19/2021 2:30:00 PM 0.89 33.602 0.169 6.61 2.41 13.6
2/19/2021 2:45:00 PM 0.9 33.62 0.169 6.61 2.42 13.6
2/19/2021 3:00:00 PM 0.9 33.62 0.169 6.61 2.39 13.59
2/19/2021 3:15:00 PM 0.9 33.62 0.169 6.61 2.36 13.59
2/19/2021 3:30:00 PM 0.91 33.638 0.169 6.61 2.4 13.59
2/19/2021 3:45:00 PM 0.91 33.638 0.169 6.61 2.39 13.59
2/19/2021 4:00:00 PM 0.9 33.62 0.169 6.61 2.42 13.59
2/19/2021 4:15:00 PM 0.9 33.62 0.169 6.61 2.4 13.59
2/19/2021 4:30:00 PM 0.9 33.62 0.169 6.61 2.41 13.6
2/19/2021 4:45:00 PM 0.89 33.602 0.169 6.61 2.44 13.6
2/19/2021 5:00:00 PM 0.88 33.584 0.169 6.61 2.44 13.61
2/19/2021 5:15:00 PM 0.87 33.566 0.169 6.61 2.42 13.61
2/19/2021 5:30:00 PM 0.85 33.53 0.169 6.61 2.43 13.62
2/19/2021 5:45:00 PM 0.84 33.512 0.169 6.61 2.43 13.63
2/19/2021 6:00:00 PM 0.82 33.476 0.169 6.61 2.47 13.63
2/19/2021 6:15:00 PM 0.82 33.476 0.169 6.61 2.42 13.64
2/19/2021 6:30:00 PM 0.82 33.476 0.169 6.61 2.39 13.64
2/19/2021 6:45:00 PM 0.8 33.44 0.169 6.61 2.41 13.65
2/19/2021 7:00:00 PM 0.79 33.422 0.169 6.61 2.46 13.65
2/19/2021 7:15:00 PM 0.78 33.404 0.169 6.61 2.42 13.66
2/19/2021 7:30:00 PM 0.76 33.368 0.169 6.61 2.42 13.67
2/19/2021 7:45:00 PM 0.75 33.35 0.169 6.61 2.42 13.67
2/19/2021 8:00:00 PM 0.74 33.332 0.169 6.61 2.46 13.68
2/19/2021 8:15:00 PM 0.74 33.332 0.169 6.61 2.38 13.68
2/19/2021 8:30:00 PM 0.74 33.332 0.169 6.61 2.44 13.69
2/19/2021 8:45:00 PM 0.73 33.314 0.169 6.61 2.45 13.68
2/19/2021 9:00:00 PM 0.72 33.296 0.168 6.61 2.43 13.69
2/19/2021 9:15:00 PM 0.72 33.296 0.168 6.61 2.43 13.69
2/19/2021 9:30:00 PM 0.71 33.278 0.168 6.61 2.41 13.69
2/19/2021 9:45:00 PM 0.69 33.242 0.168 6.61 2.41 13.7
2/19/2021 10:00:00 PM 0.67 33.206 0.168 6.61 2.41 13.71
2/19/2021 10:15:00 PM 0.65 33.17 0.168 6.61 2.42 13.72
2/19/2021 10:30:00 PM 0.64 33.152 0.168 6.61 2.41 13.73
2/19/2021 10:45:00 PM 0.63 33.134 0.168 6.61 2.48 13.73
2/19/2021 11:00:00 PM 0.62 33.116 0.168 6.61 2.42 13.74
2/19/2021 11:15:00 PM 0.6 33.08 0.168 6.61 2.42 13.74
2/19/2021 11:30:00 PM 0.59 33.062 0.168 6.61 2.44 13.74
2/19/2021 11:45:00 PM 0.59 33.062 0.168 6.61 2.44 13.75
2/20/2021 12:00:00 AM 0.57 33.026 0.168 6.61 2.43 13.75
2/20/2021 12:15:00 AM 0.54 32.972 0.168 6.61 2.41 13.76
2/20/2021 12:30:00 AM 0.52 32.936 0.168 6.61 2.39 13.78
2/20/2021 12:45:00 AM 0.48 32.864 0.168 6.61 2.41 13.79
2/20/2021 1:00:00 AM 0.45 32.81 0.168 6.61 2.44 13.81
2/20/2021 1:15:00 AM 0.42 32.756 0.168 6.61 2.42 13.82
2/20/2021 1:30:00 AM 0.41 32.738 0.168 6.61 2.46 13.83
2/20/2021 1:45:00 AM 0.4 32.72 0.168 6.61 2.41 13.84
2/20/2021 2:00:00 AM 0.4 32.72 0.168 6.61 2.43 13.84
2/20/2021 2:15:00 AM 0.38 32.684 0.168 6.61 2.43 13.84
2/20/2021 2:30:00 AM 0.37 32.666 0.167 6.61 2.46 13.84
2/20/2021 2:45:00 AM 0.36 32.648 0.167 6.61 2.41 13.84
2/20/2021 3:00:00 AM 0.35 32.63 0.167 6.61 2.43 13.85
2/20/2021 3:15:00 AM 0.35 32.63 0.167 6.61 2.4 13.85
2/20/2021 3:30:00 AM 0.34 32.612 0.168 6.61 2.44 13.85
2/20/2021 3:45:00 AM 0.33 32.594 0.168 6.61 2.43 13.86
2/20/2021 4:00:00 AM 0.33 32.594 0.168 6.6 2.43 13.86
2/20/2021 4:15:00 AM 0.32 32.576 0.168 6.61 2.45 13.87
2/20/2021 4:30:00 AM 0.31 32.558 0.167 6.6 2.45 13.86
2/20/2021 4:45:00 AM 0.3 32.54 0.167 6.6 2.42 13.87
2/20/2021 5:00:00 AM 0.29 32.522 0.167 6.6 2.48 13.87
2/20/2021 5:15:00 AM 0.27 32.486 0.167 6.6 2.42 13.88
2/20/2021 5:30:00 AM 0.26 32.468 0.168 6.6 2.42 13.89
2/20/2021 5:45:00 AM 0.24 32.432 0.168 6.6 2.41 13.9
2/20/2021 6:00:00 AM 0.23 32.414 0.168 6.6 2.43 13.9
2/20/2021 6:15:00 AM 0.22 32.396 0.167 6.6 2.47 13.91
2/20/2021 6:30:00 AM 0.21 32.378 0.167 6.6 2.43 13.91
2/20/2021 6:45:00 AM 0.21 32.378 0.168 6.6 2.47 13.91
2/20/2021 7:00:00 AM 0.2 32.36 0.168 6.6 2.59 13.91
2/20/2021 7:15:00 AM 0.19 32.342 0.167 6.6 2.43 13.92
2/20/2021 7:30:00 AM 0.18 32.324 0.167 6.6 2.44 13.93
2/20/2021 7:45:00 AM 0.18 32.324 0.168 6.6 2.38 13.94
2/20/2021 8:00:00 AM 0.17 32.306 0.167 6.6 2.43 13.94
2/20/2021 8:15:00 AM 0.16 32.288 0.167 6.6 2.49 13.95
2/20/2021 8:30:00 AM 0.16 32.288 0.168 6.6 2.41 13.96
2/20/2021 8:45:00 AM 0.16 32.288 0.168 6.6 2.4 13.96
2/20/2021 9:00:00 AM 0.16 32.288 0.167 6.6 2.42 13.95
2/20/2021 9:15:00 AM 0.16 32.288 0.167 6.6 2.44 13.97
2/20/2021 9:30:00 AM 0.17 32.306 0.167 6.6 2.4 13.96
2/20/2021 9:45:00 AM 0.16 32.288 0.167 6.6 2.43 13.96
2/20/2021 10:00:00 AM 0.17 32.306 0.167 6.6 2.4 13.96
2/20/2021 10:15:00 AM 0.18 32.324 0.167 6.6 2.41 13.96
2/20/2021 10:30:00 AM 0.21 32.378 0.167 6.6 2.41 13.96
2/20/2021 10:45:00 AM 0.21 32.378 0.167 6.6 2.4 13.94
2/20/2021 11:00:00 AM 0.22 32.396 0.167 6.6 2.41 13.94
2/20/2021 11:15:00 AM 0.26 32.468 0.167 6.6 2.42 13.93
2/20/2021 11:30:00 AM 0.32 32.576 0.168 6.6 2.41 13.91
2/20/2021 11:45:00 AM 0.37 32.666 0.168 6.6 2.42 13.89
2/20/2021 12:00:00 PM 0.42 32.756 0.168 6.6 2.43 13.87
2/20/2021 12:15:00 PM 0.45 32.81 0.168 6.6 2.43 13.85
2/20/2021 12:30:00 PM 0.49 32.882 0.168 6.6 2.42 13.83
2/20/2021 12:45:00 PM 0.52 32.936 0.168 6.6 2.41 13.82
2/20/2021 1:00:00 PM 0.54 32.972 0.168 6.6 2.39 13.81
2/20/2021 1:15:00 PM 0.56 33.008 0.168 6.6 2.42 13.8
2/20/2021 1:30:00 PM 0.57 33.026 0.168 6.6 2.39 13.79
2/20/2021 1:45:00 PM 0.57 33.026 0.168 6.6 2.39 13.79
2/20/2021 2:00:00 PM 0.59 33.062 0.168 6.61 2.4 13.79
2/20/2021 2:15:00 PM 0.61 33.098 0.168 6.6 2.37 13.78
2/20/2021 2:30:00 PM 0.63 33.134 0.168 6.61 2.41 13.77
2/20/2021 2:45:00 PM 0.63 33.134 0.168 6.61 2.37 13.77
2/20/2021 3:00:00 PM 0.62 33.116 0.168 6.61 2.4 13.77
2/20/2021 3:15:00 PM 0.61 33.098 0.168 6.61 2.4 13.78
2/20/2021 3:30:00 PM 0.6 33.08 0.168 6.61 2.43 13.78
2/20/2021 3:45:00 PM 0.58 33.044 0.168 6.6 2.41 13.8
2/20/2021 4:00:00 PM 0.56 33.008 0.168 6.6 2.4 13.8
2/20/2021 4:15:00 PM 0.55 32.99 0.168 6.6 2.38 13.81
2/20/2021 4:30:00 PM 0.52 32.936 0.168 6.6 2.43 13.83
2/20/2021 4:45:00 PM 0.49 32.882 0.168 6.6 2.39 13.84
2/20/2021 5:00:00 PM 0.47 32.846 0.168 6.6 2.42 13.85
2/20/2021 5:15:00 PM 0.46 32.828 0.168 6.6 2.42 13.86
2/20/2021 5:30:00 PM 0.44 32.792 0.168 6.6 2.45 13.86
2/20/2021 5:45:00 PM 0.42 32.756 0.168 6.6 2.4 13.87
2/20/2021 6:00:00 PM 0.39 32.702 0.168 6.6 2.4 13.88
2/20/2021 6:15:00 PM 0.37 32.666 0.168 6.6 2.45 13.91
2/20/2021 6:30:00 PM 0.34 32.612 0.168 6.6 2.46 13.9
2/20/2021 6:45:00 PM 0.32 32.576 0.168 6.6 2.43 13.93
2/20/2021 7:00:00 PM 0.29 32.522 0.168 6.6 2.45 13.94
2/20/2021 7:15:00 PM 0.26 32.468 0.168 6.6 2.43 13.95
2/20/2021 7:30:00 PM 0.23 32.414 0.168 6.6 2.42 13.97
2/20/2021 7:45:00 PM 0.21 32.378 0.168 6.6 2.45 13.99
2/20/2021 8:00:00 PM 0.2 32.36 0.168 6.6 2.4 13.99
2/20/2021 8:15:00 PM 0.19 32.342 0.168 6.6 2.42 14
2/20/2021 8:30:00 PM 0.19 32.342 0.168 6.6 2.42 14
2/20/2021 8:45:00 PM 0.18 32.324 0.168 6.6 2.41 14.01
2/20/2021 9:00:00 PM 0.18 32.324 0.168 6.6 2.43 14.01
2/20/2021 9:15:00 PM 0.17 32.306 0.168 6.6 2.43 14.02
2/20/2021 9:30:00 PM 0.16 32.288 0.168 6.6 2.42 14.02
2/20/2021 9:45:00 PM 0.15 32.27 0.168 6.6 2.42 14.03
2/20/2021 10:00:00 PM 0.15 32.27 0.168 6.6 2.44 14.04
2/20/2021 10:15:00 PM 0.14 32.252 0.168 6.6 2.43 14.04
2/20/2021 10:30:00 PM 0.14 32.252 0.169 6.6 2.45 14.04
2/20/2021 10:45:00 PM 0.14 32.252 0.169 6.6 2.55 14.04
2/20/2021 11:00:00 PM 0.12 32.216 0.169 6.6 2.42 14.05
2/20/2021 11:15:00 PM 0.1 32.18 0.169 6.6 2.42 14.07
2/20/2021 11:30:00 PM 0.09 32.162 0.169 6.6 2.43 14.07
2/20/2021 11:45:00 PM 0.07 32.126 0.169 6.6 2.42 14.08
2/21/2021 12:00:00 AM 0.07 32.126 0.169 6.6 2.42 14.09
2/21/2021 12:15:00 AM 0.06 32.108 0.169 6.6 2.42 14.1
2/21/2021 12:30:00 AM 0.06 32.108 0.169 6.6 2.41 14.09
2/21/2021 12:45:00 AM 0.06 32.108 0.169 6.6 2.44 14.1
2/21/2021 1:00:00 AM 0.05 32.09 0.169 6.6 2.44 14.1
2/21/2021 1:15:00 AM 0.05 32.09 0.169 6.59 2.44 14.1
2/21/2021 1:30:00 AM 0.04 32.072 0.169 6.6 2.39 14.11
2/21/2021 1:45:00 AM 0.03 32.054 0.169 6.6 2.41 14.11
2/21/2021 2:00:00 AM 0.03 32.054 0.169 6.6 2.45 14.11
2/21/2021 2:15:00 AM 0.01 32.018 0.169 6.59 2.45 14.12
2/21/2021 2:30:00 AM 0 32 0.169 6.59 2.4 14.13
2/21/2021 2:45:00 AM -0.01 31.982 0.169 6.59 2.43 14.14
2/21/2021 3:00:00 AM -0.02 31.964 0.169 6.59 2.41 14.15
2/21/2021 3:15:00 AM -0.02 31.964 0.169 6.58 2.47 14.15
2/21/2021 3:30:00 AM -0.02 31.964 0.169 6.55 2.55 14.15
2/21/2021 3:45:00 AM -0.02 31.964 0.169 6.55 2.51 14.16
2/21/2021 4:00:00 AM -0.01 31.982 0.168 6.55 2.65 14.15
2/21/2021 4:15:00 AM -0.01 31.982 0.168 6.55 2.57 14.15
2/21/2021 4:30:00 AM -0.01 31.982 0.168 6.54 2.52 14.15
2/21/2021 4:45:00 AM -0.01 31.982 0.168 6.54 2.59 14.15
2/21/2021 5:00:00 AM -0.01 31.982 0.167 6.54 2.52 14.15
2/21/2021 5:15:00 AM -0.01 31.982 0.167 6.54 2.53 14.15
2/21/2021 5:30:00 AM -0.01 31.982 0.167 6.54 2.53 14.14
2/21/2021 5:45:00 AM -0.01 31.982 0.167 6.54 2.52 14.14
2/21/2021 6:00:00 AM -0.01 31.982 0.166 6.54 2.58 14.15
2/21/2021 6:15:00 AM -0.01 31.982 0.166 6.54 2.57 14.15
2/21/2021 6:30:00 AM -0.01 31.982 0.165 6.54 2.57 14.15
2/21/2021 6:45:00 AM -0.01 31.982 0.166 6.54 2.56 14.15
2/21/2021 7:00:00 AM -0.01 31.982 0.166 6.53 2.6 14.15
2/21/2021 7:15:00 AM -0.01 31.982 0.166 6.53 2.63 14.15
2/21/2021 7:30:00 AM -0.01 31.982 0.166 6.53 2.58 14.15
2/21/2021 7:45:00 AM -0.01 31.982 0.166 6.53 2.62 14.16
2/21/2021 8:00:00 AM -0.01 31.982 0.166 6.53 2.59 14.15
2/21/2021 8:15:00 AM -0.01 31.982 0.165 6.52 2.58 14.15
2/21/2021 8:30:00 AM 0 32 0.165 6.52 2.53 14.16
2/21/2021 8:45:00 AM 0 32 0.165 6.52 2.55 14.16
2/21/2021 9:00:00 AM 0 32 0.165 6.52 2.53 14.16
2/21/2021 9:15:00 AM 0 32 0.165 6.52 2.69 14.16
2/21/2021 9:30:00 AM 0 32 0.165 6.52 2.7 14.16
2/21/2021 9:45:00 AM 0 32 0.165 6.52 2.7 14.16
2/21/2021 10:00:00 AM 0 32 0.166 6.51 3.11 14.16
2/21/2021 10:15:00 AM 0 32 0.177 6.51 3.93 14.17
2/21/2021 10:30:00 AM 0 32 0.182 6.53 4.1 14.16
2/21/2021 10:45:00 AM 0 32 0.177 6.53 3.29 14.16
2/21/2021 11:00:00 AM 0 32 0.177 6.53 2.92 14.16
2/21/2021 11:15:00 AM 0 32 0.178 6.54 2.98 14.16
2/21/2021 11:30:00 AM 0 32 0.178 6.55 2.83 14.15
2/21/2021 11:45:00 AM 0.01 32.018 0.177 6.56 2.73 14.16
2/21/2021 12:00:00 PM 0.01 32.018 0.175 6.56 2.71 14.15
2/21/2021 12:15:00 PM 0.02 32.036 0.173 6.57 2.71 14.15
2/21/2021 12:30:00 PM 0.02 32.036 0.171 6.57 2.67 14.14
2/21/2021 12:45:00 PM 0.03 32.054 0.17 6.57 2.66 14.14
2/21/2021 1:00:00 PM 0.03 32.054 0.169 6.57 2.65 14.13
2/21/2021 1:15:00 PM 0.04 32.072 0.169 6.58 2.64 14.13
2/21/2021 1:30:00 PM 0.06 32.108 0.168 6.58 2.66 14.12
2/21/2021 1:45:00 PM 0.06 32.108 0.168 6.58 2.66 14.11
2/21/2021 2:00:00 PM 0.06 32.108 0.167 6.58 2.59 14.11
2/21/2021 2:15:00 PM 0.07 32.126 0.167 6.58 2.6 14.1
2/21/2021 2:30:00 PM 0.08 32.144 0.167 6.58 2.58 14.1
2/21/2021 2:45:00 PM 0.09 32.162 0.167 6.59 2.59 14.09
2/21/2021 3:00:00 PM 0.11 32.198 0.167 6.59 2.56 14.07
2/21/2021 3:15:00 PM 0.15 32.27 0.168 6.59 2.56 14.03
2/21/2021 3:30:00 PM 0.2 32.36 0.168 6.59 2.64 14.01
2/21/2021 3:45:00 PM 0.26 32.468 0.168 6.59 2.54 13.98
2/21/2021 4:00:00 PM 0.33 32.594 0.168 6.59 2.54 13.94
2/21/2021 4:15:00 PM 0.38 32.684 0.168 6.6 2.54 13.92
2/21/2021 4:30:00 PM 0.42 32.756 0.168 6.6 2.5 13.9
2/21/2021 4:45:00 PM 0.45 32.81 0.168 6.6 2.53 13.89
2/21/2021 5:00:00 PM 0.45 32.81 0.169 6.6 2.53 13.9
2/21/2021 5:15:00 PM 0.45 32.81 0.169 6.6 2.49 13.9
2/21/2021 5:30:00 PM 0.45 32.81 0.169 6.6 2.49 13.9
2/21/2021 5:45:00 PM 0.43 32.774 0.169 6.6 2.51 13.91
2/21/2021 6:00:00 PM 0.42 32.756 0.169 6.6 2.53 13.91
2/21/2021 6:15:00 PM 0.4 32.72 0.17 6.6 2.5 13.92
2/21/2021 6:30:00 PM 0.39 32.702 0.17 6.6 2.54 13.93
2/21/2021 6:45:00 PM 0.38 32.684 0.17 6.6 2.47 13.94
2/21/2021 7:00:00 PM 0.37 32.666 0.17 6.6 2.53 13.93
2/21/2021 7:15:00 PM 0.36 32.648 0.17 6.6 2.48 13.94
2/21/2021 7:30:00 PM 0.36 32.648 0.17 6.6 2.46 13.93
2/21/2021 7:45:00 PM 0.36 32.648 0.171 6.6 2.51 13.94
2/21/2021 8:00:00 PM 0.37 32.666 0.171 6.6 2.47 13.93
2/21/2021 8:15:00 PM 0.37 32.666 0.171 6.6 2.46 13.92
2/21/2021 8:30:00 PM 0.37 32.666 0.171 6.6 2.47 13.92
2/21/2021 8:45:00 PM 0.37 32.666 0.171 6.6 2.55 13.91
2/21/2021 9:00:00 PM 0.38 32.684 0.172 6.6 2.46 13.91
2/21/2021 9:15:00 PM 0.39 32.702 0.172 6.6 2.45 13.91
2/21/2021 9:30:00 PM 0.4 32.72 0.172 6.6 2.46 13.9
2/21/2021 9:45:00 PM 0.4 32.72 0.172 6.6 2.48 13.9
2/21/2021 10:00:00 PM 0.41 32.738 0.172 6.6 2.44 13.89
2/21/2021 10:15:00 PM 0.41 32.738 0.172 6.61 2.44 13.89
2/21/2021 10:30:00 PM 0.41 32.738 0.172 6.61 2.44 13.88
2/21/2021 10:45:00 PM 0.38 32.684 0.172 6.61 2.54 13.88
2/21/2021 11:00:00 PM 0.4 32.72 0.173 6.6 2.46 13.88
2/21/2021 11:15:00 PM 0.42 32.756 0.173 6.61 2.46 13.86
2/21/2021 11:30:00 PM 0.44 32.792 0.173 6.61 2.48 13.86
2/21/2021 11:45:00 PM 0.45 32.81 0.173 6.61 2.44 13.84
2/22/2021 12:00:00 AM 0.45 32.81 0.173 6.61 2.47 13.85
2/22/2021 12:15:00 AM 0.45 32.81 0.173 6.61 2.46 13.85
2/22/2021 12:30:00 AM 0.46 32.828 0.173 6.61 2.52 13.84
2/22/2021 12:45:00 AM 0.46 32.828 0.173 6.61 2.44 13.83
2/22/2021 1:00:00 AM 0.47 32.846 0.173 6.61 2.46 13.82
2/22/2021 1:15:00 AM 0.47 32.846 0.173 6.61 2.49 13.83
2/22/2021 1:30:00 AM 0.47 32.846 0.173 6.61 2.46 13.82
2/22/2021 1:45:00 AM 0.47 32.846 0.173 6.61 2.41 13.81
2/22/2021 2:00:00 AM 0.47 32.846 0.173 6.61 2.43 13.81
2/22/2021 2:15:00 AM 0.47 32.846 0.173 6.61 2.48 13.8
2/22/2021 2:30:00 AM 0.47 32.846 0.173 6.61 2.44 13.81
2/22/2021 2:45:00 AM 0.47 32.846 0.173 6.61 2.43 13.8
2/22/2021 3:00:00 AM 0.47 32.846 0.173 6.61 2.45 13.79
2/22/2021 3:15:00 AM 0.46 32.828 0.173 6.61 2.43 13.79
2/22/2021 3:30:00 AM 0.47 32.846 0.173 6.61 2.43 13.79
2/22/2021 3:45:00 AM 0.47 32.846 0.173 6.62 2.46 13.78
2/22/2021 4:00:00 AM 0.47 32.846 0.173 6.62 2.44 13.78
2/22/2021 4:15:00 AM 0.48 32.864 0.173 6.61 2.45 13.77
2/22/2021 4:30:00 AM 0.48 32.864 0.173 6.61 2.45 13.76
2/22/2021 4:45:00 AM 0.49 32.882 0.173 6.61 2.44 13.75
2/22/2021 5:00:00 AM 0.49 32.882 0.173 6.61 2.45 13.75
2/22/2021 5:15:00 AM 0.5 32.9 0.173 6.61 2.43 13.75
2/22/2021 5:30:00 AM 0.51 32.918 0.172 6.61 2.46 13.73
2/22/2021 5:45:00 AM 0.51 32.918 0.172 6.61 2.44 13.73
2/22/2021 6:00:00 AM 0.51 32.918 0.172 6.61 2.47 13.72
2/22/2021 6:15:00 AM 0.46 32.828 0.172 6.62 2.45 13.73
2/22/2021 6:30:00 AM 0.37 32.666 0.172 6.62 2.46 13.74
2/22/2021 6:45:00 AM 0.29 32.522 0.172 6.61 2.47 13.77
2/22/2021 7:00:00 AM 0.18 32.324 0.172 6.61 2.47 13.81
2/22/2021 7:15:00 AM 0.1 32.18 0.171 6.61 2.52 13.84
2/22/2021 7:30:00 AM 0.04 32.072 0.171 6.61 2.5 13.87
2/22/2021 7:45:00 AM 0.01 32.018 0.171 6.61 2.54 13.89
2/22/2021 8:00:00 AM 0.01 32.018 0.171 6.61 2.54 13.89
2/22/2021 8:15:00 AM 0.01 32.018 0.17 6.6 2.51 13.89
2/22/2021 8:30:00 AM 0.01 32.018 0.17 6.6 2.57 13.89
2/22/2021 8:45:00 AM 0.01 32.018 0.17 6.6 2.58 13.89
2/22/2021 9:00:00 AM 0 32 0.17 6.6 2.6 13.89
2/22/2021 9:15:00 AM 0 32 0.171 6.6 2.62 13.89
2/22/2021 9:30:00 AM 0 32 0.171 6.6 2.6 13.89
2/22/2021 9:45:00 AM 0 32 0.171 6.6 2.56 13.87
2/22/2021 10:00:00 AM 0 32 0.17 6.6 2.54 13.88
2/22/2021 10:15:00 AM 0 32 0.17 6.6 2.54 13.87
2/22/2021 10:30:00 AM 0 32 0.17 6.6 2.51 13.87
2/22/2021 10:45:00 AM 0 32 0.169 6.6 2.55 13.86
2/22/2021 11:00:00 AM 0 32 0.169 6.6 2.56 13.87
2/22/2021 11:15:00 AM 0.01 32.018 0.169 6.6 2.53 13.86
2/22/2021 11:30:00 AM 0.01 32.018 0.169 6.6 2.52 13.85
2/22/2021 11:45:00 AM 0.01 32.018 0.169 6.59 2.56 13.85
2/22/2021 12:00:00 PM 0.01 32.018 0.169 6.59 2.53 13.85
2/22/2021 12:15:00 PM 0.01 32.018 0.169 6.6 2.6 13.84
2/22/2021 12:30:00 PM 0.01 32.018 0.169 6.59 2.57 13.84
2/22/2021 12:45:00 PM 0.01 32.018 0.168 6.6 2.56 13.83
2/22/2021 1:00:00 PM 0.02 32.036 0.168 6.6 2.51 13.82
2/22/2021 1:15:00 PM 0.02 32.036 0.167 6.59 2.53 13.82
2/22/2021 1:30:00 PM 0.02 32.036 0.167 6.59 2.49 13.81
2/22/2021 1:45:00 PM 0.03 32.054 0.166 6.59 2.51 13.81
2/22/2021 2:00:00 PM 0.04 32.072 0.166 6.59 2.49 13.8
2/22/2021 2:15:00 PM 0.05 32.09 0.166 6.59 2.54 13.79
2/22/2021 2:30:00 PM 0.05 32.09 0.166 6.59 2.54 13.77
2/22/2021 2:45:00 PM 0.09 32.162 0.167 6.6 2.56 13.75
2/22/2021 3:00:00 PM 0.14 32.252 0.167 6.61 2.64 13.72
2/22/2021 3:15:00 PM 0.19 32.342 0.167 6.61 2.56 13.7
2/22/2021 3:30:00 PM 0.24 32.432 0.168 6.61 2.54 13.66
2/22/2021 3:45:00 PM 0.31 32.558 0.17 6.61 2.54 13.66
2/22/2021 4:00:00 PM 0.36 32.648 0.173 6.61 2.6 13.64
2/22/2021 4:15:00 PM 0.43 32.774 0.175 6.61 2.55 13.61
2/22/2021 4:30:00 PM 0.48 32.864 0.177 6.62 2.58 13.6
2/22/2021 4:45:00 PM 0.52 32.936 0.178 6.62 2.51 13.58
2/22/2021 5:00:00 PM 0.54 32.972 0.178 6.62 2.5 13.57
2/22/2021 5:15:00 PM 0.54 32.972 0.179 6.62 2.5 13.58
2/22/2021 5:30:00 PM 0.57 33.026 0.18 6.62 2.55 13.57
2/22/2021 5:45:00 PM 0.6 33.08 0.18 6.62 2.5 13.56
2/22/2021 6:00:00 PM 0.63 33.134 0.18 6.63 2.54 13.56
2/22/2021 6:15:00 PM 0.65 33.17 0.18 6.63 2.49 13.55
2/22/2021 6:30:00 PM 0.66 33.188 0.18 6.63 2.49 13.55
2/22/2021 6:45:00 PM 0.68 33.224 0.179 6.63 2.53 13.55
2/22/2021 7:00:00 PM 0.69 33.242 0.179 6.63 2.49 13.55
2/22/2021 7:15:00 PM 0.7 33.26 0.178 6.63 2.45 13.54
2/22/2021 7:30:00 PM 0.71 33.278 0.178 6.63 2.47 13.55
2/22/2021 7:45:00 PM 0.72 33.296 0.178 6.63 2.47 13.54
2/22/2021 8:00:00 PM 0.72 33.296 0.178 6.63 2.5 13.54
2/22/2021 8:15:00 PM 0.73 33.314 0.178 6.63 2.44 13.54
2/22/2021 8:30:00 PM 0.72 33.296 0.178 6.63 2.5 13.55
2/22/2021 8:45:00 PM 0.72 33.296 0.179 6.63 2.46 13.55
2/22/2021 9:00:00 PM 0.72 33.296 0.179 6.63 2.5 13.55
2/22/2021 9:15:00 PM 0.73 33.314 0.179 6.63 2.45 13.55
2/22/2021 9:30:00 PM 0.74 33.332 0.179 6.63 2.46 13.55
2/22/2021 9:45:00 PM 0.75 33.35 0.179 6.63 2.48 13.54
2/22/2021 10:00:00 PM 0.76 33.368 0.178 6.63 2.45 13.54
2/22/2021 10:15:00 PM 0.76 33.368 0.178 6.63 2.48 13.54
2/22/2021 10:30:00 PM 0.76 33.368 0.178 6.63 2.45 13.53
2/22/2021 10:45:00 PM 0.76 33.368 0.178 6.63 2.46 13.53
2/22/2021 11:00:00 PM 0.77 33.386 0.177 6.63 2.43 13.53
2/22/2021 11:15:00 PM 0.77 33.386 0.177 6.63 2.48 13.53
2/22/2021 11:30:00 PM 0.77 33.386 0.177 6.63 2.43 13.52
2/22/2021 11:45:00 PM 0.77 33.386 0.176 6.63 2.43 13.53
2/23/2021 12:00:00 AM 0.78 33.404 0.176 6.63 2.47 13.52
2/23/2021 12:15:00 AM 0.78 33.404 0.176 6.63 2.42 13.52
2/23/2021 12:30:00 AM 0.78 33.404 0.175 6.63 2.47 13.52
2/23/2021 12:45:00 AM 0.79 33.422 0.175 6.63 2.47 13.51
2/23/2021 1:00:00 AM 0.8 33.44 0.175 6.63 2.44 13.51
2/23/2021 1:15:00 AM 0.8 33.44 0.175 6.63 2.46 13.51
2/23/2021 1:30:00 AM 0.8 33.44 0.175 6.63 2.45 13.51
2/23/2021 1:45:00 AM 0.81 33.458 0.174 6.63 2.46 13.5
2/23/2021 2:00:00 AM 0.81 33.458 0.174 6.63 2.45 13.5
2/23/2021 2:15:00 AM 0.81 33.458 0.174 6.63 2.44 13.5
2/23/2021 2:30:00 AM 0.81 33.458 0.174 6.63 2.5 13.5
2/23/2021 2:45:00 AM 0.81 33.458 0.174 6.63 2.47 13.5
2/23/2021 3:00:00 AM 0.81 33.458 0.174 6.63 2.47 13.49
2/23/2021 3:15:00 AM 0.81 33.458 0.174 6.63 2.49 13.48
2/23/2021 3:30:00 AM 0.81 33.458 0.174 6.63 2.44 13.48
2/23/2021 3:45:00 AM 0.78 33.404 0.173 6.63 2.45 13.5
2/23/2021 4:00:00 AM 0.8 33.44 0.173 6.63 2.44 13.48
2/23/2021 4:15:00 AM 0.8 33.44 0.173 6.63 2.49 13.48
2/23/2021 4:30:00 AM 0.79 33.422 0.173 6.63 2.47 13.48
2/23/2021 4:45:00 AM 0.79 33.422 0.173 6.63 2.43 13.48
2/23/2021 5:00:00 AM 0.8 33.44 0.173 6.63 2.46 13.47
2/23/2021 5:15:00 AM 0.8 33.44 0.173 6.63 2.47 13.47
2/23/2021 5:30:00 AM 0.8 33.44 0.173 6.63 2.49 13.47
2/23/2021 5:45:00 AM 0.8 33.44 0.173 6.63 2.45 13.46
2/23/2021 6:00:00 AM 0.8 33.44 0.173 6.63 2.48 13.46
2/23/2021 6:15:00 AM 0.81 33.458 0.173 6.63 2.47 13.45
2/23/2021 6:30:00 AM 0.81 33.458 0.173 6.63 2.47 13.44
2/23/2021 6:45:00 AM 0.82 33.476 0.173 6.63 2.46 13.44
2/23/2021 7:00:00 AM 0.82 33.476 0.173 6.63 2.5 13.43
2/23/2021 7:15:00 AM 0.83 33.494 0.173 6.63 2.47 13.43
2/23/2021 7:30:00 AM 0.84 33.512 0.173 6.63 2.49 13.42
2/23/2021 7:45:00 AM 0.85 33.53 0.173 6.63 2.46 13.42
2/23/2021 8:00:00 AM 0.87 33.566 0.173 6.63 2.52 13.42
2/23/2021 8:15:00 AM 0.89 33.602 0.173 6.63 2.48 13.4
2/23/2021 8:30:00 AM 0.92 33.656 0.173 6.63 2.44 13.4
2/23/2021 8:45:00 AM 0.95 33.71 0.173 6.64 2.45 13.38
2/23/2021 9:00:00 AM 0.98 33.764 0.173 6.64 2.46 13.37
2/23/2021 9:15:00 AM 0.99 33.782 0.173 6.64 2.47 13.37
2/23/2021 9:30:00 AM 1.02 33.836 0.173 6.64 2.45 13.35
2/23/2021 9:45:00 AM 1.05 33.89 0.173 6.64 2.48 13.33
2/23/2021 10:00:00 AM 1.08 33.944 0.173 6.64 2.48 13.32
2/23/2021 10:15:00 AM 1.11 33.998 0.173 6.64 2.48 13.31
2/23/2021 10:30:00 AM 1.12 34.016 0.173 6.64 2.46 13.31
2/23/2021 10:45:00 AM 1.14 34.052 0.173 6.64 2.42 13.3
2/23/2021 11:00:00 AM 1.17 34.106 0.173 6.64 2.47 13.29
2/23/2021 11:15:00 AM 1.19 34.142 0.173 6.64 2.43 13.28
2/23/2021 11:30:00 AM 1.22 34.196 0.173 6.64 2.39 13.28
2/23/2021 11:45:00 AM 1.24 34.232 0.173 6.64 2.43 13.27
2/23/2021 12:00:00 PM 1.25 34.25 0.173 6.64 2.45 13.26
2/23/2021 12:15:00 PM 1.28 34.304 0.173 6.64 2.47 13.25
2/23/2021 12:30:00 PM 1.32 34.376 0.173 6.65 2.47 13.24
2/23/2021 12:45:00 PM 1.36 34.448 0.173 6.64 2.47 13.23
2/23/2021 1:00:00 PM 1.38 34.484 0.173 6.64 2.43 13.21
2/23/2021 1:15:00 PM 1.4 34.52 0.173 6.65 2.45 13.2
2/23/2021 1:30:00 PM 1.41 34.538 0.172 6.64 2.46 13.21
2/23/2021 1:45:00 PM 1.42 34.556 0.172 6.64 2.46 13.2
2/23/2021 2:00:00 PM 1.44 34.592 0.172 6.64 2.47 13.2
2/23/2021 2:15:00 PM 1.45 34.61 0.172 6.64 2.41 13.19
2/23/2021 2:30:00 PM 1.47 34.646 0.172 6.65 2.42 13.2
2/23/2021 2:45:00 PM 1.48 34.664 0.173 6.65 2.45 13.2
2/23/2021 3:00:00 PM 1.5 34.7 0.173 6.65 2.48 13.19
2/23/2021 3:15:00 PM 1.5 34.7 0.173 6.65 2.48 13.2
2/23/2021 3:30:00 PM 1.51 34.718 0.173 6.64 2.45 13.2
2/23/2021 3:45:00 PM 1.52 34.736 0.173 6.64 2.45 13.2
2/23/2021 4:00:00 PM 1.5 34.7 0.173 6.64 2.49 13.2
2/23/2021 4:15:00 PM 1.49 34.682 0.173 6.64 2.46 13.21
2/23/2021 4:30:00 PM 1.49 34.682 0.173 6.64 2.46 13.21
2/23/2021 4:45:00 PM 1.5 34.7 0.173 6.64 2.47 13.22
2/23/2021 5:00:00 PM 1.52 34.736 0.174 6.64 2.46 13.21
2/23/2021 5:15:00 PM 1.52 34.736 0.174 6.64 2.46 13.21
2/23/2021 5:30:00 PM 1.53 34.754 0.174 6.64 2.48 13.22
2/23/2021 5:45:00 PM 1.51 34.718 0.174 6.64 2.48 13.23
2/23/2021 6:00:00 PM 1.52 34.736 0.173 6.64 2.48 13.22
2/23/2021 6:15:00 PM 1.5 34.7 0.173 6.64 2.49 13.23
2/23/2021 6:30:00 PM 1.49 34.682 0.173 6.64 2.47 13.24
2/23/2021 6:45:00 PM 1.48 34.664 0.173 6.64 2.46 13.25
2/23/2021 7:00:00 PM 1.44 34.592 0.173 6.64 2.42 13.27
2/23/2021 7:15:00 PM 1.43 34.574 0.174 6.64 2.47 13.28
2/23/2021 7:30:00 PM 1.43 34.574 0.174 6.64 2.45 13.28
2/23/2021 7:45:00 PM 1.43 34.574 0.174 6.64 2.48 13.28
2/23/2021 8:00:00 PM 1.42 34.556 0.174 6.64 2.43 13.29
2/23/2021 8:15:00 PM 1.41 34.538 0.174 6.64 2.49 13.31
2/23/2021 8:30:00 PM 1.4 34.52 0.174 6.64 2.43 13.31
2/23/2021 8:45:00 PM 1.4 34.52 0.174 6.64 2.45 13.32
2/23/2021 9:00:00 PM 1.39 34.502 0.174 6.64 2.57 13.33
2/23/2021 9:15:00 PM 1.39 34.502 0.174 6.64 2.43 13.33
2/23/2021 9:30:00 PM 1.39 34.502 0.174 6.64 2.46 13.33
2/23/2021 9:45:00 PM 1.4 34.52 0.174 6.64 2.43 13.34
2/23/2021 10:00:00 PM 1.4 34.52 0.174 6.64 2.49 13.34
2/23/2021 10:15:00 PM 1.4 34.52 0.174 6.64 2.45 13.34
2/23/2021 10:30:00 PM 1.39 34.502 0.174 6.64 2.44 13.35
2/23/2021 10:45:00 PM 1.38 34.484 0.174 6.64 2.44 13.35
2/23/2021 11:00:00 PM 1.39 34.502 0.175 6.64 2.46 13.36
2/23/2021 11:15:00 PM 1.38 34.484 0.175 6.64 2.45 13.36
2/23/2021 11:30:00 PM 1.38 34.484 0.175 6.64 2.47 13.37
2/23/2021 11:45:00 PM 1.37 34.466 0.175 6.64 2.47 13.37
2/24/2021 12:00:00 AM 1.36 34.448 0.175 6.64 2.47 13.37
2/24/2021 12:15:00 AM 1.35 34.43 0.175 6.64 2.47 13.37
2/24/2021 12:30:00 AM 1.34 34.412 0.175 6.64 2.47 13.38
2/24/2021 12:45:00 AM 1.33 34.394 0.175 6.64 2.45 13.38
2/24/2021 1:00:00 AM 1.32 34.376 0.176 6.64 2.45 13.38
2/24/2021 1:15:00 AM 1.31 34.358 0.176 6.64 2.46 13.39
2/24/2021 1:30:00 AM 1.3 34.34 0.176 6.64 2.43 13.39
2/24/2021 1:45:00 AM 1.29 34.322 0.176 6.64 2.49 13.4
2/24/2021 2:00:00 AM 1.29 34.322 0.176 6.64 2.47 13.4
2/24/2021 2:15:00 AM 1.29 34.322 0.176 6.64 2.48 13.4
2/24/2021 2:30:00 AM 1.29 34.322 0.176 6.63 2.43 13.4
2/24/2021 2:45:00 AM 1.28 34.304 0.176 6.63 2.53 13.4
2/24/2021 3:00:00 AM 1.28 34.304 0.176 6.63 2.5 13.4
2/24/2021 3:15:00 AM 1.27 34.286 0.176 6.63 2.5 13.4
2/24/2021 3:30:00 AM 1.28 34.304 0.176 6.63 2.45 13.39
2/24/2021 3:45:00 AM 1.27 34.286 0.176 6.63 2.47 13.4
2/24/2021 4:00:00 AM 1.27 34.286 0.176 6.63 2.45 13.4
2/24/2021 4:15:00 AM 1.25 34.25 0.176 6.63 2.46 13.41
2/24/2021 4:30:00 AM 1.25 34.25 0.176 6.63 2.46 13.41
2/24/2021 4:45:00 AM 1.23 34.214 0.176 6.63 2.42 13.42
2/24/2021 5:00:00 AM 1.22 34.196 0.176 6.63 2.46 13.43
2/24/2021 5:15:00 AM 1.21 34.178 0.176 6.63 2.45 13.43
2/24/2021 5:30:00 AM 1.19 34.142 0.176 6.63 2.48 13.44
2/24/2021 5:45:00 AM 1.17 34.106 0.176 6.63 2.44 13.44
2/24/2021 6:00:00 AM 1.16 34.088 0.176 6.62 2.46 13.46
2/24/2021 6:15:00 AM 1.15 34.07 0.176 6.62 2.46 13.47
2/24/2021 6:30:00 AM 1.15 34.07 0.176 6.62 2.47 13.46
2/24/2021 6:45:00 AM 1.14 34.052 0.176 6.62 2.47 13.46
2/24/2021 7:00:00 AM 1.13 34.034 0.176 6.62 2.46 13.47
2/24/2021 7:15:00 AM 1.12 34.016 0.176 6.62 2.4 13.48
2/24/2021 7:30:00 AM 1.12 34.016 0.176 6.62 2.47 13.48
2/24/2021 7:45:00 AM 1.12 34.016 0.176 6.62 2.45 13.49
2/24/2021 8:00:00 AM 1.13 34.034 0.176 6.62 2.45 13.49
2/24/2021 8:15:00 AM 1.14 34.052 0.176 6.62 2.47 13.48
2/24/2021 8:30:00 AM 1.14 34.052 0.176 6.62 2.47 13.48
2/24/2021 8:45:00 AM 1.16 34.088 0.176 6.62 2.42 13.48
2/24/2021 9:00:00 AM 1.18 34.124 0.176 6.62 2.49 13.46
2/24/2021 9:15:00 AM 1.22 34.196 0.176 6.62 2.46 13.44
2/24/2021 9:30:00 AM 1.27 34.286 0.176 6.62 2.46 13.42
2/24/2021 9:45:00 AM 1.32 34.376 0.176 6.63 2.43 13.4
2/24/2021 10:00:00 AM 1.38 34.484 0.176 6.63 2.46 13.38
2/24/2021 10:15:00 AM 1.45 34.61 0.176 6.63 2.46 13.34
2/24/2021 10:30:00 AM 1.54 34.772 0.176 6.63 2.44 13.3
2/24/2021 10:45:00 AM 1.61 34.898 0.175 6.63 2.44 13.26
2/24/2021 11:00:00 AM 1.7 35.06 0.175 6.63 2.43 13.22
2/24/2021 11:15:00 AM 1.8 35.24 0.175 6.64 2.44 13.18
2/24/2021 11:30:00 AM 1.89 35.402 0.175 6.63 2.44 13.14
2/24/2021 11:45:00 AM 2 35.6 0.175 6.64 2.42 13.09
2/24/2021 12:00:00 PM 2.11 35.798 0.175 6.64 2.39 13.04
2/24/2021 12:15:00 PM 2.19 35.942 0.174 6.64 2.44 13
2/24/2021 12:30:00 PM 2.29 36.122 0.174 6.64 2.48 12.95
2/24/2021 12:45:00 PM 2.39 36.302 0.174 6.64 2.44 12.91
2/24/2021 1:00:00 PM 2.52 36.536 0.174 6.65 2.45 12.85
2/24/2021 1:15:00 PM 2.63 36.734 0.174 6.65 2.46 12.81
2/24/2021 1:30:00 PM 2.7 36.86 0.173 6.65 2.45 12.78
2/24/2021 1:45:00 PM 2.78 37.004 0.173 6.65 2.45 12.74
2/24/2021 2:00:00 PM 2.71 36.878 0.173 6.65 2.52 12.75
2/24/2021 2:15:00 PM 2.72 36.896 0.174 6.66 2.53 12.73
2/24/2021 2:30:00 PM 2.63 36.734 0.174 6.66 2.58 12.76
2/24/2021 2:45:00 PM 2.68 36.824 0.174 6.66 2.63 12.75
2/24/2021 3:00:00 PM 2.55 36.59 0.175 6.66 2.72 12.78
2/24/2021 3:15:00 PM 2.42 36.356 0.176 6.66 2.84 12.82
2/24/2021 3:30:00 PM 2.27 36.086 0.178 6.66 3.01 12.87
2/24/2021 3:45:00 PM 2.17 35.906 0.18 6.66 3.24 12.91
2/24/2021 4:00:00 PM 2.16 35.888 0.184 6.66 3.53 12.92
2/24/2021 4:15:00 PM 2.1 35.78 0.188 6.67 3.96 12.94
2/24/2021 4:30:00 PM 1.96 35.528 0.196 6.68 4.2 12.98
2/24/2021 4:45:00 PM 1.96 35.528 0.21 6.68 4.19 12.99
2/24/2021 5:00:00 PM 1.89 35.402 0.227 6.69 4.49 13.02
2/24/2021 5:15:00 PM 1.73 35.114 0.248 6.7 5.1 13.06
2/24/2021 5:30:00 PM 1.82 35.276 0.268 6.71 5 13.05
2/24/2021 5:45:00 PM 1.79 35.222 0.288 6.73 5.57 13.06
2/24/2021 6:00:00 PM 1.81 35.258 0.308 6.74 5.89 13.06
2/24/2021 6:15:00 PM 1.69 35.042 0.328 6.76 5.7 13.11
2/24/2021 6:30:00 PM 1.63 34.934 0.349 6.77 6.66 13.12
2/24/2021 6:45:00 PM 1.78 35.204 0.371 6.79 6.47 13.1
2/24/2021 7:00:00 PM 1.77 35.186 0.395 6.8 6.54 13.1
2/24/2021 7:15:00 PM 1.78 35.204 0.421 6.81 6.88 13.07
2/24/2021 7:30:00 PM 1.82 35.276 0.453 6.82 6.51 13.08
2/24/2021 7:45:00 PM 1.94 35.492 0.486 6.83 6.66 13.06
2/24/2021 8:00:00 PM 1.96 35.528 0.516 6.84 6.68 13.04
2/24/2021 8:15:00 PM 1.97 35.546 0.546 6.85 6.53 13.05
2/24/2021 8:30:00 PM 1.96 35.528 0.57 6.87 6.46 13.05
2/24/2021 8:45:00 PM 1.78 35.204 0.594 6.88 10.26 13.07
2/24/2021 9:00:00 PM 1.91 35.438 0.612 6.88 6.91 13.07
2/24/2021 9:15:00 PM 1.97 35.546 0.629 6.88 6.53 13.07
2/24/2021 9:30:00 PM 1.99 35.582 0.642 6.89 6.56 13.07
2/24/2021 9:45:00 PM 1.92 35.456 0.649 6.9 6.52 13.1
2/24/2021 10:00:00 PM 1.99 35.582 0.655 6.91 6.06 13.08
2/24/2021 10:15:00 PM 2.03 35.654 0.659 6.91 5.96 13.07
2/24/2021 10:30:00 PM 2.05 35.69 0.66 6.92 5.71 13.07
2/24/2021 10:45:00 PM 2.07 35.726 0.661 6.92 5.73 13.06
2/24/2021 11:00:00 PM 2.08 35.744 0.662 6.92 5.15 13.07
2/24/2021 11:15:00 PM 2.09 35.762 0.662 6.92 5.11 13.07
2/24/2021 11:30:00 PM 2.1 35.78 0.66 6.93 5.14 13.07
2/24/2021 11:45:00 PM 2.1 35.78 0.659 6.93 4.96 13.07
2/25/2021 12:00:00 AM 2.11 35.798 0.655 6.93 4.82 13.07
2/25/2021 12:15:00 AM 2.11 35.798 0.653 6.93 4.91 13.07
2/25/2021 12:30:00 AM 2.11 35.798 0.652 6.93 4.61 13.08
2/25/2021 12:45:00 AM 2.11 35.798 0.648 6.94 4.53 13.08
2/25/2021 1:00:00 AM 2.11 35.798 0.644 6.94 4.5 13.09
2/25/2021 1:15:00 AM 2.11 35.798 0.641 6.94 4.4 13.09
2/25/2021 1:30:00 AM 2.11 35.798 0.636 6.94 4.31 13.1
2/25/2021 1:45:00 AM 2.1 35.78 0.632 6.94 4.03 13.1
2/25/2021 2:00:00 AM 2.09 35.762 0.629 6.94 3.95 13.11
2/25/2021 2:15:00 AM 2.07 35.726 0.624 6.94 3.9 13.12
2/25/2021 2:30:00 AM 2.05 35.69 0.62 6.94 3.95 13.14
2/25/2021 2:45:00 AM 2.03 35.654 0.616 6.94 3.78 13.14
2/25/2021 3:00:00 AM 2.02 35.636 0.612 6.95 3.85 13.16
2/25/2021 3:15:00 AM 2 35.6 0.607 6.95 3.8 13.16
2/25/2021 3:30:00 AM 1.99 35.582 0.605 6.95 3.69 13.17
2/25/2021 3:45:00 AM 1.96 35.528 0.601 6.95 3.61 13.18
2/25/2021 4:00:00 AM 1.93 35.474 0.597 6.94 3.6 13.19
2/25/2021 4:15:00 AM 1.91 35.438 0.595 6.94 3.59 13.21
2/25/2021 4:30:00 AM 1.87 35.366 0.592 6.94 3.57 13.23
2/25/2021 4:45:00 AM 1.83 35.294 0.59 6.94 3.51 13.24
2/25/2021 5:00:00 AM 1.81 35.258 0.587 6.94 3.54 13.26
2/25/2021 5:15:00 AM 1.78 35.204 0.584 6.94 3.59 13.27
2/25/2021 5:30:00 AM 1.75 35.15 0.581 6.94 3.61 13.28
2/25/2021 5:45:00 AM 1.71 35.078 0.578 6.94 3.47 13.3
2/25/2021 6:00:00 AM 1.68 35.024 0.576 6.95 3.49 13.31
2/25/2021 6:15:00 AM 1.65 34.97 0.573 6.94 3.37 13.32
2/25/2021 6:30:00 AM 1.63 34.934 0.569 6.94 3.45 13.34
2/25/2021 6:45:00 AM 1.6 34.88 0.566 6.94 3.43 13.35
2/25/2021 7:00:00 AM 1.58 34.844 0.563 6.94 3.33 13.35
2/25/2021 7:15:00 AM 1.57 34.826 0.56 6.94 3.38 13.36
2/25/2021 7:30:00 AM 1.55 34.79 0.558 6.94 3.35 13.37
2/25/2021 7:45:00 AM 1.55 34.79 0.555 6.93 3.33 13.37
2/25/2021 8:00:00 AM 1.54 34.772 0.552 6.94 3.32 13.39
2/25/2021 8:15:00 AM 1.55 34.79 0.549 6.94 3.3 13.38
2/25/2021 8:30:00 AM 1.58 34.844 0.546 6.94 3.26 13.38
2/25/2021 8:45:00 AM 1.6 34.88 0.543 6.94 3.29 13.38
2/25/2021 9:00:00 AM 1.64 34.952 0.54 6.94 3.19 13.37
2/25/2021 9:15:00 AM 1.67 35.006 0.537 6.94 3.21 13.35
2/25/2021 9:30:00 AM 1.72 35.096 0.534 6.94 3.26 13.34
2/25/2021 9:45:00 AM 1.79 35.222 0.531 6.94 3.33 13.31
2/25/2021 10:00:00 AM 1.87 35.366 0.528 6.94 3.17 13.28
2/25/2021 10:15:00 AM 1.95 35.51 0.526 6.94 3.22 13.25
2/25/2021 10:30:00 AM 2.03 35.654 0.522 6.94 3.14 13.23
2/25/2021 10:45:00 AM 2.12 35.816 0.52 6.94 3.12 13.19
2/25/2021 11:00:00 AM 2.22 35.996 0.517 6.94 3.09 13.15
2/25/2021 11:15:00 AM 2.36 36.248 0.514 6.94 3.07 13.1
2/25/2021 11:30:00 AM 2.48 36.464 0.516 6.94 3.11 13.06
2/25/2021 11:45:00 AM 2.57 36.626 0.516 6.94 3.1 13.01
2/25/2021 12:00:00 PM 2.68 36.824 0.51 6.94 3.14 12.98
2/25/2021 12:15:00 PM 2.78 37.004 0.506 6.94 3.02 12.94
2/25/2021 12:30:00 PM 2.88 37.184 0.504 6.94 3.04 12.9
2/25/2021 12:45:00 PM 2.97 37.346 0.501 6.94 3.01 12.87
2/25/2021 1:00:00 PM 3.06 37.508 0.499 6.94 2.98 12.84
2/25/2021 1:15:00 PM 3.13 37.634 0.497 6.94 3.06 12.81
2/25/2021 1:30:00 PM 3.18 37.724 0.497 6.95 2.99 12.79
2/25/2021 1:45:00 PM 3.21 37.778 0.496 6.95 2.99 12.77
2/25/2021 2:00:00 PM 3.24 37.832 0.496 6.95 2.96 12.76
2/25/2021 2:15:00 PM 3.24 37.832 0.498 6.95 3.04 12.76
2/25/2021 2:30:00 PM 3.21 37.778 0.5 6.95 3.02 12.77
2/25/2021 2:45:00 PM 3.17 37.706 0.505 6.95 3.04 12.79
2/25/2021 3:00:00 PM 3.13 37.634 0.514 6.96 3.09 12.8
2/25/2021 3:15:00 PM 3.08 37.544 0.525 6.96 3.2 12.82
2/25/2021 3:30:00 PM 3.02 37.436 0.539 6.97 3.12 12.84
2/25/2021 3:45:00 PM 2.94 37.292 0.555 6.97 3.23 12.87
2/25/2021 4:00:00 PM 2.86 37.148 0.573 6.98 3.14 12.9
2/25/2021 4:15:00 PM 2.77 36.986 0.591 6.99 3.24 12.93
2/25/2021 4:30:00 PM 2.69 36.842 0.609 6.99 3.21 12.96
2/25/2021 4:45:00 PM 2.63 36.734 0.627 7 3.32 12.98
2/25/2021 5:00:00 PM 2.58 36.644 0.645 7 3.43 13
2/25/2021 5:15:00 PM 2.53 36.554 0.661 7.01 3.34 13.01
2/25/2021 5:30:00 PM 2.49 36.482 0.677 7.02 3.23 13.03
2/25/2021 5:45:00 PM 2.46 36.428 0.693 7.02 3.22 13.04
2/25/2021 6:00:00 PM 2.42 36.356 0.711 7.03 3.2 13.06
2/25/2021 6:15:00 PM 2.39 36.302 0.728 7.03 3.25 13.07
2/25/2021 6:30:00 PM 2.35 36.23 0.745 7.03 3.2 13.08
2/25/2021 6:45:00 PM 2.32 36.176 0.76 7.04 3.34 13.1
2/25/2021 7:00:00 PM 2.29 36.122 0.774 7.04 3.25 13.11
2/25/2021 7:15:00 PM 2.25 36.05 0.786 7.04 3.11 13.13
2/25/2021 7:30:00 PM 2.21 35.978 0.796 7.05 3.09 13.14
2/25/2021 7:45:00 PM 2.17 35.906 0.804 7.05 3.08 13.16
2/25/2021 8:00:00 PM 2.13 35.834 0.81 7.05 3.03 13.17
2/25/2021 8:15:00 PM 2.09 35.762 0.813 7.05 3.01 13.19
2/25/2021 8:30:00 PM 2.06 35.708 0.814 7.05 3.05 13.2
2/25/2021 8:45:00 PM 2.02 35.636 0.813 7.05 3.04 13.21
2/25/2021 9:00:00 PM 2 35.6 0.811 7.05 2.97 13.22
2/25/2021 9:15:00 PM 1.97 35.546 0.808 7.05 3 13.24
2/25/2021 9:30:00 PM 1.94 35.492 0.805 7.05 2.95 13.25
2/25/2021 9:45:00 PM 1.92 35.456 0.801 7.05 2.99 13.26
2/25/2021 10:00:00 PM 1.89 35.402 0.796 7.05 2.92 13.27
2/25/2021 10:15:00 PM 1.87 35.366 0.791 7.05 2.93 13.28
2/25/2021 10:30:00 PM 1.85 35.33 0.786 7.05 2.89 13.3
2/25/2021 10:45:00 PM 1.84 35.312 0.781 7.05 2.88 13.3
2/25/2021 11:00:00 PM 1.83 35.294 0.775 7.05 2.94 13.31
2/25/2021 11:15:00 PM 1.81 35.258 0.769 7.05 2.88 13.31
2/25/2021 11:30:00 PM 1.8 35.24 0.763 7.05 2.82 13.32
2/25/2021 11:45:00 PM 1.78 35.204 0.758 7.05 2.97 13.33
2/26/2021 12:00:00 AM 1.77 35.186 0.752 7.05 2.89 13.34
2/26/2021 12:15:00 AM 1.75 35.15 0.746 7.05 2.87 13.34
2/26/2021 12:30:00 AM 1.73 35.114 0.74 7.04 2.98 13.35
2/26/2021 12:45:00 AM 1.72 35.096 0.735 7.04 2.85 13.36
2/26/2021 1:00:00 AM 1.7 35.06 0.729 7.04 2.88 13.36
2/26/2021 1:15:00 AM 1.68 35.024 0.723 7.04 2.82 13.37
2/26/2021 1:30:00 AM 1.66 34.988 0.718 7.03 2.85 13.38
2/26/2021 1:45:00 AM 1.63 34.934 0.713 7.03 2.83 13.39
2/26/2021 2:00:00 AM 1.59 34.862 0.707 7.03 2.85 13.41
2/26/2021 2:15:00 AM 1.56 34.808 0.703 7.03 2.82 13.42
2/26/2021 2:30:00 AM 1.52 34.736 0.698 7.02 2.82 13.43
2/26/2021 2:45:00 AM 1.49 34.682 0.693 7.02 2.82 13.44
2/26/2021 3:00:00 AM 1.46 34.628 0.689 7.02 2.83 13.46
2/26/2021 3:15:00 AM 1.43 34.574 0.685 7.02 2.82 13.47
2/26/2021 3:30:00 AM 1.41 34.538 0.68 7.02 2.82 13.48
2/26/2021 3:45:00 AM 1.39 34.502 0.676 7.02 2.8 13.5
2/26/2021 4:00:00 AM 1.38 34.484 0.672 7.01 2.81 13.49
2/26/2021 4:15:00 AM 1.37 34.466 0.668 7.01 2.83 13.51
2/26/2021 4:30:00 AM 1.36 34.448 0.665 7.01 2.75 13.51
2/26/2021 4:45:00 AM 1.35 34.43 0.661 7.01 2.8 13.52
2/26/2021 5:00:00 AM 1.35 34.43 0.657 7.01 2.8 13.52
2/26/2021 5:15:00 AM 1.34 34.412 0.654 7 2.8 13.53
2/26/2021 5:30:00 AM 1.33 34.394 0.65 7 2.79 13.53
2/26/2021 5:45:00 AM 1.31 34.358 0.646 7 2.77 13.54
2/26/2021 6:00:00 AM 1.29 34.322 0.643 7 2.76 13.55
2/26/2021 6:15:00 AM 1.26 34.268 0.64 7 2.75 13.56
2/26/2021 6:30:00 AM 1.23 34.214 0.636 6.99 2.72 13.58
2/26/2021 6:45:00 AM 1.2 34.16 0.632 6.99 2.79 13.59
2/26/2021 7:00:00 AM 1.17 34.106 0.629 6.99 2.81 13.6
2/26/2021 7:15:00 AM 1.14 34.052 0.625 6.98 2.74 13.62
2/26/2021 7:30:00 AM 1.11 33.998 0.622 6.98 2.71 13.64
2/26/2021 7:45:00 AM 1.09 33.962 0.619 6.98 2.77 13.65
2/26/2021 8:00:00 AM 1.08 33.944 0.615 6.98 2.73 13.66
2/26/2021 8:15:00 AM 1.07 33.926 0.612 6.98 2.72 13.67
2/26/2021 8:30:00 AM 1.08 33.944 0.608 6.97 2.73 13.67
2/26/2021 8:45:00 AM 1.12 34.016 0.605 6.97 2.71 13.66
2/26/2021 9:00:00 AM 1.17 34.106 0.602 6.97 2.68 13.64
2/26/2021 9:15:00 AM 1.24 34.232 0.598 6.97 2.73 13.61
2/26/2021 9:30:00 AM 1.31 34.358 0.595 6.97 2.71 13.59
2/26/2021 9:45:00 AM 1.4 34.52 0.592 6.98 2.73 13.55
2/26/2021 10:00:00 AM 1.52 34.736 0.588 6.98 2.68 13.5
2/26/2021 10:15:00 AM 1.64 34.952 0.585 6.98 2.69 13.45
2/26/2021 10:30:00 AM 1.74 35.132 0.582 6.98 2.69 13.41
2/26/2021 10:45:00 AM 1.85 35.33 0.579 6.98 2.64 13.37
2/26/2021 11:00:00 AM 1.96 35.528 0.576 6.98 2.68 13.32
2/26/2021 11:15:00 AM 2.09 35.762 0.573 6.98 2.69 13.27
2/26/2021 11:30:00 AM 2.22 35.996 0.57 6.98 2.65 13.22
2/26/2021 11:45:00 AM 2.32 36.176 0.568 6.98 2.65 13.17
2/26/2021 12:00:00 PM 2.42 36.356 0.565 6.97 2.65 13.14
2/26/2021 12:15:00 PM 2.48 36.464 0.562 6.97 2.64 13.11
2/26/2021 12:30:00 PM 2.53 36.554 0.56 6.97 2.67 13.09
2/26/2021 12:45:00 PM 2.58 36.644 0.557 6.97 2.66 13.07
2/26/2021 1:00:00 PM 2.65 36.77 0.555 6.97 2.64 13.05
2/26/2021 1:15:00 PM 2.69 36.842 0.553 6.97 2.6 13.03
2/26/2021 1:30:00 PM 2.73 36.914 0.551 6.97 2.62 13.02
2/26/2021 1:45:00 PM 2.77 36.986 0.549 6.97 2.62 13
2/26/2021 2:00:00 PM 2.8 37.04 0.548 6.97 2.64 13
2/26/2021 2:15:00 PM 2.84 37.112 0.546 6.97 2.65 12.98
2/26/2021 2:30:00 PM 2.84 37.112 0.545 6.96 2.66 12.97
2/26/2021 2:45:00 PM 2.85 37.13 0.544 6.96 2.65 12.96
2/26/2021 3:00:00 PM 2.84 37.112 0.544 6.96 2.63 12.97
2/26/2021 3:15:00 PM 2.83 37.094 0.544 6.96 2.67 12.97
2/26/2021 3:30:00 PM 2.82 37.076 0.543 6.96 2.63 12.98
2/26/2021 3:45:00 PM 2.81 37.058 0.543 6.96 2.63 12.98
2/26/2021 4:00:00 PM 2.79 37.022 0.543 6.96 2.67 12.99
2/26/2021 4:15:00 PM 2.76 36.968 0.543 6.95 2.64 12.99
2/26/2021 4:30:00 PM 2.73 36.914 0.544 6.95 2.62 13
2/26/2021 4:45:00 PM 2.68 36.824 0.545 6.95 2.61 13.01
2/26/2021 5:00:00 PM 2.65 36.77 0.546 6.95 2.7 13.02
2/26/2021 5:15:00 PM 2.62 36.716 0.548 6.95 2.65 13.02
2/26/2021 5:30:00 PM 2.59 36.662 0.55 6.95 2.65 13.03
2/26/2021 5:45:00 PM 2.55 36.59 0.551 6.95 2.61 13.04
2/26/2021 6:00:00 PM 2.5 36.5 0.553 6.95 2.62 13.06
2/26/2021 6:15:00 PM 2.46 36.428 0.555 6.95 2.62 13.07
2/26/2021 6:30:00 PM 2.43 36.374 0.557 6.95 2.61 13.08
2/26/2021 6:45:00 PM 2.4 36.32 0.559 6.95 2.6 13.09
2/26/2021 7:00:00 PM 2.38 36.284 0.56 6.95 2.63 13.1
2/26/2021 7:15:00 PM 2.36 36.248 0.561 6.95 2.63 13.1
2/26/2021 7:30:00 PM 2.34 36.212 0.563 6.95 2.64 13.11
2/26/2021 7:45:00 PM 2.32 36.176 0.564 6.95 2.62 13.12
2/26/2021 8:00:00 PM 2.3 36.14 0.565 6.95 2.62 13.11
2/26/2021 8:15:00 PM 2.28 36.104 0.566 6.94 2.69 13.13
2/26/2021 8:30:00 PM 2.25 36.05 0.566 6.94 2.59 13.13
2/26/2021 8:45:00 PM 2.24 36.032 0.567 6.94 2.65 13.13
2/26/2021 9:00:00 PM 2.23 36.014 0.568 6.95 2.65 13.14
2/26/2021 9:15:00 PM 2.23 36.014 0.569 6.94 2.57 13.14
2/26/2021 9:30:00 PM 2.23 36.014 0.569 6.94 2.61 13.14
2/26/2021 9:45:00 PM 2.23 36.014 0.569 6.94 2.61 13.13
2/26/2021 10:00:00 PM 2.23 36.014 0.569 6.94 2.67 13.13
2/26/2021 10:15:00 PM 2.23 36.014 0.569 6.94 2.57 13.13
2/26/2021 10:30:00 PM 2.24 36.032 0.568 6.94 2.61 13.13
2/26/2021 10:45:00 PM 2.25 36.05 0.568 6.94 2.69 13.13
2/26/2021 11:00:00 PM 2.25 36.05 0.567 6.94 2.76 13.12
2/26/2021 11:15:00 PM 2.25 36.05 0.566 6.94 2.71 13.12
2/26/2021 11:30:00 PM 2.24 36.032 0.565 6.94 2.68 13.13
2/26/2021 11:45:00 PM 2.21 35.978 0.564 6.94 2.67 13.13
2/27/2021 12:00:00 AM 2.18 35.924 0.562 6.94 2.66 13.14
2/27/2021 12:15:00 AM 2.19 35.942 0.561 6.94 2.61 13.14
2/27/2021 12:30:00 AM 2.2 35.96 0.56 6.93 2.6 13.14
2/27/2021 12:45:00 AM 2.22 35.996 0.559 6.93 2.68 13.13
2/27/2021 1:00:00 AM 2.24 36.032 0.557 6.93 2.66 13.12
2/27/2021 1:15:00 AM 2.25 36.05 0.556 6.93 2.6 13.12
2/27/2021 1:30:00 AM 2.27 36.086 0.556 6.93 2.64 13.1
2/27/2021 1:45:00 AM 2.28 36.104 0.554 6.93 2.62 13.1
2/27/2021 2:00:00 AM 2.29 36.122 0.553 6.93 2.6 13.09
2/27/2021 2:15:00 AM 2.29 36.122 0.552 6.93 2.57 13.09
2/27/2021 2:30:00 AM 2.3 36.14 0.55 6.93 2.59 13.08
2/27/2021 2:45:00 AM 2.3 36.14 0.548 6.93 2.58 13.08
2/27/2021 3:00:00 AM 2.3 36.14 0.547 6.93 2.57 13.08
2/27/2021 3:15:00 AM 2.3 36.14 0.545 6.93 2.58 13.08
2/27/2021 3:30:00 AM 2.3 36.14 0.544 6.92 2.58 13.08
2/27/2021 3:45:00 AM 2.3 36.14 0.542 6.92 2.6 13.07
2/27/2021 4:00:00 AM 2.31 36.158 0.541 6.92 2.59 13.06
2/27/2021 4:15:00 AM 2.31 36.158 0.539 6.93 2.57 13.06
2/27/2021 4:30:00 AM 2.31 36.158 0.538 6.92 2.57 13.05
2/27/2021 4:45:00 AM 2.31 36.158 0.536 6.92 2.6 13.06
2/27/2021 5:00:00 AM 2.32 36.176 0.535 6.92 2.58 13.05
2/27/2021 5:15:00 AM 2.32 36.176 0.534 6.92 2.56 13.05
2/27/2021 5:30:00 AM 2.32 36.176 0.532 6.92 2.6 13.04
2/27/2021 5:45:00 AM 2.32 36.176 0.531 6.92 2.56 13.04
2/27/2021 6:00:00 AM 2.33 36.194 0.529 6.92 2.55 13.04
2/27/2021 6:15:00 AM 2.34 36.212 0.527 6.92 2.57 13.04
2/27/2021 6:30:00 AM 2.34 36.212 0.526 6.91 2.58 13.04
2/27/2021 6:45:00 AM 2.35 36.23 0.524 6.91 2.52 13.03
2/27/2021 7:00:00 AM 2.36 36.248 0.523 6.91 2.57 13.03
2/27/2021 7:15:00 AM 2.36 36.248 0.521 6.91 2.59 13.02
2/27/2021 7:30:00 AM 2.37 36.266 0.52 6.91 2.57 13.02
2/27/2021 7:45:00 AM 2.37 36.266 0.518 6.91 2.54 13.02
2/27/2021 8:00:00 AM 2.38 36.284 0.516 6.91 2.53 13.01
2/27/2021 8:15:00 AM 2.4 36.32 0.515 6.91 2.57 13.01
2/27/2021 8:30:00 AM 2.41 36.338 0.513 6.91 2.54 13
2/27/2021 8:45:00 AM 2.42 36.356 0.512 6.9 2.53 13
2/27/2021 9:00:00 AM 2.42 36.356 0.511 6.9 2.56 12.99
2/27/2021 9:15:00 AM 2.45 36.41 0.509 6.91 2.56 12.99
2/27/2021 9:30:00 AM 2.47 36.446 0.508 6.9 2.56 12.98
2/27/2021 9:45:00 AM 2.48 36.464 0.506 6.9 2.53 12.97
2/27/2021 10:00:00 AM 2.5 36.5 0.505 6.9 2.56 12.97
2/27/2021 10:15:00 AM 2.52 36.536 0.504 6.9 2.57 12.95
2/27/2021 10:30:00 AM 2.54 36.572 0.502 6.9 2.58 12.96
2/27/2021 10:45:00 AM 2.56 36.608 0.501 6.9 2.58 12.95
2/27/2021 11:00:00 AM 2.6 36.68 0.499 6.9 2.56 12.94
2/27/2021 11:15:00 AM 2.67 36.806 0.497 6.9 2.56 12.92
2/27/2021 11:30:00 AM 2.74 36.932 0.496 6.9 2.52 12.91
2/27/2021 11:45:00 AM 2.79 37.022 0.494 6.9 2.54 12.88
2/27/2021 12:00:00 PM 2.84 37.112 0.492 6.89 2.59 12.86
2/27/2021 12:15:00 PM 2.91 37.238 0.491 6.9 2.56 12.83
2/27/2021 12:30:00 PM 2.99 37.382 0.49 6.89 2.53 12.82
2/27/2021 12:45:00 PM 3.09 37.562 0.488 6.9 2.58 12.78
2/27/2021 1:00:00 PM 3.2 37.76 0.487 6.9 2.53 12.74
2/27/2021 1:15:00 PM 3.31 37.958 0.486 6.9 2.49 12.69
2/27/2021 1:30:00 PM 3.41 38.138 0.484 6.9 2.63 12.66
2/27/2021 1:45:00 PM 3.48 38.264 0.483 6.9 2.53 12.63
2/27/2021 2:00:00 PM 3.51 38.318 0.482 6.9 2.52 12.62
2/27/2021 2:15:00 PM 3.54 38.372 0.481 6.9 2.55 12.6
2/27/2021 2:30:00 PM 3.58 38.444 0.481 6.9 2.55 12.6
2/27/2021 2:45:00 PM 3.6 38.48 0.481 6.9 2.57 12.59
2/27/2021 3:00:00 PM 3.6 38.48 0.481 6.9 2.6 12.59
2/27/2021 3:15:00 PM 3.6 38.48 0.482 6.91 2.64 12.6
2/27/2021 3:30:00 PM 3.59 38.462 0.485 6.91 2.63 12.6
2/27/2021 3:45:00 PM 3.57 38.426 0.488 6.92 2.72 12.61
2/27/2021 4:00:00 PM 3.57 38.426 0.492 6.92 2.78 12.62
2/27/2021 4:15:00 PM 3.56 38.408 0.497 6.92 2.79 12.62
2/27/2021 4:30:00 PM 3.53 38.354 0.505 6.93 2.86 12.63
2/27/2021 4:45:00 PM 3.49 38.282 0.514 6.93 3.28 12.65
2/27/2021 5:00:00 PM 3.45 38.21 0.525 6.94 2.93 12.66
2/27/2021 5:15:00 PM 3.39 38.102 0.537 6.95 2.99 12.68
2/27/2021 5:30:00 PM 3.35 38.03 0.551 6.96 3.03 12.7
2/27/2021 5:45:00 PM 3.3 37.94 0.567 6.97 3.11 12.72
2/27/2021 6:00:00 PM 3.25 37.85 0.582 6.98 3.16 12.74
2/27/2021 6:15:00 PM 3.2 37.76 0.6 6.98 3.29 12.76
2/27/2021 6:30:00 PM 3.16 37.688 0.339 6.99 3.24 12.79
2/27/2021 6:45:00 PM 3.13 37.634 0.354 7 3.38 12.81
2/27/2021 7:00:00 PM 3.11 37.598 0.358 7 3.35 12.82
2/27/2021 7:15:00 PM 3.09 37.562 0.663 7.01 3.29 12.82
2/27/2021 7:30:00 PM 3.07 37.526 0.673 7.01 3.31 12.82
2/27/2021 7:45:00 PM 3.05 37.49 0.681 7.01 3.22 12.84
2/27/2021 8:00:00 PM 3.02 37.436 0.689 7.02 3.16 12.85
2/27/2021 8:15:00 PM 3 37.4 0.695 7.02 3.13 12.85
2/27/2021 8:30:00 PM 2.96 37.328 0.7 7.02 2.99 12.86
2/27/2021 8:45:00 PM 2.95 37.31 0.703 7.02 2.97 12.88
2/27/2021 9:00:00 PM 2.92 37.256 0.706 7.02 2.95 12.88
2/27/2021 9:15:00 PM 2.9 37.22 0.708 7.02 2.93 12.9
2/27/2021 9:30:00 PM 2.88 37.184 0.709 7.03 2.96 12.91
2/27/2021 9:45:00 PM 2.86 37.148 0.709 7.03 2.95 12.92
2/27/2021 10:00:00 PM 2.84 37.112 0.709 7.03 2.96 12.92
2/27/2021 10:15:00 PM 2.82 37.076 0.709 7.03 2.96 12.93
2/27/2021 10:30:00 PM 2.81 37.058 0.708 7.03 2.85 12.93
2/27/2021 10:45:00 PM 2.8 37.04 0.707 7.03 2.92 12.94
2/27/2021 11:00:00 PM 2.79 37.022 0.706 7.03 2.89 12.94
2/27/2021 11:15:00 PM 2.77 36.986 0.704 7.02 2.85 12.95
2/27/2021 11:30:00 PM 2.76 36.968 0.702 7.02 2.88 12.95
2/27/2021 11:45:00 PM 2.75 36.95 0.7 7.02 2.85 12.96
2/28/2021 12:00:00 AM 2.74 36.932 0.698 7.02 2.91 12.96
2/28/2021 12:15:00 AM 2.73 36.914 0.696 7.03 2.89 12.96
2/28/2021 12:30:00 AM 2.72 36.896 0.694 7.02 2.87 12.97
2/28/2021 12:45:00 AM 2.72 36.896 0.692 7.01 2.84 12.97
2/28/2021 1:00:00 AM 2.72 36.896 0.69 7.01 2.83 12.97
2/28/2021 1:15:00 AM 2.72 36.896 0.688 7.01 2.81 12.97
2/28/2021 1:30:00 AM 2.72 36.896 0.686 7.01 2.76 12.97
2/28/2021 1:45:00 AM 2.72 36.896 0.683 7.01 2.99 12.97
2/28/2021 2:00:00 AM 2.72 36.896 0.681 7.01 3 12.97
2/28/2021 2:15:00 AM 2.72 36.896 0.678 7.01 2.87 12.97
2/28/2021 2:30:00 AM 2.72 36.896 0.676 7 2.72 12.96
2/28/2021 2:45:00 AM 2.72 36.896 0.673 7 2.72 12.96
2/28/2021 3:00:00 AM 2.72 36.896 0.671 7 2.72 12.96
2/28/2021 3:15:00 AM 2.71 36.878 0.668 7 2.69 12.95
2/28/2021 3:30:00 AM 2.71 36.878 0.665 7 2.69 12.96
2/28/2021 3:45:00 AM 2.71 36.878 0.662 6.99 2.64 12.95
2/28/2021 4:00:00 AM 2.71 36.878 0.659 6.99 2.66 12.95
2/28/2021 4:15:00 AM 2.7 36.86 0.657 6.99 2.63 12.96
2/28/2021 4:30:00 AM 2.7 36.86 0.654 6.99 2.63 12.95
2/28/2021 4:45:00 AM 2.71 36.878 0.651 6.99 2.65 12.96
2/28/2021 5:00:00 AM 2.71 36.878 0.648 6.99 2.68 12.95
2/28/2021 5:15:00 AM 2.72 36.896 0.644 6.99 2.65 12.95
2/28/2021 5:30:00 AM 2.73 36.914 0.641 6.98 2.64 12.94
2/28/2021 5:45:00 AM 2.74 36.932 0.638 6.99 2.6 12.94
2/28/2021 6:00:00 AM 2.75 36.95 0.635 6.98 2.62 12.93
2/28/2021 6:15:00 AM 2.77 36.986 0.632 6.98 2.59 12.92
2/28/2021 6:30:00 AM 2.78 37.004 0.629 6.98 2.6 12.92
2/28/2021 6:45:00 AM 2.79 37.022 0.626 6.98 2.56 12.91
2/28/2021 7:00:00 AM 2.81 37.058 0.623 6.98 2.56 12.9
2/28/2021 7:15:00 AM 2.82 37.076 0.62 6.98 2.57 12.89
2/28/2021 7:30:00 AM 2.85 37.13 0.617 6.98 2.56 12.88
2/28/2021 7:45:00 AM 2.86 37.148 0.614 6.98 2.54 12.88
2/28/2021 8:00:00 AM 2.87 37.166 0.61 6.98 2.56 12.87
2/28/2021 8:15:00 AM 2.88 37.184 0.606 6.98 2.56 12.87
2/28/2021 8:30:00 AM 2.89 37.202 0.602 6.98 2.55 12.87
2/28/2021 8:45:00 AM 2.9 37.22 0.6 6.98 2.58 12.87
2/28/2021 9:00:00 AM 2.91 37.238 0.595 6.98 2.62 12.86
2/28/2021 9:15:00 AM 2.91 37.238 0.591 6.97 2.58 12.86
2/28/2021 9:30:00 AM 2.92 37.256 0.589 6.97 2.64 12.86
2/28/2021 9:45:00 AM 2.92 37.256 0.587 6.97 2.61 12.85
2/28/2021 10:00:00 AM 2.93 37.274 0.583 6.97 2.7 12.85
2/28/2021 10:15:00 AM 2.93 37.274 0.579 6.97 2.64 12.85
2/28/2021 10:30:00 AM 2.94 37.292 0.577 6.96 2.69 12.85
2/28/2021 10:45:00 AM 2.93 37.274 0.573 6.96 2.69 12.85
2/28/2021 11:00:00 AM 2.92 37.256 0.569 6.96 2.72 12.86
2/28/2021 11:15:00 AM 2.91 37.238 0.566 6.96 2.91 12.86
2/28/2021 11:30:00 AM 2.89 37.202 0.562 6.96 3.07 12.86
2/28/2021 11:45:00 AM 2.86 37.148 0.56 6.97 3.43 12.88
2/28/2021 12:00:00 PM 2.84 37.112 0.562 6.96 4.21 12.87
2/28/2021 12:15:00 PM 2.82 37.076 0.567 6.97 5.49 12.88
2/28/2021 12:30:00 PM 2.76 36.968 0.572 6.98 8.08 12.9
2/28/2021 12:45:00 PM 2.61 36.698 0.581 6.99 10.73 12.94
2/28/2021 1:00:00 PM 2.62 36.716 0.593 6.99 12.41 12.95
2/28/2021 1:15:00 PM 2.58 36.644 0.601 7 12.98 12.97
2/28/2021 1:30:00 PM 2.58 36.644 0.609 7.01 13.95 12.96
2/28/2021 1:45:00 PM 2.62 36.716 0.61 7.02 14.71 12.96
2/28/2021 2:00:00 PM 2.68 36.824 0.606 7.02 12.71 12.94
2/28/2021 2:15:00 PM 2.72 36.896 0.604 7.02 12.46 12.92
2/28/2021 2:30:00 PM 2.78 37.004 0.605 7.02 12.26 12.88
2/28/2021 2:45:00 PM 2.83 37.094 0.606 7.02 10.38 12.85
2/28/2021 3:00:00 PM 2.89 37.202 0.607 7.03 10.97 12.83
2/28/2021 3:15:00 PM 2.92 37.256 0.605 7.03 9.34 12.82
2/28/2021 3:30:00 PM 2.95 37.31 0.604 7.03 8.65 12.8
2/28/2021 3:45:00 PM 2.98 37.364 0.602 7.03 8.31 12.79
2/28/2021 4:00:00 PM 3.01 37.418 0.6 7.03 7.94 12.78
2/28/2021 4:15:00 PM 3.02 37.436 0.599 7.02 7.62 12.77
2/28/2021 4:30:00 PM 3.04 37.472 0.601 7.02 7.52 12.77
2/28/2021 4:45:00 PM 3.04 37.472 0.602 7.02 7.24 12.76
2/28/2021 5:00:00 PM 3.04 37.472 0.604 7.02 7.24 12.77
2/28/2021 5:15:00 PM 3.04 37.472 0.606 7.02 7.15 12.76
2/28/2021 5:30:00 PM 3.05 37.49 0.609 7.02 6.76 12.76
2/28/2021 5:45:00 PM 3.05 37.49 0.612 7.01 6.61 12.75
2/28/2021 6:00:00 PM 3.05 37.49 0.614 7.02 6.17 12.75
2/28/2021 6:15:00 PM 3.05 37.49 0.617 7.02 6.04 12.75
2/28/2021 6:30:00 PM 3.05 37.49 0.618 7.01 5.67 12.75
2/28/2021 6:45:00 PM 3.04 37.472 0.62 7.02 5.97 12.76
2/28/2021 7:00:00 PM 3.04 37.472 0.62 7.02 5.69 12.76
2/28/2021 7:15:00 PM 3.03 37.454 0.62 7.02 5.19 12.76
2/28/2021 7:30:00 PM 3.02 37.436 0.619 7.02 5.48 12.76
2/28/2021 7:45:00 PM 3.01 37.418 0.617 7.01 5.22 12.76
2/28/2021 8:00:00 PM 3 37.4